<?xml version='1.0' encoding='UTF-8'?><gpx version="1.1" creator="JPX - https://github.com/jenetics/jpx" xmlns="http://www.topografix.com/GPX/1/1"><trk><trkseg><trkpt lat="43.9830614" lon="3.5890349"><ele>350.0</ele><time>2026-04-11T17:37:48.018Z</time></trkpt><trkpt lat="43.9831508" lon="3.5890301"><ele>350.0</ele><time>2026-04-11T17:39:14.017Z</time></trkpt><trkpt lat="43.9832327" lon="3.589041"><ele>350.0</ele><time>2026-04-11T17:39:16.017Z</time></trkpt><trkpt lat="43.9832951" lon="3.5889532"><ele>350.0</ele><time>2026-04-11T17:39:33.018Z</time></trkpt><trkpt lat="43.9833452" lon="3.588895"><ele>350.0</ele><time>2026-04-11T17:39:35.018Z</time></trkpt><trkpt lat="43.9834419" lon="3.5887951"><ele>350.0</ele><time>2026-04-11T17:39:37.017Z</time></trkpt><trkpt lat="43.983488" lon="3.5887071"><ele>353.0</ele><time>2026-04-11T17:39:38.018Z</time></trkpt><trkpt lat="43.983527" lon="3.5886271"><ele>356.0</ele><time>2026-04-11T17:39:39.017Z</time></trkpt><trkpt lat="43.9835736" lon="3.5885569"><ele>359.0</ele><time>2026-04-11T17:39:40.017Z</time></trkpt><trkpt lat="43.9836186" lon="3.5884709"><ele>362.0</ele><time>2026-04-11T17:39:41.017Z</time></trkpt><trkpt lat="43.9836787" lon="3.588381"><ele>365.0</ele><time>2026-04-11T17:39:42.018Z</time></trkpt><trkpt lat="43.983745" lon="3.5882666"><ele>368.0</ele><time>2026-04-11T17:39:43.017Z</time></trkpt><trkpt lat="43.9838323" lon="3.5881338"><ele>368.0</ele><time>2026-04-11T17:39:44.017Z</time></trkpt><trkpt lat="43.9839235" lon="3.5879902"><ele>368.0</ele><time>2026-04-11T17:39:45.018Z</time></trkpt><trkpt lat="43.9840261" lon="3.5878311"><ele>368.0</ele><time>2026-04-11T17:39:46.017Z</time></trkpt><trkpt lat="43.9841474" lon="3.5876685"><ele>364.33333333333337</ele><time>2026-04-11T17:39:47.018Z</time></trkpt><trkpt lat="43.9842821" lon="3.5875266"><ele>360.6666666666667</ele><time>2026-04-11T17:39:48.017Z</time></trkpt><trkpt lat="43.9844269" lon="3.5874359"><ele>357.0</ele><time>2026-04-11T17:39:49.017Z</time></trkpt><trkpt lat="43.9845699" lon="3.587376"><ele>357.0</ele><time>2026-04-11T17:39:50.017Z</time></trkpt><trkpt lat="43.9847356" lon="3.5873521"><ele>357.0</ele><time>2026-04-11T17:39:51.017Z</time></trkpt><trkpt lat="43.9849108" lon="3.5873583"><ele>357.0</ele><time>2026-04-11T17:39:52.017Z</time></trkpt><trkpt lat="43.9850856" lon="3.5873742"><ele>353.3333333333333</ele><time>2026-04-11T17:39:53.018Z</time></trkpt><trkpt lat="43.9852813" lon="3.5874155"><ele>349.66666666666663</ele><time>2026-04-11T17:39:54.017Z</time></trkpt><trkpt lat="43.9854818" lon="3.5874582"><ele>346.0</ele><time>2026-04-11T17:39:55.017Z</time></trkpt><trkpt lat="43.9856798" lon="3.5875349"><ele>335.0</ele><time>2026-04-11T17:39:56.017Z</time></trkpt><trkpt lat="43.9858576" lon="3.5876351"><ele>324.0</ele><time>2026-04-11T17:39:57.017Z</time></trkpt><trkpt lat="43.9859951" lon="3.5877213"><ele>313.0</ele><time>2026-04-11T17:39:58.017Z</time></trkpt><trkpt lat="43.9860936" lon="3.5878346"><ele>319.0</ele><time>2026-04-11T17:39:59.018Z</time></trkpt><trkpt lat="43.9861657" lon="3.5879801"><ele>325.0</ele><time>2026-04-11T17:40:00.017Z</time></trkpt><trkpt lat="43.9862032" lon="3.5881462"><ele>331.0</ele><time>2026-04-11T17:40:01.017Z</time></trkpt><trkpt lat="43.9862277" lon="3.5883517"><ele>337.0</ele><time>2026-04-11T17:40:02.017Z</time></trkpt><trkpt lat="43.9862408" lon="3.5885807"><ele>343.3333333333333</ele><time>2026-04-11T17:40:03.017Z</time></trkpt><trkpt lat="43.9862618" lon="3.5888175"><ele>349.6666666666667</ele><time>2026-04-11T17:40:04.017Z</time></trkpt><trkpt lat="43.9863114" lon="3.5890405"><ele>356.0</ele><time>2026-04-11T17:40:05.017Z</time></trkpt><trkpt lat="43.9864089" lon="3.5892238"><ele>356.0</ele><time>2026-04-11T17:40:06.017Z</time></trkpt><trkpt lat="43.9865394" lon="3.589363"><ele>356.0</ele><time>2026-04-11T17:40:07.017Z</time></trkpt><trkpt lat="43.9866902" lon="3.5894441"><ele>356.0</ele><time>2026-04-11T17:40:08.018Z</time></trkpt><trkpt lat="43.9868898" lon="3.5894992"><ele>360.6666666666667</ele><time>2026-04-11T17:40:09.017Z</time></trkpt><trkpt lat="43.9870952" lon="3.5895609"><ele>365.3333333333333</ele><time>2026-04-11T17:40:10.018Z</time></trkpt><trkpt lat="43.9872521" lon="3.5896625"><ele>370.0</ele><time>2026-04-11T17:40:11.018Z</time></trkpt><trkpt lat="43.98737" lon="3.5898215"><ele>370.0</ele><time>2026-04-11T17:40:12.017Z</time></trkpt><trkpt lat="43.9874846" lon="3.5899808"><ele>370.0</ele><time>2026-04-11T17:40:13.016Z</time></trkpt><trkpt lat="43.9876013" lon="3.5901338"><ele>370.0</ele><time>2026-04-11T17:40:14.016Z</time></trkpt><trkpt lat="43.9877498" lon="3.5902234"><ele>373.0</ele><time>2026-04-11T17:40:15.016Z</time></trkpt><trkpt lat="43.9879463" lon="3.5902664"><ele>376.0</ele><time>2026-04-11T17:40:16.017Z</time></trkpt><trkpt lat="43.9881168" lon="3.5903368"><ele>379.0</ele><time>2026-04-11T17:40:17.017Z</time></trkpt><trkpt lat="43.9882926" lon="3.5904413"><ele>376.5</ele><time>2026-04-11T17:40:18.016Z</time></trkpt><trkpt lat="43.9884828" lon="3.5905747"><ele>374.0</ele><time>2026-04-11T17:40:19.017Z</time></trkpt><trkpt lat="43.9887075" lon="3.5906948"><ele>374.0</ele><time>2026-04-11T17:40:20.017Z</time></trkpt><trkpt lat="43.9889184" lon="3.590814"><ele>374.0</ele><time>2026-04-11T17:40:21.016Z</time></trkpt><trkpt lat="43.9890969" lon="3.5909221"><ele>374.0</ele><time>2026-04-11T17:40:22.016Z</time></trkpt><trkpt lat="43.9892692" lon="3.5910801"><ele>377.33333333333337</ele><time>2026-04-11T17:40:23.016Z</time></trkpt><trkpt lat="43.989446" lon="3.5912391"><ele>380.6666666666667</ele><time>2026-04-11T17:40:24.017Z</time></trkpt><trkpt lat="43.9896182" lon="3.5913547"><ele>384.0</ele><time>2026-04-11T17:40:25.016Z</time></trkpt><trkpt lat="43.989793" lon="3.5914335"><ele>384.0</ele><time>2026-04-11T17:40:26.016Z</time></trkpt><trkpt lat="43.9899792" lon="3.5914829"><ele>384.0</ele><time>2026-04-11T17:40:27.016Z</time></trkpt><trkpt lat="43.9901823" lon="3.591512"><ele>384.0</ele><time>2026-04-11T17:40:28.016Z</time></trkpt><trkpt lat="43.9904158" lon="3.591521"><ele>387.5</ele><time>2026-04-11T17:40:29.016Z</time></trkpt><trkpt lat="43.9906706" lon="3.5915502"><ele>391.0</ele><time>2026-04-11T17:40:30.017Z</time></trkpt><trkpt lat="43.9909407" lon="3.5915629"><ele>394.0</ele><time>2026-04-11T17:40:31.016Z</time></trkpt><trkpt lat="43.9912075" lon="3.5915677"><ele>397.0</ele><time>2026-04-11T17:40:32.017Z</time></trkpt><trkpt lat="43.9914607" lon="3.5915888"><ele>396.0</ele><time>2026-04-11T17:40:33.016Z</time></trkpt><trkpt lat="43.9917" lon="3.5916142"><ele>395.0</ele><time>2026-04-11T17:40:34.017Z</time></trkpt><trkpt lat="43.9919394" lon="3.5916635"><ele>395.0</ele><time>2026-04-11T17:40:35.016Z</time></trkpt><trkpt lat="43.9921676" lon="3.591724"><ele>395.0</ele><time>2026-04-11T17:40:36.016Z</time></trkpt><trkpt lat="43.9923802" lon="3.5917933"><ele>394.66666666666663</ele><time>2026-04-11T17:40:37.017Z</time></trkpt><trkpt lat="43.992584" lon="3.5918774"><ele>394.33333333333337</ele><time>2026-04-11T17:40:38.016Z</time></trkpt><trkpt lat="43.9927851" lon="3.5919228"><ele>394.0</ele><time>2026-04-11T17:40:39.016Z</time></trkpt><trkpt lat="43.9929981" lon="3.5919509"><ele>394.0</ele><time>2026-04-11T17:40:40.016Z</time></trkpt><trkpt lat="43.9932183" lon="3.5919536"><ele>394.0</ele><time>2026-04-11T17:40:41.016Z</time></trkpt><trkpt lat="43.9934465" lon="3.5919657"><ele>394.0</ele><time>2026-04-11T17:40:42.016Z</time></trkpt><trkpt lat="43.9936725" lon="3.591983"><ele>394.0</ele><time>2026-04-11T17:40:43.017Z</time></trkpt><trkpt lat="43.9938815" lon="3.5919952"><ele>394.0</ele><time>2026-04-11T17:40:44.016Z</time></trkpt><trkpt lat="43.994078" lon="3.5919915"><ele>394.0</ele><time>2026-04-11T17:40:45.016Z</time></trkpt><trkpt lat="43.9942525" lon="3.5919962"><ele>398.5</ele><time>2026-04-11T17:40:46.016Z</time></trkpt><trkpt lat="43.9943972" lon="3.5920079"><ele>403.0</ele><time>2026-04-11T17:40:47.016Z</time></trkpt><trkpt lat="43.9945193" lon="3.592025"><ele>407.5</ele><time>2026-04-11T17:40:48.016Z</time></trkpt><trkpt lat="43.9946201" lon="3.592098"><ele>412.0</ele><time>2026-04-11T17:40:49.016Z</time></trkpt><trkpt lat="43.9946982" lon="3.5922084"><ele>412.0</ele><time>2026-04-11T17:40:50.016Z</time></trkpt><trkpt lat="43.9947674" lon="3.5923276"><ele>412.0</ele><time>2026-04-11T17:40:51.016Z</time></trkpt><trkpt lat="43.9948224" lon="3.592459"><ele>412.0</ele><time>2026-04-11T17:40:52.016Z</time></trkpt><trkpt lat="43.9948671" lon="3.5925995"><ele>412.0</ele><time>2026-04-11T17:40:53.016Z</time></trkpt><trkpt lat="43.9949146" lon="3.592711"><ele>412.0</ele><time>2026-04-11T17:40:54.016Z</time></trkpt><trkpt lat="43.9949821" lon="3.5928051"><ele>410.5</ele><time>2026-04-11T17:40:55.017Z</time></trkpt><trkpt lat="43.9950715" lon="3.592856"><ele>409.0</ele><time>2026-04-11T17:40:56.017Z</time></trkpt><trkpt lat="43.9951946" lon="3.5928995"><ele>407.5</ele><time>2026-04-11T17:40:57.016Z</time></trkpt><trkpt lat="43.9953458" lon="3.5929461"><ele>406.0</ele><time>2026-04-11T17:40:58.016Z</time></trkpt><trkpt lat="43.9955183" lon="3.5929877"><ele>406.0</ele><time>2026-04-11T17:40:59.016Z</time></trkpt><trkpt lat="43.9957035" lon="3.5930256"><ele>406.0</ele><time>2026-04-11T17:41:00.016Z</time></trkpt><trkpt lat="43.9958928" lon="3.5930739"><ele>406.0</ele><time>2026-04-11T17:41:01.017Z</time></trkpt><trkpt lat="43.9960873" lon="3.593113"><ele>411.0</ele><time>2026-04-11T17:41:02.016Z</time></trkpt><trkpt lat="43.9962778" lon="3.5931556"><ele>416.0</ele><time>2026-04-11T17:41:03.016Z</time></trkpt><trkpt lat="43.9964593" lon="3.5931966"><ele>421.0</ele><time>2026-04-11T17:41:04.017Z</time></trkpt><trkpt lat="43.9966273" lon="3.5932402"><ele>428.0</ele><time>2026-04-11T17:41:05.016Z</time></trkpt><trkpt lat="43.9967779" lon="3.5932979"><ele>435.0</ele><time>2026-04-11T17:41:06.016Z</time></trkpt><trkpt lat="43.9969168" lon="3.5933548"><ele>442.0</ele><time>2026-04-11T17:41:07.016Z</time></trkpt><trkpt lat="43.9970334" lon="3.5934221"><ele>449.0</ele><time>2026-04-11T17:41:08.017Z</time></trkpt><trkpt lat="43.9971115" lon="3.5935367"><ele>449.0</ele><time>2026-04-11T17:41:09.017Z</time></trkpt><trkpt lat="43.9971483" lon="3.5936728"><ele>449.0</ele><time>2026-04-11T17:41:10.016Z</time></trkpt><trkpt lat="43.9971546" lon="3.5938499"><ele>449.0</ele><time>2026-04-11T17:41:11.016Z</time></trkpt><trkpt lat="43.9971227" lon="3.5940417"><ele>449.0</ele><time>2026-04-11T17:41:12.016Z</time></trkpt><trkpt lat="43.9970744" lon="3.5942722"><ele>451.66666666666663</ele><time>2026-04-11T17:41:13.016Z</time></trkpt><trkpt lat="43.9970306" lon="3.5945503"><ele>454.33333333333337</ele><time>2026-04-11T17:41:14.016Z</time></trkpt><trkpt lat="43.996985" lon="3.5948152"><ele>457.0</ele><time>2026-04-11T17:41:15.016Z</time></trkpt><trkpt lat="43.9969637" lon="3.595085"><ele>457.0</ele><time>2026-04-11T17:41:16.016Z</time></trkpt><trkpt lat="43.9969525" lon="3.5953752"><ele>457.0</ele><time>2026-04-11T17:41:17.017Z</time></trkpt><trkpt lat="43.9969431" lon="3.5956548"><ele>457.0</ele><time>2026-04-11T17:41:18.016Z</time></trkpt><trkpt lat="43.9969469" lon="3.5959096"><ele>457.0</ele><time>2026-04-11T17:41:19.016Z</time></trkpt><trkpt lat="43.9969756" lon="3.5961287"><ele>457.0</ele><time>2026-04-11T17:41:20.016Z</time></trkpt><trkpt lat="43.9970212" lon="3.596312"><ele>457.0</ele><time>2026-04-11T17:41:21.016Z</time></trkpt><trkpt lat="43.9971056" lon="3.5964695"><ele>457.0</ele><time>2026-04-11T17:41:22.016Z</time></trkpt><trkpt lat="43.9972415" lon="3.5965747"><ele>455.25</ele><time>2026-04-11T17:41:23.016Z</time></trkpt><trkpt lat="43.9973906" lon="3.5966408"><ele>453.5</ele><time>2026-04-11T17:41:24.017Z</time></trkpt><trkpt lat="43.9975221" lon="3.5967121"><ele>451.75</ele><time>2026-04-11T17:41:25.016Z</time></trkpt><trkpt lat="43.9976103" lon="3.5968117"><ele>450.0</ele><time>2026-04-11T17:41:26.017Z</time></trkpt><trkpt lat="43.9976567" lon="3.5969372"><ele>458.5</ele><time>2026-04-11T17:41:27.016Z</time></trkpt><trkpt lat="43.9976648" lon="3.5971057"><ele>467.0</ele><time>2026-04-11T17:41:28.017Z</time></trkpt><trkpt lat="43.997652" lon="3.5973053"><ele>475.5</ele><time>2026-04-11T17:41:29.017Z</time></trkpt><trkpt lat="43.9976213" lon="3.5975471"><ele>484.0</ele><time>2026-04-11T17:41:30.016Z</time></trkpt><trkpt lat="43.9975775" lon="3.5978234"><ele>482.33333333333337</ele><time>2026-04-11T17:41:31.016Z</time></trkpt><trkpt lat="43.997529" lon="3.5980818"><ele>480.66666666666663</ele><time>2026-04-11T17:41:32.016Z</time></trkpt><trkpt lat="43.9974734" lon="3.598339"><ele>479.0</ele><time>2026-04-11T17:41:33.016Z</time></trkpt><trkpt lat="43.9974258" lon="3.5985699"><ele>472.25</ele><time>2026-04-11T17:41:34.016Z</time></trkpt><trkpt lat="43.9974035" lon="3.5987513"><ele>465.5</ele><time>2026-04-11T17:41:35.016Z</time></trkpt><trkpt lat="43.9973724" lon="3.5989165"><ele>458.75</ele><time>2026-04-11T17:41:36.016Z</time></trkpt><trkpt lat="43.9973795" lon="3.5990632"><ele>452.0</ele><time>2026-04-11T17:41:37.016Z</time></trkpt><trkpt lat="43.9974374" lon="3.5992289"><ele>452.75</ele><time>2026-04-11T17:41:38.016Z</time></trkpt><trkpt lat="43.99752" lon="3.5993874"><ele>453.5</ele><time>2026-04-11T17:41:39.016Z</time></trkpt><trkpt lat="43.9976144" lon="3.5995232"><ele>454.25</ele><time>2026-04-11T17:41:40.016Z</time></trkpt><trkpt lat="43.9977331" lon="3.5996299"><ele>455.0</ele><time>2026-04-11T17:41:41.017Z</time></trkpt><trkpt lat="43.9978809" lon="3.5997223"><ele>455.0</ele><time>2026-04-11T17:41:42.016Z</time></trkpt><trkpt lat="43.998033" lon="3.5997896"><ele>455.0</ele><time>2026-04-11T17:41:43.017Z</time></trkpt><trkpt lat="43.9981888" lon="3.5998543"><ele>455.0</ele><time>2026-04-11T17:41:44.017Z</time></trkpt><trkpt lat="43.9983608" lon="3.5999136"><ele>457.0</ele><time>2026-04-11T17:41:45.017Z</time></trkpt><trkpt lat="43.9985246" lon="3.5999582"><ele>459.0</ele><time>2026-04-11T17:41:46.017Z</time></trkpt><trkpt lat="43.9986918" lon="3.5999885"><ele>461.0</ele><time>2026-04-11T17:41:47.017Z</time></trkpt><trkpt lat="43.9988725" lon="3.5999864"><ele>461.0</ele><time>2026-04-11T17:41:48.016Z</time></trkpt><trkpt lat="43.9990519" lon="3.5999414"><ele>461.0</ele><time>2026-04-11T17:41:49.016Z</time></trkpt><trkpt lat="43.9992402" lon="3.5998666"><ele>461.0</ele><time>2026-04-11T17:41:50.016Z</time></trkpt><trkpt lat="43.9994375" lon="3.5998134"><ele>463.0</ele><time>2026-04-11T17:41:51.016Z</time></trkpt><trkpt lat="43.9996574" lon="3.5998001"><ele>465.0</ele><time>2026-04-11T17:41:52.016Z</time></trkpt><trkpt lat="43.9998611" lon="3.5997853"><ele>467.0</ele><time>2026-04-11T17:41:53.016Z</time></trkpt><trkpt lat="44.0000443" lon="3.5998354"><ele>467.0</ele><time>2026-04-11T17:41:54.017Z</time></trkpt><trkpt lat="44.0002169" lon="3.5999067"><ele>467.0</ele><time>2026-04-11T17:41:55.017Z</time></trkpt><trkpt lat="44.0003693" lon="3.5999595"><ele>467.0</ele><time>2026-04-11T17:41:56.016Z</time></trkpt><trkpt lat="44.0004727" lon="3.6000179"><ele>467.0</ele><time>2026-04-11T17:41:57.017Z</time></trkpt><trkpt lat="44.0005753" lon="3.6000588"><ele>467.0</ele><time>2026-04-11T17:41:58.017Z</time></trkpt><trkpt lat="44.0006323" lon="3.6001613"><ele>467.0</ele><time>2026-04-11T17:41:59.016Z</time></trkpt><trkpt lat="44.0006824" lon="3.6003265"><ele>467.0</ele><time>2026-04-11T17:42:00.016Z</time></trkpt><trkpt lat="44.0007086" lon="3.6005465"><ele>467.0</ele><time>2026-04-11T17:42:01.016Z</time></trkpt><trkpt lat="44.0007173" lon="3.6008065"><ele>460.3333333333333</ele><time>2026-04-11T17:42:02.016Z</time></trkpt><trkpt lat="44.0007121" lon="3.6010936"><ele>453.66666666666663</ele><time>2026-04-11T17:42:03.016Z</time></trkpt><trkpt lat="44.0007246" lon="3.6013738"><ele>447.0</ele><time>2026-04-11T17:42:04.017Z</time></trkpt><trkpt lat="44.0007308" lon="3.6016372"><ele>447.25</ele><time>2026-04-11T17:42:05.017Z</time></trkpt><trkpt lat="44.000731" lon="3.601846"><ele>447.5</ele><time>2026-04-11T17:42:06.017Z</time></trkpt><trkpt lat="44.0007041" lon="3.6020489"><ele>447.75</ele><time>2026-04-11T17:42:07.017Z</time></trkpt><trkpt lat="44.0007057" lon="3.6022194"><ele>448.0</ele><time>2026-04-11T17:42:08.016Z</time></trkpt><trkpt lat="44.000745" lon="3.6023743"><ele>448.0</ele><time>2026-04-11T17:42:09.017Z</time></trkpt><trkpt lat="44.0008117" lon="3.602537"><ele>448.0</ele><time>2026-04-11T17:42:10.016Z</time></trkpt><trkpt lat="44.0009118" lon="3.6026867"><ele>448.0</ele><time>2026-04-11T17:42:11.017Z</time></trkpt><trkpt lat="44.0010326" lon="3.602841"><ele>448.0</ele><time>2026-04-11T17:42:12.017Z</time></trkpt><trkpt lat="44.0011536" lon="3.6029781"><ele>454.75</ele><time>2026-04-11T17:42:13.017Z</time></trkpt><trkpt lat="44.0012616" lon="3.6030979"><ele>461.5</ele><time>2026-04-11T17:42:14.016Z</time></trkpt><trkpt lat="44.0013652" lon="3.6031985"><ele>468.25</ele><time>2026-04-11T17:42:15.016Z</time></trkpt><trkpt lat="44.0014757" lon="3.6032814"><ele>475.0</ele><time>2026-04-11T17:42:16.016Z</time></trkpt><trkpt lat="44.0016014" lon="3.6033405"><ele>478.5</ele><time>2026-04-11T17:42:17.016Z</time></trkpt><trkpt lat="44.0017401" lon="3.6033676"><ele>482.0</ele><time>2026-04-11T17:42:18.016Z</time></trkpt><trkpt lat="44.0018706" lon="3.6033876"><ele>485.5</ele><time>2026-04-11T17:42:19.016Z</time></trkpt><trkpt lat="44.0019895" lon="3.603422"><ele>489.0</ele><time>2026-04-11T17:42:20.017Z</time></trkpt><trkpt lat="44.0020957" lon="3.6034891"><ele>489.0</ele><time>2026-04-11T17:42:21.017Z</time></trkpt><trkpt lat="44.0021669" lon="3.6036133"><ele>489.0</ele><time>2026-04-11T17:42:22.016Z</time></trkpt><trkpt lat="44.0022328" lon="3.603785"><ele>489.0</ele><time>2026-04-11T17:42:23.017Z</time></trkpt><trkpt lat="44.0023" lon="3.6039863"><ele>489.0</ele><time>2026-04-11T17:42:24.017Z</time></trkpt><trkpt lat="44.0023777" lon="3.6041998"><ele>491.25</ele><time>2026-04-11T17:42:25.017Z</time></trkpt><trkpt lat="44.0024788" lon="3.6043713"><ele>493.5</ele><time>2026-04-11T17:42:26.016Z</time></trkpt><trkpt lat="44.002597" lon="3.6044684"><ele>495.75</ele><time>2026-04-11T17:42:27.017Z</time></trkpt><trkpt lat="44.0027364" lon="3.6045079"><ele>498.0</ele><time>2026-04-11T17:42:28.016Z</time></trkpt><trkpt lat="44.0029082" lon="3.6045427"><ele>493.0</ele><time>2026-04-11T17:42:29.016Z</time></trkpt><trkpt lat="44.0031004" lon="3.604582"><ele>488.0</ele><time>2026-04-11T17:42:30.016Z</time></trkpt><trkpt lat="44.0032841" lon="3.6046273"><ele>483.0</ele><time>2026-04-11T17:42:31.017Z</time></trkpt><trkpt lat="44.0034647" lon="3.6046293"><ele>483.0</ele><time>2026-04-11T17:42:32.017Z</time></trkpt><trkpt lat="44.0036148" lon="3.6046119"><ele>483.0</ele><time>2026-04-11T17:42:33.016Z</time></trkpt><trkpt lat="44.0037505" lon="3.6046003"><ele>483.0</ele><time>2026-04-11T17:42:34.017Z</time></trkpt><trkpt lat="44.0038695" lon="3.6046367"><ele>483.0</ele><time>2026-04-11T17:42:35.016Z</time></trkpt><trkpt lat="44.0039556" lon="3.6047166"><ele>483.0</ele><time>2026-04-11T17:42:36.016Z</time></trkpt><trkpt lat="44.0040737" lon="3.6048292"><ele>483.0</ele><time>2026-04-11T17:42:37.017Z</time></trkpt><trkpt lat="44.0042302" lon="3.6049751"><ele>483.0</ele><time>2026-04-11T17:42:38.017Z</time></trkpt><trkpt lat="44.0044238" lon="3.6051066"><ele>482.33333333333337</ele><time>2026-04-11T17:42:39.017Z</time></trkpt><trkpt lat="44.0046064" lon="3.6052303"><ele>481.6666666666667</ele><time>2026-04-11T17:42:40.016Z</time></trkpt><trkpt lat="44.0047859" lon="3.6053857"><ele>481.0</ele><time>2026-04-11T17:42:41.017Z</time></trkpt><trkpt lat="44.0049704" lon="3.6055625"><ele>489.33333333333337</ele><time>2026-04-11T17:42:42.016Z</time></trkpt><trkpt lat="44.0051424" lon="3.6057527"><ele>497.66666666666663</ele><time>2026-04-11T17:42:43.017Z</time></trkpt><trkpt lat="44.0052947" lon="3.6059555"><ele>506.0</ele><time>2026-04-11T17:42:44.016Z</time></trkpt><trkpt lat="44.0054152" lon="3.6061312"><ele>500.66666666666663</ele><time>2026-04-11T17:42:45.016Z</time></trkpt><trkpt lat="44.0055236" lon="3.6063085"><ele>495.33333333333337</ele><time>2026-04-11T17:42:46.017Z</time></trkpt><trkpt lat="44.0056144" lon="3.6064828"><ele>490.0</ele><time>2026-04-11T17:42:47.017Z</time></trkpt><trkpt lat="44.0056752" lon="3.6066547"><ele>490.0</ele><time>2026-04-11T17:42:48.016Z</time></trkpt><trkpt lat="44.0056901" lon="3.6068302"><ele>490.0</ele><time>2026-04-11T17:42:49.016Z</time></trkpt><trkpt lat="44.0056803" lon="3.6070349"><ele>490.0</ele><time>2026-04-11T17:42:50.017Z</time></trkpt><trkpt lat="44.0056684" lon="3.6072253"><ele>490.0</ele><time>2026-04-11T17:42:51.017Z</time></trkpt><trkpt lat="44.0056818" lon="3.6074147"><ele>486.6666666666667</ele><time>2026-04-11T17:42:52.017Z</time></trkpt><trkpt lat="44.0057466" lon="3.6076212"><ele>483.33333333333337</ele><time>2026-04-11T17:42:53.017Z</time></trkpt><trkpt lat="44.005845" lon="3.6078265"><ele>480.0</ele><time>2026-04-11T17:42:54.016Z</time></trkpt><trkpt lat="44.0059575" lon="3.6080365"><ele>487.5</ele><time>2026-04-11T17:42:55.016Z</time></trkpt><trkpt lat="44.006056" lon="3.6082075"><ele>495.0</ele><time>2026-04-11T17:42:56.016Z</time></trkpt><trkpt lat="44.0061722" lon="3.6083268"><ele>502.5</ele><time>2026-04-11T17:42:57.016Z</time></trkpt><trkpt lat="44.0062955" lon="3.6084252"><ele>510.0</ele><time>2026-04-11T17:42:58.016Z</time></trkpt><trkpt lat="44.0064353" lon="3.6085252"><ele>506.0</ele><time>2026-04-11T17:42:59.017Z</time></trkpt><trkpt lat="44.0065696" lon="3.6086731"><ele>502.0</ele><time>2026-04-11T17:43:00.016Z</time></trkpt><trkpt lat="44.0066773" lon="3.608883"><ele>498.0</ele><time>2026-04-11T17:43:01.016Z</time></trkpt><trkpt lat="44.0067568" lon="3.6090755"><ele>504.75</ele><time>2026-04-11T17:43:02.016Z</time></trkpt><trkpt lat="44.0068546" lon="3.6092224"><ele>511.5</ele><time>2026-04-11T17:43:03.016Z</time></trkpt><trkpt lat="44.0069705" lon="3.6093019"><ele>518.25</ele><time>2026-04-11T17:43:04.016Z</time></trkpt><trkpt lat="44.0071156" lon="3.6093452"><ele>525.0</ele><time>2026-04-11T17:43:05.016Z</time></trkpt><trkpt lat="44.007275" lon="3.6093599"><ele>525.0</ele><time>2026-04-11T17:43:06.016Z</time></trkpt><trkpt lat="44.0074281" lon="3.6093608"><ele>525.0</ele><time>2026-04-11T17:43:07.017Z</time></trkpt><trkpt lat="44.0075466" lon="3.6093742"><ele>525.0</ele><time>2026-04-11T17:43:08.016Z</time></trkpt><trkpt lat="44.0076423" lon="3.6094126"><ele>525.0</ele><time>2026-04-11T17:43:09.017Z</time></trkpt><trkpt lat="44.0077101" lon="3.6095115"><ele>527.75</ele><time>2026-04-11T17:43:10.016Z</time></trkpt><trkpt lat="44.0077361" lon="3.6096404"><ele>530.5</ele><time>2026-04-11T17:43:11.016Z</time></trkpt><trkpt lat="44.0077221" lon="3.6097783"><ele>533.25</ele><time>2026-04-11T17:43:12.017Z</time></trkpt><trkpt lat="44.0076522" lon="3.6099373"><ele>536.0</ele><time>2026-04-11T17:43:13.017Z</time></trkpt><trkpt lat="44.0075672" lon="3.6100984"><ele>534.0</ele><time>2026-04-11T17:43:14.016Z</time></trkpt><trkpt lat="44.0074701" lon="3.6102608"><ele>532.0</ele><time>2026-04-11T17:43:15.016Z</time></trkpt><trkpt lat="44.0073701" lon="3.6104124"><ele>530.0</ele><time>2026-04-11T17:43:16.016Z</time></trkpt><trkpt lat="44.0072485" lon="3.6105443"><ele>530.0</ele><time>2026-04-11T17:43:17.016Z</time></trkpt><trkpt lat="44.0071162" lon="3.6106857"><ele>530.0</ele><time>2026-04-11T17:43:18.016Z</time></trkpt><trkpt lat="44.0069887" lon="3.6108117"><ele>530.0</ele><time>2026-04-11T17:43:19.017Z</time></trkpt><trkpt lat="44.006867" lon="3.6109165"><ele>530.0</ele><time>2026-04-11T17:43:20.016Z</time></trkpt><trkpt lat="44.0067878" lon="3.6110124"><ele>530.0</ele><time>2026-04-11T17:43:21.016Z</time></trkpt><trkpt lat="44.0067479" lon="3.6111271"><ele>530.0</ele><time>2026-04-11T17:43:22.016Z</time></trkpt><trkpt lat="44.0067484" lon="3.6112509"><ele>530.0</ele><time>2026-04-11T17:43:23.016Z</time></trkpt><trkpt lat="44.0068003" lon="3.6113556"><ele>530.0</ele><time>2026-04-11T17:43:24.017Z</time></trkpt><trkpt lat="44.006872" lon="3.6114302"><ele>530.0</ele><time>2026-04-11T17:43:25.016Z</time></trkpt><trkpt lat="44.0069575" lon="3.6114752"><ele>530.0</ele><time>2026-04-11T17:43:26.016Z</time></trkpt><trkpt lat="44.0070506" lon="3.611416"><ele>530.0</ele><time>2026-04-11T17:43:27.017Z</time></trkpt><trkpt lat="44.0071328" lon="3.6113245"><ele>530.0</ele><time>2026-04-11T17:43:28.016Z</time></trkpt><trkpt lat="44.0071855" lon="3.6111842"><ele>530.0</ele><time>2026-04-11T17:43:29.016Z</time></trkpt><trkpt lat="44.0072522" lon="3.6110425"><ele>530.0</ele><time>2026-04-11T17:43:30.016Z</time></trkpt><trkpt lat="44.00734" lon="3.6109256"><ele>530.0</ele><time>2026-04-11T17:43:31.017Z</time></trkpt><trkpt lat="44.0074648" lon="3.610806"><ele>530.0</ele><time>2026-04-11T17:43:32.017Z</time></trkpt><trkpt lat="44.0076013" lon="3.6106921"><ele>530.0</ele><time>2026-04-11T17:43:33.016Z</time></trkpt><trkpt lat="44.0077381" lon="3.6105407"><ele>532.0</ele><time>2026-04-11T17:43:34.016Z</time></trkpt><trkpt lat="44.007872" lon="3.6103208"><ele>534.0</ele><time>2026-04-11T17:43:35.017Z</time></trkpt><trkpt lat="44.007994" lon="3.6101051"><ele>536.0</ele><time>2026-04-11T17:43:36.016Z</time></trkpt><trkpt lat="44.0080848" lon="3.6099164"><ele>536.0</ele><time>2026-04-11T17:43:37.017Z</time></trkpt><trkpt lat="44.0081568" lon="3.6097526"><ele>536.0</ele><time>2026-04-11T17:43:38.016Z</time></trkpt><trkpt lat="44.0082198" lon="3.6096299"><ele>536.0</ele><time>2026-04-11T17:43:39.017Z</time></trkpt><trkpt lat="44.0082652" lon="3.6095255"><ele>536.0</ele><time>2026-04-11T17:43:40.017Z</time></trkpt><trkpt lat="44.0083245" lon="3.6094125"><ele>536.0</ele><time>2026-04-11T17:43:42.016Z</time></trkpt><trkpt lat="44.0083476" lon="3.6092967"><ele>539.8</ele><time>2026-04-11T17:43:44.016Z</time></trkpt><trkpt lat="44.0083676" lon="3.6091681"><ele>543.6</ele><time>2026-04-11T17:43:46.016Z</time></trkpt><trkpt lat="44.0083981" lon="3.609052"><ele>547.4</ele><time>2026-04-11T17:43:48.016Z</time></trkpt><trkpt lat="44.0084488" lon="3.608927"><ele>551.2</ele><time>2026-04-11T17:43:50.016Z</time></trkpt><trkpt lat="44.0085132" lon="3.6087968"><ele>555.0</ele><time>2026-04-11T17:43:52.016Z</time></trkpt><trkpt lat="44.0085997" lon="3.6086736"><ele>556.8333333333334</ele><time>2026-04-11T17:43:54.016Z</time></trkpt><trkpt lat="44.0086408" lon="3.6085989"><ele>558.6666666666666</ele><time>2026-04-11T17:43:55.016Z</time></trkpt><trkpt lat="44.0086831" lon="3.6085262"><ele>560.5</ele><time>2026-04-11T17:43:56.017Z</time></trkpt><trkpt lat="44.0087389" lon="3.6083674"><ele>562.3333333333333</ele><time>2026-04-11T17:43:58.016Z</time></trkpt><trkpt lat="44.0087666" lon="3.6082833"><ele>564.1666666666666</ele><time>2026-04-11T17:43:59.016Z</time></trkpt><trkpt lat="44.0087769" lon="3.6081934"><ele>566.0</ele><time>2026-04-11T17:44:00.016Z</time></trkpt><trkpt lat="44.0087812" lon="3.6080952"><ele>566.0</ele><time>2026-04-11T17:44:01.016Z</time></trkpt><trkpt lat="44.0087836" lon="3.608003"><ele>566.0</ele><time>2026-04-11T17:44:02.016Z</time></trkpt><trkpt lat="44.0087795" lon="3.6078949"><ele>566.0</ele><time>2026-04-11T17:44:03.016Z</time></trkpt><trkpt lat="44.0087741" lon="3.6077986"><ele>566.0</ele><time>2026-04-11T17:44:04.016Z</time></trkpt><trkpt lat="44.0087806" lon="3.6077113"><ele>566.0</ele><time>2026-04-11T17:44:22.017Z</time></trkpt><trkpt lat="44.0087804" lon="3.6076168"><ele>566.0</ele><time>2026-04-11T17:44:24.016Z</time></trkpt><trkpt lat="44.008785" lon="3.6075171"><ele>566.0</ele><time>2026-04-11T17:44:25.016Z</time></trkpt><trkpt lat="44.008801" lon="3.6073988"><ele>568.3333333333333</ele><time>2026-04-11T17:44:26.017Z</time></trkpt><trkpt lat="44.0088108" lon="3.6072843"><ele>570.6666666666666</ele><time>2026-04-11T17:44:27.016Z</time></trkpt><trkpt lat="44.0088163" lon="3.6071847"><ele>573.0</ele><time>2026-04-11T17:44:28.016Z</time></trkpt><trkpt lat="44.0088199" lon="3.6070769"><ele>575.3333333333334</ele><time>2026-04-11T17:44:29.016Z</time></trkpt><trkpt lat="44.0088172" lon="3.60697"><ele>577.6666666666667</ele><time>2026-04-11T17:44:30.016Z</time></trkpt><trkpt lat="44.0088219" lon="3.606867"><ele>580.0</ele><time>2026-04-11T17:44:31.016Z</time></trkpt><trkpt lat="44.0088291" lon="3.6067535"><ele>583.4</ele><time>2026-04-11T17:44:32.017Z</time></trkpt><trkpt lat="44.0088444" lon="3.6066454"><ele>586.8</ele><time>2026-04-11T17:44:33.016Z</time></trkpt><trkpt lat="44.0088671" lon="3.6065203"><ele>590.2</ele><time>2026-04-11T17:44:34.017Z</time></trkpt><trkpt lat="44.0088942" lon="3.6063909"><ele>593.6</ele><time>2026-04-11T17:44:35.016Z</time></trkpt><trkpt lat="44.008925" lon="3.6062603"><ele>597.0</ele><time>2026-04-11T17:44:36.017Z</time></trkpt><trkpt lat="44.0089499" lon="3.606117"><ele>599.5</ele><time>2026-04-11T17:44:37.017Z</time></trkpt><trkpt lat="44.0089706" lon="3.6059917"><ele>602.0</ele><time>2026-04-11T17:44:38.016Z</time></trkpt><trkpt lat="44.009" lon="3.6059003"><ele>604.5</ele><time>2026-04-11T17:44:39.017Z</time></trkpt><trkpt lat="44.0090266" lon="3.6058095"><ele>607.0</ele><time>2026-04-11T17:44:40.017Z</time></trkpt><trkpt lat="44.0090568" lon="3.6057317"><ele>609.5</ele><time>2026-04-11T17:44:41.016Z</time></trkpt><trkpt lat="44.0090892" lon="3.6056042"><ele>612.0</ele><time>2026-04-11T17:44:43.016Z</time></trkpt><trkpt lat="44.0090884" lon="3.6055077"><ele>612.0</ele><time>2026-04-11T17:44:45.016Z</time></trkpt><trkpt lat="44.0090057" lon="3.6055086"><ele>612.0</ele><time>2026-04-11T17:44:49.017Z</time></trkpt><trkpt lat="44.0089857" lon="3.6056171"><ele>612.0</ele><time>2026-04-11T17:44:51.017Z</time></trkpt><trkpt lat="44.0089612" lon="3.6057647"><ele>612.0</ele><time>2026-04-11T17:44:53.016Z</time></trkpt><trkpt lat="44.0088833" lon="3.605912"><ele>612.0</ele><time>2026-04-11T17:44:55.017Z</time></trkpt><trkpt lat="44.0088394" lon="3.6059943"><ele>612.0</ele><time>2026-04-11T17:44:56.016Z</time></trkpt><trkpt lat="44.0087933" lon="3.6060836"><ele>612.0</ele><time>2026-04-11T17:44:57.017Z</time></trkpt><trkpt lat="44.008749" lon="3.6061801"><ele>612.0</ele><time>2026-04-11T17:44:58.017Z</time></trkpt><trkpt lat="44.0086959" lon="3.6062806"><ele>612.0</ele><time>2026-04-11T17:44:59.016Z</time></trkpt><trkpt lat="44.0086356" lon="3.6063726"><ele>612.0</ele><time>2026-04-11T17:45:00.017Z</time></trkpt><trkpt lat="44.0085755" lon="3.6064571"><ele>612.0</ele><time>2026-04-11T17:45:01.016Z</time></trkpt><trkpt lat="44.0085291" lon="3.6065387"><ele>610.8333333333334</ele><time>2026-04-11T17:45:02.016Z</time></trkpt><trkpt lat="44.0084893" lon="3.6066106"><ele>609.6666666666666</ele><time>2026-04-11T17:45:03.017Z</time></trkpt><trkpt lat="44.0084547" lon="3.6066847"><ele>608.5</ele><time>2026-04-11T17:45:04.017Z</time></trkpt><trkpt lat="44.008377" lon="3.6067496"><ele>607.3333333333333</ele><time>2026-04-11T17:45:06.016Z</time></trkpt><trkpt lat="44.0083253" lon="3.6066775"><ele>606.1666666666666</ele><time>2026-04-11T17:45:09.016Z</time></trkpt><trkpt lat="44.0083676" lon="3.6065756"><ele>605.0</ele><time>2026-04-11T17:45:11.017Z</time></trkpt><trkpt lat="44.0084397" lon="3.6064781"><ele>606.1666666666666</ele><time>2026-04-11T17:45:13.017Z</time></trkpt><trkpt lat="44.0084947" lon="3.6063988"><ele>607.3333333333333</ele><time>2026-04-11T17:45:14.016Z</time></trkpt><trkpt lat="44.0085512" lon="3.6063211"><ele>608.5</ele><time>2026-04-11T17:45:15.016Z</time></trkpt><trkpt lat="44.0086006" lon="3.6062323"><ele>609.6666666666666</ele><time>2026-04-11T17:45:16.016Z</time></trkpt><trkpt lat="44.0086491" lon="3.6061299"><ele>610.8333333333334</ele><time>2026-04-11T17:45:17.017Z</time></trkpt><trkpt lat="44.0086904" lon="3.6060008"><ele>612.0</ele><time>2026-04-11T17:45:18.016Z</time></trkpt><trkpt lat="44.0087241" lon="3.605878"><ele>612.0</ele><time>2026-04-11T17:45:19.016Z</time></trkpt><trkpt lat="44.0087634" lon="3.6057249"><ele>612.0</ele><time>2026-04-11T17:45:20.017Z</time></trkpt><trkpt lat="44.0088016" lon="3.6055745"><ele>612.0</ele><time>2026-04-11T17:45:21.016Z</time></trkpt><trkpt lat="44.0088399" lon="3.6054366"><ele>612.0</ele><time>2026-04-11T17:45:22.017Z</time></trkpt><trkpt lat="44.0088747" lon="3.6053135"><ele>612.0</ele><time>2026-04-11T17:45:23.017Z</time></trkpt><trkpt lat="44.008922" lon="3.6052117"><ele>610.0</ele><time>2026-04-11T17:45:24.016Z</time></trkpt><trkpt lat="44.0089817" lon="3.6051289"><ele>608.0</ele><time>2026-04-11T17:45:25.016Z</time></trkpt><trkpt lat="44.0090592" lon="3.6050341"><ele>606.0</ele><time>2026-04-11T17:45:26.016Z</time></trkpt><trkpt lat="44.0091304" lon="3.6049473"><ele>604.0</ele><time>2026-04-11T17:45:27.016Z</time></trkpt><trkpt lat="44.0091783" lon="3.6048712"><ele>602.0</ele><time>2026-04-11T17:45:28.016Z</time></trkpt><trkpt lat="44.0092136" lon="3.6047888"><ele>600.0</ele><time>2026-04-11T17:45:29.016Z</time></trkpt><trkpt lat="44.009251" lon="3.6046965"><ele>600.0</ele><time>2026-04-11T17:45:30.017Z</time></trkpt><trkpt lat="44.009288" lon="3.604592"><ele>600.0</ele><time>2026-04-11T17:45:31.016Z</time></trkpt><trkpt lat="44.0093252" lon="3.6044759"><ele>600.0</ele><time>2026-04-11T17:45:32.016Z</time></trkpt><trkpt lat="44.0093697" lon="3.6043562"><ele>600.0</ele><time>2026-04-11T17:45:33.016Z</time></trkpt><trkpt lat="44.0094227" lon="3.6042392"><ele>600.0</ele><time>2026-04-11T17:45:34.015Z</time></trkpt><trkpt lat="44.0094797" lon="3.60413"><ele>602.8333333333334</ele><time>2026-04-11T17:45:35.015Z</time></trkpt><trkpt lat="44.0095359" lon="3.6040176"><ele>605.6666666666666</ele><time>2026-04-11T17:45:36.016Z</time></trkpt><trkpt lat="44.0095856" lon="3.6039211"><ele>608.5</ele><time>2026-04-11T17:45:37.016Z</time></trkpt><trkpt lat="44.0096487" lon="3.6038597"><ele>611.3333333333333</ele><time>2026-04-11T17:45:38.016Z</time></trkpt><trkpt lat="44.0097237" lon="3.603808"><ele>614.1666666666666</ele><time>2026-04-11T17:45:39.015Z</time></trkpt><trkpt lat="44.0098063" lon="3.603761"><ele>617.0</ele><time>2026-04-11T17:45:40.016Z</time></trkpt><trkpt lat="44.0098733" lon="3.6037141"><ele>617.5</ele><time>2026-04-11T17:45:41.016Z</time></trkpt><trkpt lat="44.0099312" lon="3.6036608"><ele>618.0</ele><time>2026-04-11T17:45:42.015Z</time></trkpt><trkpt lat="44.0099782" lon="3.6035995"><ele>618.5</ele><time>2026-04-11T17:45:43.015Z</time></trkpt><trkpt lat="44.0100313" lon="3.6035383"><ele>619.0</ele><time>2026-04-11T17:45:44.016Z</time></trkpt><trkpt lat="44.0100951" lon="3.6034721"><ele>619.5</ele><time>2026-04-11T17:45:45.015Z</time></trkpt><trkpt lat="44.0101896" lon="3.6033373"><ele>620.0</ele><time>2026-04-11T17:45:47.015Z</time></trkpt><trkpt lat="44.0102506" lon="3.6032543"><ele>620.0</ele><time>2026-04-11T17:45:48.016Z</time></trkpt><trkpt lat="44.0103085" lon="3.603175"><ele>620.0</ele><time>2026-04-11T17:45:49.015Z</time></trkpt><trkpt lat="44.0103584" lon="3.6030926"><ele>620.0</ele><time>2026-04-11T17:45:50.015Z</time></trkpt><trkpt lat="44.0103978" lon="3.6030113"><ele>620.0</ele><time>2026-04-11T17:45:51.016Z</time></trkpt><trkpt lat="44.010436" lon="3.602936"><ele>620.0</ele><time>2026-04-11T17:45:52.015Z</time></trkpt><trkpt lat="44.0104864" lon="3.6028729"><ele>620.0</ele><time>2026-04-11T17:45:53.016Z</time></trkpt><trkpt lat="44.0105924" lon="3.6028158"><ele>620.0</ele><time>2026-04-11T17:45:55.016Z</time></trkpt><trkpt lat="44.0106942" lon="3.6028737"><ele>620.0</ele><time>2026-04-11T17:45:57.015Z</time></trkpt><trkpt lat="44.0107875" lon="3.6029811"><ele>620.0</ele><time>2026-04-11T17:45:59.015Z</time></trkpt><trkpt lat="44.0108409" lon="3.6031465"><ele>620.0</ele><time>2026-04-11T17:46:01.016Z</time></trkpt><trkpt lat="44.0108477" lon="3.6032403"><ele>620.0</ele><time>2026-04-11T17:46:02.015Z</time></trkpt><trkpt lat="44.0108537" lon="3.6033433"><ele>620.0</ele><time>2026-04-11T17:46:03.015Z</time></trkpt><trkpt lat="44.0108522" lon="3.6034492"><ele>620.0</ele><time>2026-04-11T17:46:04.015Z</time></trkpt><trkpt lat="44.0108853" lon="3.6035657"><ele>620.0</ele><time>2026-04-11T17:46:05.015Z</time></trkpt><trkpt lat="44.0109167" lon="3.6036602"><ele>620.0</ele><time>2026-04-11T17:46:06.015Z</time></trkpt><trkpt lat="44.0109629" lon="3.6037465"><ele>620.0</ele><time>2026-04-11T17:46:07.016Z</time></trkpt><trkpt lat="44.0110128" lon="3.603838"><ele>620.0</ele><time>2026-04-11T17:46:08.015Z</time></trkpt><trkpt lat="44.0110632" lon="3.6039418"><ele>617.5</ele><time>2026-04-11T17:46:09.016Z</time></trkpt><trkpt lat="44.011115" lon="3.604026"><ele>615.0</ele><time>2026-04-11T17:46:10.016Z</time></trkpt><trkpt lat="44.0111728" lon="3.6040949"><ele>612.5</ele><time>2026-04-11T17:46:11.016Z</time></trkpt><trkpt lat="44.0112221" lon="3.6041617"><ele>610.0</ele><time>2026-04-11T17:46:12.015Z</time></trkpt><trkpt lat="44.0112966" lon="3.6042323"><ele>607.5</ele><time>2026-04-11T17:46:14.016Z</time></trkpt><trkpt lat="44.0113903" lon="3.6042849"><ele>605.0</ele><time>2026-04-11T17:46:16.015Z</time></trkpt><trkpt lat="44.0115085" lon="3.6043355"><ele>605.0</ele><time>2026-04-11T17:46:18.016Z</time></trkpt><trkpt lat="44.0115978" lon="3.6043997"><ele>605.0</ele><time>2026-04-11T17:46:20.015Z</time></trkpt><trkpt lat="44.0116292" lon="3.6044816"><ele>605.0</ele><time>2026-04-11T17:46:22.015Z</time></trkpt><trkpt lat="44.0116109" lon="3.6046273"><ele>605.0</ele><time>2026-04-11T17:46:24.015Z</time></trkpt><trkpt lat="44.0115875" lon="3.6047165"><ele>605.0</ele><time>2026-04-11T17:46:25.015Z</time></trkpt><trkpt lat="44.0115652" lon="3.604808"><ele>605.0</ele><time>2026-04-11T17:46:26.016Z</time></trkpt><trkpt lat="44.0115512" lon="3.6048999"><ele>602.8333333333333</ele><time>2026-04-11T17:46:27.016Z</time></trkpt><trkpt lat="44.0115758" lon="3.6050486"><ele>600.6666666666666</ele><time>2026-04-11T17:46:29.015Z</time></trkpt><trkpt lat="44.0115964" lon="3.6051405"><ele>598.5</ele><time>2026-04-11T17:46:30.016Z</time></trkpt><trkpt lat="44.0116287" lon="3.6052205"><ele>596.3333333333334</ele><time>2026-04-11T17:46:31.015Z</time></trkpt><trkpt lat="44.0116692" lon="3.605303"><ele>594.1666666666667</ele><time>2026-04-11T17:46:32.016Z</time></trkpt><trkpt lat="44.0117195" lon="3.6053886"><ele>592.0</ele><time>2026-04-11T17:46:33.016Z</time></trkpt><trkpt lat="44.011776" lon="3.6054629"><ele>598.2</ele><time>2026-04-11T17:46:34.015Z</time></trkpt><trkpt lat="44.0118296" lon="3.6055354"><ele>604.4000000000001</ele><time>2026-04-11T17:46:35.016Z</time></trkpt><trkpt lat="44.011884" lon="3.6055997"><ele>610.5999999999999</ele><time>2026-04-11T17:46:36.015Z</time></trkpt><trkpt lat="44.0119387" lon="3.6056465"><ele>616.8</ele><time>2026-04-11T17:46:37.016Z</time></trkpt><trkpt lat="44.0120516" lon="3.6057162"><ele>623.0</ele><time>2026-04-11T17:46:39.015Z</time></trkpt><trkpt lat="44.0121365" lon="3.605837"><ele>623.0</ele><time>2026-04-11T17:46:41.015Z</time></trkpt><trkpt lat="44.012153" lon="3.6059394"><ele>623.0</ele><time>2026-04-11T17:46:42.016Z</time></trkpt><trkpt lat="44.0121516" lon="3.6060518"><ele>623.0</ele><time>2026-04-11T17:46:43.015Z</time></trkpt><trkpt lat="44.0121575" lon="3.6061714"><ele>623.0</ele><time>2026-04-11T17:46:44.015Z</time></trkpt><trkpt lat="44.0121677" lon="3.6062846"><ele>623.0</ele><time>2026-04-11T17:46:45.015Z</time></trkpt><trkpt lat="44.0121784" lon="3.6063787"><ele>623.0</ele><time>2026-04-11T17:46:46.015Z</time></trkpt><trkpt lat="44.0122049" lon="3.6064931"><ele>624.3333333333333</ele><time>2026-04-11T17:46:47.015Z</time></trkpt><trkpt lat="44.0122519" lon="3.6066144"><ele>625.6666666666666</ele><time>2026-04-11T17:46:48.016Z</time></trkpt><trkpt lat="44.0122989" lon="3.6067275"><ele>627.0</ele><time>2026-04-11T17:46:49.015Z</time></trkpt><trkpt lat="44.0123484" lon="3.6068282"><ele>628.3333333333334</ele><time>2026-04-11T17:46:50.015Z</time></trkpt><trkpt lat="44.0123963" lon="3.6069155"><ele>629.6666666666667</ele><time>2026-04-11T17:46:51.015Z</time></trkpt><trkpt lat="44.0124475" lon="3.6069994"><ele>631.0</ele><time>2026-04-11T17:46:52.015Z</time></trkpt><trkpt lat="44.0125014" lon="3.6070808"><ele>631.0</ele><time>2026-04-11T17:46:53.015Z</time></trkpt><trkpt lat="44.0125549" lon="3.6071439"><ele>631.0</ele><time>2026-04-11T17:46:54.016Z</time></trkpt><trkpt lat="44.012616" lon="3.6071862"><ele>631.0</ele><time>2026-04-11T17:46:55.015Z</time></trkpt><trkpt lat="44.012686" lon="3.6072455"><ele>631.0</ele><time>2026-04-11T17:46:56.016Z</time></trkpt><trkpt lat="44.0127606" lon="3.6073004"><ele>631.0</ele><time>2026-04-11T17:46:57.015Z</time></trkpt><trkpt lat="44.0128396" lon="3.6073791"><ele>631.0</ele><time>2026-04-11T17:46:58.015Z</time></trkpt><trkpt lat="44.0129108" lon="3.6074368"><ele>631.0</ele><time>2026-04-11T17:46:59.015Z</time></trkpt><trkpt lat="44.0129838" lon="3.607525"><ele>631.0</ele><time>2026-04-11T17:47:00.016Z</time></trkpt><trkpt lat="44.0130329" lon="3.6076253"><ele>631.0</ele><time>2026-04-11T17:47:01.015Z</time></trkpt><trkpt lat="44.0130768" lon="3.6077229"><ele>631.0</ele><time>2026-04-11T17:47:02.015Z</time></trkpt><trkpt lat="44.0131298" lon="3.6078201"><ele>631.0</ele><time>2026-04-11T17:47:03.015Z</time></trkpt><trkpt lat="44.0131804" lon="3.607901"><ele>631.0</ele><time>2026-04-11T17:47:04.015Z</time></trkpt><trkpt lat="44.013234" lon="3.607961"><ele>632.8333333333334</ele><time>2026-04-11T17:47:05.016Z</time></trkpt><trkpt lat="44.0133018" lon="3.6080263"><ele>634.6666666666667</ele><time>2026-04-11T17:47:06.016Z</time></trkpt><trkpt lat="44.0133769" lon="3.6080794"><ele>636.5</ele><time>2026-04-11T17:47:07.016Z</time></trkpt><trkpt lat="44.0134566" lon="3.6081232"><ele>638.3333333333334</ele><time>2026-04-11T17:47:08.015Z</time></trkpt><trkpt lat="44.0135454" lon="3.6081513"><ele>640.1666666666666</ele><time>2026-04-11T17:47:09.015Z</time></trkpt><trkpt lat="44.0136294" lon="3.6081807"><ele>642.0</ele><time>2026-04-11T17:47:10.015Z</time></trkpt><trkpt lat="44.0137051" lon="3.6082136"><ele>642.0</ele><time>2026-04-11T17:47:11.015Z</time></trkpt><trkpt lat="44.0137718" lon="3.608255"><ele>642.0</ele><time>2026-04-11T17:47:12.015Z</time></trkpt><trkpt lat="44.0138294" lon="3.6083567"><ele>642.0</ele><time>2026-04-11T17:47:14.015Z</time></trkpt><trkpt lat="44.0138594" lon="3.6084969"><ele>642.0</ele><time>2026-04-11T17:47:16.015Z</time></trkpt><trkpt lat="44.0138797" lon="3.6085961"><ele>642.0</ele><time>2026-04-11T17:47:17.015Z</time></trkpt><trkpt lat="44.0139084" lon="3.6086954"><ele>642.0</ele><time>2026-04-11T17:47:18.016Z</time></trkpt><trkpt lat="44.013948" lon="3.6087914"><ele>639.8333333333334</ele><time>2026-04-11T17:47:19.016Z</time></trkpt><trkpt lat="44.0139745" lon="3.6088992"><ele>637.6666666666666</ele><time>2026-04-11T17:47:20.015Z</time></trkpt><trkpt lat="44.013985" lon="3.6090157"><ele>635.5</ele><time>2026-04-11T17:47:21.015Z</time></trkpt><trkpt lat="44.0139927" lon="3.6091233"><ele>633.3333333333333</ele><time>2026-04-11T17:47:22.015Z</time></trkpt><trkpt lat="44.0140033" lon="3.6092244"><ele>631.1666666666666</ele><time>2026-04-11T17:47:23.016Z</time></trkpt><trkpt lat="44.0140146" lon="3.6093195"><ele>629.0</ele><time>2026-04-11T17:47:24.015Z</time></trkpt><trkpt lat="44.0140366" lon="3.6094151"><ele>628.7142857142857</ele><time>2026-04-11T17:47:25.015Z</time></trkpt><trkpt lat="44.0140651" lon="3.6095167"><ele>628.4285714285714</ele><time>2026-04-11T17:47:26.015Z</time></trkpt><trkpt lat="44.0140914" lon="3.609617"><ele>628.1428571428571</ele><time>2026-04-11T17:47:27.016Z</time></trkpt><trkpt lat="44.014115" lon="3.6097035"><ele>627.8571428571429</ele><time>2026-04-11T17:47:28.015Z</time></trkpt><trkpt lat="44.0141478" lon="3.6097835"><ele>627.5714285714286</ele><time>2026-04-11T17:47:29.015Z</time></trkpt><trkpt lat="44.0141871" lon="3.6098738"><ele>627.2857142857143</ele><time>2026-04-11T17:47:30.016Z</time></trkpt><trkpt lat="44.0142291" lon="3.6099675"><ele>627.0</ele><time>2026-04-11T17:47:31.015Z</time></trkpt><trkpt lat="44.0142557" lon="3.6100676"><ele>633.0</ele><time>2026-04-11T17:47:32.015Z</time></trkpt><trkpt lat="44.0142878" lon="3.6101866"><ele>639.0</ele><time>2026-04-11T17:47:33.015Z</time></trkpt><trkpt lat="44.0143078" lon="3.6102943"><ele>645.0</ele><time>2026-04-11T17:47:34.015Z</time></trkpt><trkpt lat="44.0143151" lon="3.610419"><ele>651.0</ele><time>2026-04-11T17:47:35.015Z</time></trkpt><trkpt lat="44.0143228" lon="3.6105489"><ele>657.0</ele><time>2026-04-11T17:47:36.016Z</time></trkpt><trkpt lat="44.014332" lon="3.610662"><ele>663.0</ele><time>2026-04-11T17:47:37.015Z</time></trkpt><trkpt lat="44.0143356" lon="3.6107619"><ele>663.0</ele><time>2026-04-11T17:47:38.016Z</time></trkpt><trkpt lat="44.0143424" lon="3.6109133"><ele>663.0</ele><time>2026-04-11T17:47:40.016Z</time></trkpt><trkpt lat="44.0144055" lon="3.6110153"><ele>663.0</ele><time>2026-04-11T17:47:42.015Z</time></trkpt><trkpt lat="44.0144962" lon="3.6111023"><ele>663.0</ele><time>2026-04-11T17:47:44.015Z</time></trkpt><trkpt lat="44.0145627" lon="3.6111354"><ele>663.0</ele><time>2026-04-11T17:47:45.015Z</time></trkpt><trkpt lat="44.0146447" lon="3.6111663"><ele>664.0</ele><time>2026-04-11T17:47:46.015Z</time></trkpt><trkpt lat="44.0147346" lon="3.6112071"><ele>665.0</ele><time>2026-04-11T17:47:47.016Z</time></trkpt><trkpt lat="44.0148362" lon="3.6112468"><ele>666.0</ele><time>2026-04-11T17:47:48.015Z</time></trkpt><trkpt lat="44.0149214" lon="3.6112955"><ele>667.0</ele><time>2026-04-11T17:47:49.016Z</time></trkpt><trkpt lat="44.0149863" lon="3.6113304"><ele>668.0</ele><time>2026-04-11T17:47:50.016Z</time></trkpt><trkpt lat="44.015082" lon="3.6114114"><ele>668.0</ele><time>2026-04-11T17:47:52.015Z</time></trkpt><trkpt lat="44.0151635" lon="3.6115353"><ele>668.0</ele><time>2026-04-11T17:47:54.016Z</time></trkpt><trkpt lat="44.0152102" lon="3.6116081"><ele>668.0</ele><time>2026-04-11T17:47:55.016Z</time></trkpt><trkpt lat="44.0152614" lon="3.6116793"><ele>668.0</ele><time>2026-04-11T17:47:56.016Z</time></trkpt><trkpt lat="44.0153081" lon="3.6117612"><ele>668.0</ele><time>2026-04-11T17:47:57.015Z</time></trkpt><trkpt lat="44.0153512" lon="3.611854"><ele>668.0</ele><time>2026-04-11T17:47:58.016Z</time></trkpt><trkpt lat="44.0153934" lon="3.6119374"><ele>663.3333333333333</ele><time>2026-04-11T17:47:59.016Z</time></trkpt><trkpt lat="44.0154313" lon="3.6120207"><ele>658.6666666666666</ele><time>2026-04-11T17:48:00.015Z</time></trkpt><trkpt lat="44.015473" lon="3.6121127"><ele>654.0</ele><time>2026-04-11T17:48:01.016Z</time></trkpt><trkpt lat="44.0155168" lon="3.6121927"><ele>649.3333333333334</ele><time>2026-04-11T17:48:02.016Z</time></trkpt><trkpt lat="44.0155758" lon="3.6122629"><ele>644.6666666666667</ele><time>2026-04-11T17:48:03.015Z</time></trkpt><trkpt lat="44.0156394" lon="3.6123351"><ele>640.0</ele><time>2026-04-11T17:48:04.015Z</time></trkpt><trkpt lat="44.0157213" lon="3.6124054"><ele>649.5</ele><time>2026-04-11T17:48:05.016Z</time></trkpt><trkpt lat="44.0158254" lon="3.6124878"><ele>659.0</ele><time>2026-04-11T17:48:06.015Z</time></trkpt><trkpt lat="44.015937" lon="3.6125745"><ele>668.5</ele><time>2026-04-11T17:48:07.015Z</time></trkpt><trkpt lat="44.0160367" lon="3.6126413"><ele>678.0</ele><time>2026-04-11T17:48:08.015Z</time></trkpt><trkpt lat="44.0161164" lon="3.6127072"><ele>678.0</ele><time>2026-04-11T17:48:09.015Z</time></trkpt><trkpt lat="44.0161807" lon="3.6127662"><ele>678.0</ele><time>2026-04-11T17:48:10.015Z</time></trkpt><trkpt lat="44.0162423" lon="3.6128377"><ele>678.0</ele><time>2026-04-11T17:48:11.015Z</time></trkpt><trkpt lat="44.0163014" lon="3.6129057"><ele>678.0</ele><time>2026-04-11T17:48:12.015Z</time></trkpt><trkpt lat="44.0163536" lon="3.6129896"><ele>678.0</ele><time>2026-04-11T17:48:13.016Z</time></trkpt><trkpt lat="44.016408" lon="3.6130673"><ele>678.0</ele><time>2026-04-11T17:48:14.015Z</time></trkpt><trkpt lat="44.0164599" lon="3.6131409"><ele>679.0</ele><time>2026-04-11T17:48:15.015Z</time></trkpt><trkpt lat="44.0165137" lon="3.6132163"><ele>680.0</ele><time>2026-04-11T17:48:16.016Z</time></trkpt><trkpt lat="44.0165637" lon="3.6132886"><ele>681.0</ele><time>2026-04-11T17:48:17.015Z</time></trkpt><trkpt lat="44.0166458" lon="3.6134141"><ele>682.0</ele><time>2026-04-11T17:48:19.015Z</time></trkpt><trkpt lat="44.0167018" lon="3.6134582"><ele>683.0</ele><time>2026-04-11T17:48:20.015Z</time></trkpt><trkpt lat="44.0167617" lon="3.6135009"><ele>684.0</ele><time>2026-04-11T17:48:21.015Z</time></trkpt><trkpt lat="44.0168242" lon="3.6135386"><ele>683.9999999999999</ele><time>2026-04-11T17:48:22.016Z</time></trkpt><trkpt lat="44.0168982" lon="3.6135715"><ele>684.0</ele><time>2026-04-11T17:48:23.015Z</time></trkpt><trkpt lat="44.0169629" lon="3.6136038"><ele>684.0</ele><time>2026-04-11T17:48:24.016Z</time></trkpt><trkpt lat="44.0170252" lon="3.6136261"><ele>684.0</ele><time>2026-04-11T17:48:25.015Z</time></trkpt><trkpt lat="44.0170913" lon="3.6136362"><ele>684.0</ele><time>2026-04-11T17:48:26.015Z</time></trkpt><trkpt lat="44.0171548" lon="3.6136392"><ele>683.9999999999999</ele><time>2026-04-11T17:48:27.015Z</time></trkpt><trkpt lat="44.0172275" lon="3.613654"><ele>684.0</ele><time>2026-04-11T17:48:28.015Z</time></trkpt><trkpt lat="44.0173081" lon="3.613659"><ele>682.2</ele><time>2026-04-11T17:48:29.015Z</time></trkpt><trkpt lat="44.0174063" lon="3.6136629"><ele>680.4000000000001</ele><time>2026-04-11T17:48:30.015Z</time></trkpt><trkpt lat="44.0175128" lon="3.6136612"><ele>678.6</ele><time>2026-04-11T17:48:31.016Z</time></trkpt><trkpt lat="44.0176133" lon="3.6136742"><ele>676.8</ele><time>2026-04-11T17:48:32.016Z</time></trkpt><trkpt lat="44.0176934" lon="3.6136929"><ele>675.0</ele><time>2026-04-11T17:48:33.015Z</time></trkpt><trkpt lat="44.0177668" lon="3.6137099"><ele>675.0</ele><time>2026-04-11T17:48:34.016Z</time></trkpt><trkpt lat="44.01787" lon="3.6137135"><ele>675.0</ele><time>2026-04-11T17:48:36.016Z</time></trkpt><trkpt lat="44.0179389" lon="3.61361"><ele>675.0</ele><time>2026-04-11T17:48:38.016Z</time></trkpt><trkpt lat="44.0179677" lon="3.6134714"><ele>675.0</ele><time>2026-04-11T17:48:40.016Z</time></trkpt><trkpt lat="44.0179601" lon="3.6133328"><ele>675.0</ele><time>2026-04-11T17:48:42.016Z</time></trkpt><trkpt lat="44.0179305" lon="3.6131979"><ele>676.8</ele><time>2026-04-11T17:48:44.015Z</time></trkpt><trkpt lat="44.0178601" lon="3.6131416"><ele>678.6</ele><time>2026-04-11T17:48:46.015Z</time></trkpt><trkpt lat="44.0177619" lon="3.6131152"><ele>680.4000000000001</ele><time>2026-04-11T17:48:48.015Z</time></trkpt><trkpt lat="44.0176622" lon="3.6131131"><ele>682.2</ele><time>2026-04-11T17:48:50.015Z</time></trkpt><trkpt lat="44.0175582" lon="3.6131078"><ele>684.0</ele><time>2026-04-11T17:48:52.016Z</time></trkpt><trkpt lat="44.0174252" lon="3.613094"><ele>684.0</ele><time>2026-04-11T17:48:54.016Z</time></trkpt><trkpt lat="44.0172993" lon="3.613073"><ele>684.0</ele><time>2026-04-11T17:48:56.015Z</time></trkpt><trkpt lat="44.017237" lon="3.6130598"><ele>684.0</ele><time>2026-04-11T17:48:57.016Z</time></trkpt><trkpt lat="44.0171657" lon="3.6130481"><ele>684.0</ele><time>2026-04-11T17:48:58.015Z</time></trkpt><trkpt lat="44.0170988" lon="3.6130322"><ele>684.0</ele><time>2026-04-11T17:48:59.015Z</time></trkpt><trkpt lat="44.0170259" lon="3.6130028"><ele>684.0</ele><time>2026-04-11T17:49:00.015Z</time></trkpt><trkpt lat="44.0169271" lon="3.6129459"><ele>684.0</ele><time>2026-04-11T17:49:02.016Z</time></trkpt><trkpt lat="44.0168925" lon="3.6128722"><ele>684.0</ele><time>2026-04-11T17:49:05.015Z</time></trkpt><trkpt lat="44.0169497" lon="3.6127976"><ele>684.0</ele><time>2026-04-11T17:49:08.015Z</time></trkpt><trkpt lat="44.017015" lon="3.6127775"><ele>684.0</ele><time>2026-04-11T17:49:10.015Z</time></trkpt><trkpt lat="44.0171024" lon="3.612741"><ele>684.0</ele><time>2026-04-11T17:49:12.015Z</time></trkpt><trkpt lat="44.0172071" lon="3.6126627"><ele>684.0</ele><time>2026-04-11T17:49:14.015Z</time></trkpt><trkpt lat="44.0172764" lon="3.6126059"><ele>687.3333333333334</ele><time>2026-04-11T17:49:15.015Z</time></trkpt><trkpt lat="44.0173379" lon="3.612548"><ele>690.6666666666666</ele><time>2026-04-11T17:49:16.016Z</time></trkpt><trkpt lat="44.0173979" lon="3.6124991"><ele>694.0</ele><time>2026-04-11T17:49:17.015Z</time></trkpt><trkpt lat="44.0174561" lon="3.6124386"><ele>697.3333333333333</ele><time>2026-04-11T17:49:18.015Z</time></trkpt><trkpt lat="44.0175164" lon="3.6123906"><ele>700.6666666666666</ele><time>2026-04-11T17:49:19.015Z</time></trkpt><trkpt lat="44.0175736" lon="3.6123317"><ele>704.0</ele><time>2026-04-11T17:49:20.015Z</time></trkpt><trkpt lat="44.017646" lon="3.6122058"><ele>705.4000000000001</ele><time>2026-04-11T17:49:22.018Z</time></trkpt><trkpt lat="44.0176762" lon="3.6121003"><ele>706.8</ele><time>2026-04-11T17:49:23.018Z</time></trkpt><trkpt lat="44.0176993" lon="3.6119394"><ele>708.2</ele><time>2026-04-11T17:49:25.018Z</time></trkpt><trkpt lat="44.017685" lon="3.6117786"><ele>709.5999999999999</ele><time>2026-04-11T17:49:27.018Z</time></trkpt><trkpt lat="44.0177166" lon="3.6116324"><ele>711.0</ele><time>2026-04-11T17:49:29.018Z</time></trkpt><trkpt lat="44.0177969" lon="3.6115399"><ele>713.4</ele><time>2026-04-11T17:49:31.018Z</time></trkpt><trkpt lat="44.0178377" lon="3.6114667"><ele>715.8</ele><time>2026-04-11T17:49:32.018Z</time></trkpt><trkpt lat="44.0179017" lon="3.6113343"><ele>718.1999999999999</ele><time>2026-04-11T17:49:34.018Z</time></trkpt><trkpt lat="44.0179426" lon="3.6111852"><ele>720.5999999999999</ele><time>2026-04-11T17:49:36.018Z</time></trkpt><trkpt lat="44.0180023" lon="3.6110919"><ele>723.0</ele><time>2026-04-11T17:49:38.018Z</time></trkpt><trkpt lat="44.0180969" lon="3.6110777"><ele>723.0</ele><time>2026-04-11T17:49:40.018Z</time></trkpt><trkpt lat="44.0181744" lon="3.6111533"><ele>723.0</ele><time>2026-04-11T17:49:42.018Z</time></trkpt><trkpt lat="44.0182218" lon="3.6112406"><ele>723.0</ele><time>2026-04-11T17:49:43.018Z</time></trkpt><trkpt lat="44.0182856" lon="3.611324"><ele>723.0</ele><time>2026-04-11T17:49:44.019Z</time></trkpt><trkpt lat="44.0183375" lon="3.6114034"><ele>723.0</ele><time>2026-04-11T17:49:45.018Z</time></trkpt><trkpt lat="44.0183993" lon="3.6114903"><ele>723.0</ele><time>2026-04-11T17:49:46.018Z</time></trkpt><trkpt lat="44.0184469" lon="3.611562"><ele>722.4</ele><time>2026-04-11T17:49:47.018Z</time></trkpt><trkpt lat="44.0184962" lon="3.6116204"><ele>721.8</ele><time>2026-04-11T17:49:48.019Z</time></trkpt><trkpt lat="44.0185785" lon="3.6116831"><ele>721.2</ele><time>2026-04-11T17:49:50.018Z</time></trkpt><trkpt lat="44.0186775" lon="3.6117673"><ele>720.6</ele><time>2026-04-11T17:49:52.018Z</time></trkpt><trkpt lat="44.0187615" lon="3.6118659"><ele>720.0</ele><time>2026-04-11T17:49:54.019Z</time></trkpt><trkpt lat="44.0188297" lon="3.6119694"><ele>720.0</ele><time>2026-04-11T17:49:56.018Z</time></trkpt><trkpt lat="44.0188816" lon="3.6120355"><ele>720.0</ele><time>2026-04-11T17:49:58.019Z</time></trkpt><trkpt lat="44.0189538" lon="3.6120305"><ele>720.0</ele><time>2026-04-11T17:50:27.018Z</time></trkpt><trkpt lat="44.0189034" lon="3.6119554"><ele>720.0</ele><time>2026-04-11T17:50:44.018Z</time></trkpt><trkpt lat="44.0188562" lon="3.6118912"><ele>720.0</ele><time>2026-04-11T17:50:47.018Z</time></trkpt><trkpt lat="44.0187943" lon="3.6118217"><ele>720.0</ele><time>2026-04-11T17:50:49.019Z</time></trkpt><trkpt lat="44.0187255" lon="3.6117335"><ele>720.0</ele><time>2026-04-11T17:50:51.019Z</time></trkpt><trkpt lat="44.018651" lon="3.6116757"><ele>720.0</ele><time>2026-04-11T17:50:53.019Z</time></trkpt><trkpt lat="44.0185784" lon="3.61161"><ele>720.0</ele><time>2026-04-11T17:50:55.019Z</time></trkpt><trkpt lat="44.0185018" lon="3.611522"><ele>720.0</ele><time>2026-04-11T17:50:57.018Z</time></trkpt><trkpt lat="44.01843" lon="3.6114383"><ele>720.0</ele><time>2026-04-11T17:50:59.019Z</time></trkpt><trkpt lat="44.0183777" lon="3.611349"><ele>720.0</ele><time>2026-04-11T17:51:01.018Z</time></trkpt><trkpt lat="44.0183108" lon="3.6112415"><ele>720.5</ele><time>2026-04-11T17:51:03.018Z</time></trkpt><trkpt lat="44.0182667" lon="3.6111748"><ele>721.0</ele><time>2026-04-11T17:51:05.018Z</time></trkpt><trkpt lat="44.0181908" lon="3.6111288"><ele>721.5</ele><time>2026-04-11T17:51:07.018Z</time></trkpt><trkpt lat="44.0180874" lon="3.6111458"><ele>722.0</ele><time>2026-04-11T17:51:09.018Z</time></trkpt><trkpt lat="44.0180194" lon="3.6112172"><ele>722.5</ele><time>2026-04-11T17:51:11.019Z</time></trkpt><trkpt lat="44.0179753" lon="3.6113278"><ele>723.0</ele><time>2026-04-11T17:51:13.019Z</time></trkpt><trkpt lat="44.0179271" lon="3.6114478"><ele>723.0</ele><time>2026-04-11T17:51:15.018Z</time></trkpt><trkpt lat="44.01786" lon="3.6115541"><ele>723.0</ele><time>2026-04-11T17:51:17.018Z</time></trkpt><trkpt lat="44.01778" lon="3.6116135"><ele>723.0</ele><time>2026-04-11T17:51:19.019Z</time></trkpt><trkpt lat="44.017722" lon="3.6117477"><ele>723.0</ele><time>2026-04-11T17:51:21.018Z</time></trkpt><trkpt lat="44.0177344" lon="3.6118836"><ele>723.0</ele><time>2026-04-11T17:51:23.018Z</time></trkpt><trkpt lat="44.017724" lon="3.6120305"><ele>721.0</ele><time>2026-04-11T17:51:25.018Z</time></trkpt><trkpt lat="44.0176471" lon="3.6121588"><ele>719.0</ele><time>2026-04-11T17:51:27.018Z</time></trkpt><trkpt lat="44.0175955" lon="3.6122126"><ele>717.0</ele><time>2026-04-11T17:51:28.018Z</time></trkpt><trkpt lat="44.0175471" lon="3.6122713"><ele>715.0</ele><time>2026-04-11T17:51:29.018Z</time></trkpt><trkpt lat="44.0174907" lon="3.612324"><ele>713.0</ele><time>2026-04-11T17:51:30.018Z</time></trkpt><trkpt lat="44.0174341" lon="3.6123791"><ele>711.0</ele><time>2026-04-11T17:51:31.018Z</time></trkpt><trkpt lat="44.0173317" lon="3.6124754"><ele>710.0</ele><time>2026-04-11T17:51:33.018Z</time></trkpt><trkpt lat="44.0172877" lon="3.6125392"><ele>709.0</ele><time>2026-04-11T17:51:34.018Z</time></trkpt><trkpt lat="44.0172353" lon="3.6125986"><ele>708.0</ele><time>2026-04-11T17:51:35.018Z</time></trkpt><trkpt lat="44.0171763" lon="3.6126579"><ele>707.0</ele><time>2026-04-11T17:51:36.018Z</time></trkpt><trkpt lat="44.0171228" lon="3.6127049"><ele>706.0</ele><time>2026-04-11T17:51:37.019Z</time></trkpt><trkpt lat="44.0170344" lon="3.6127535"><ele>705.0</ele><time>2026-04-11T17:51:39.019Z</time></trkpt><trkpt lat="44.0169657" lon="3.6127818"><ele>704.0</ele><time>2026-04-11T17:51:41.019Z</time></trkpt><trkpt lat="44.0169023" lon="3.6128292"><ele>700.6666666666666</ele><time>2026-04-11T17:51:43.018Z</time></trkpt><trkpt lat="44.0168897" lon="3.6129198"><ele>697.3333333333333</ele><time>2026-04-11T17:51:45.018Z</time></trkpt><trkpt lat="44.016936" lon="3.612989"><ele>694.0</ele><time>2026-04-11T17:51:47.019Z</time></trkpt><trkpt lat="44.0169982" lon="3.6130048"><ele>690.6666666666666</ele><time>2026-04-11T17:51:49.018Z</time></trkpt><trkpt lat="44.0170719" lon="3.6130287"><ele>687.3333333333334</ele><time>2026-04-11T17:51:51.019Z</time></trkpt><trkpt lat="44.0171667" lon="3.613048"><ele>684.0</ele><time>2026-04-11T17:51:53.019Z</time></trkpt><trkpt lat="44.017264" lon="3.6130487"><ele>684.0</ele><time>2026-04-11T17:51:55.018Z</time></trkpt><trkpt lat="44.0173339" lon="3.6130604"><ele>684.0</ele><time>2026-04-11T17:51:56.018Z</time></trkpt><trkpt lat="44.0174433" lon="3.6130811"><ele>684.0</ele><time>2026-04-11T17:51:58.018Z</time></trkpt><trkpt lat="44.0175515" lon="3.6131012"><ele>684.0</ele><time>2026-04-11T17:52:00.018Z</time></trkpt><trkpt lat="44.01766" lon="3.6131142"><ele>684.0</ele><time>2026-04-11T17:52:02.018Z</time></trkpt><trkpt lat="44.0177644" lon="3.6131171"><ele>686.0</ele><time>2026-04-11T17:52:04.019Z</time></trkpt><trkpt lat="44.0178396" lon="3.6131358"><ele>688.0</ele><time>2026-04-11T17:52:06.018Z</time></trkpt><trkpt lat="44.017916" lon="3.6132069"><ele>690.0</ele><time>2026-04-11T17:52:09.018Z</time></trkpt><trkpt lat="44.0179417" lon="3.6133472"><ele>692.0</ele><time>2026-04-11T17:52:11.018Z</time></trkpt><trkpt lat="44.0179522" lon="3.6134604"><ele>694.0</ele><time>2026-04-11T17:52:13.019Z</time></trkpt><trkpt lat="44.0179543" lon="3.6135717"><ele>696.0</ele><time>2026-04-11T17:52:15.018Z</time></trkpt><trkpt lat="44.0179062" lon="3.613645"><ele>696.0</ele><time>2026-04-11T17:52:17.019Z</time></trkpt><trkpt lat="44.017816" lon="3.6136741"><ele>696.0</ele><time>2026-04-11T17:52:19.018Z</time></trkpt><trkpt lat="44.017751" lon="3.6136816"><ele>696.0</ele><time>2026-04-11T17:52:20.019Z</time></trkpt><trkpt lat="44.0176852" lon="3.6136619"><ele>696.0</ele><time>2026-04-11T17:52:21.018Z</time></trkpt><trkpt lat="44.0176142" lon="3.6136531"><ele>696.0</ele><time>2026-04-11T17:52:22.018Z</time></trkpt><trkpt lat="44.0175342" lon="3.6136501"><ele>696.0</ele><time>2026-04-11T17:52:23.019Z</time></trkpt><trkpt lat="44.0174645" lon="3.6136515"><ele>696.0</ele><time>2026-04-11T17:52:24.019Z</time></trkpt><trkpt lat="44.0173891" lon="3.6136505"><ele>694.0</ele><time>2026-04-11T17:52:25.019Z</time></trkpt><trkpt lat="44.0173139" lon="3.6136447"><ele>692.0</ele><time>2026-04-11T17:52:26.019Z</time></trkpt><trkpt lat="44.0172339" lon="3.6136411"><ele>690.0</ele><time>2026-04-11T17:52:27.018Z</time></trkpt><trkpt lat="44.0171586" lon="3.6136401"><ele>688.0</ele><time>2026-04-11T17:52:28.018Z</time></trkpt><trkpt lat="44.0170938" lon="3.6136306"><ele>686.0</ele><time>2026-04-11T17:52:29.019Z</time></trkpt><trkpt lat="44.0169714" lon="3.6135977"><ele>684.0</ele><time>2026-04-11T17:52:31.019Z</time></trkpt><trkpt lat="44.0169018" lon="3.6135706"><ele>684.0</ele><time>2026-04-11T17:52:32.019Z</time></trkpt><trkpt lat="44.0167809" lon="3.6134984"><ele>684.0</ele><time>2026-04-11T17:52:34.019Z</time></trkpt><trkpt lat="44.0167154" lon="3.6134613"><ele>684.0</ele><time>2026-04-11T17:52:35.018Z</time></trkpt><trkpt lat="44.0166554" lon="3.6134114"><ele>684.0</ele><time>2026-04-11T17:52:36.019Z</time></trkpt><trkpt lat="44.0165929" lon="3.6133581"><ele>684.0</ele><time>2026-04-11T17:52:37.018Z</time></trkpt><trkpt lat="44.016539" lon="3.6132946"><ele>684.0</ele><time>2026-04-11T17:52:38.018Z</time></trkpt><trkpt lat="44.0164871" lon="3.6132255"><ele>683.0</ele><time>2026-04-11T17:52:39.018Z</time></trkpt><trkpt lat="44.0164275" lon="3.6131571"><ele>682.0</ele><time>2026-04-11T17:52:40.018Z</time></trkpt><trkpt lat="44.0163758" lon="3.6130865"><ele>681.0</ele><time>2026-04-11T17:52:41.018Z</time></trkpt><trkpt lat="44.0163182" lon="3.6130278"><ele>680.0</ele><time>2026-04-11T17:52:42.018Z</time></trkpt><trkpt lat="44.0162711" lon="3.612954"><ele>679.0</ele><time>2026-04-11T17:52:43.018Z</time></trkpt><trkpt lat="44.0161783" lon="3.6128355"><ele>678.0</ele><time>2026-04-11T17:52:45.018Z</time></trkpt><trkpt lat="44.0161212" lon="3.6127868"><ele>678.0</ele><time>2026-04-11T17:52:46.018Z</time></trkpt><trkpt lat="44.0160656" lon="3.6127433"><ele>678.0</ele><time>2026-04-11T17:52:47.018Z</time></trkpt><trkpt lat="44.0160081" lon="3.6126896"><ele>678.0</ele><time>2026-04-11T17:52:48.018Z</time></trkpt><trkpt lat="44.0159481" lon="3.6126391"><ele>678.0</ele><time>2026-04-11T17:52:49.018Z</time></trkpt><trkpt lat="44.0158792" lon="3.6125899"><ele>678.0</ele><time>2026-04-11T17:52:50.018Z</time></trkpt><trkpt lat="44.0158078" lon="3.6125395"><ele>678.0</ele><time>2026-04-11T17:52:51.019Z</time></trkpt><trkpt lat="44.0157347" lon="3.6124922"><ele>678.0</ele><time>2026-04-11T17:52:52.018Z</time></trkpt><trkpt lat="44.0156691" lon="3.6124309"><ele>676.3333333333334</ele><time>2026-04-11T17:52:53.019Z</time></trkpt><trkpt lat="44.0156015" lon="3.6123663"><ele>674.6666666666666</ele><time>2026-04-11T17:52:54.018Z</time></trkpt><trkpt lat="44.0155397" lon="3.6122878"><ele>673.0</ele><time>2026-04-11T17:52:55.018Z</time></trkpt><trkpt lat="44.0154884" lon="3.6122097"><ele>671.3333333333333</ele><time>2026-04-11T17:52:56.018Z</time></trkpt><trkpt lat="44.0154525" lon="3.6121167"><ele>669.6666666666666</ele><time>2026-04-11T17:52:57.018Z</time></trkpt><trkpt lat="44.015426" lon="3.612013"><ele>668.0</ele><time>2026-04-11T17:52:58.018Z</time></trkpt><trkpt lat="44.0153894" lon="3.6119132"><ele>668.0</ele><time>2026-04-11T17:52:59.018Z</time></trkpt><trkpt lat="44.0153482" lon="3.6118156"><ele>668.0</ele><time>2026-04-11T17:53:00.017Z</time></trkpt><trkpt lat="44.0153005" lon="3.6117166"><ele>668.0</ele><time>2026-04-11T17:53:01.018Z</time></trkpt><trkpt lat="44.0152494" lon="3.6116289"><ele>668.0</ele><time>2026-04-11T17:53:02.018Z</time></trkpt><trkpt lat="44.0152026" lon="3.6115499"><ele>668.0</ele><time>2026-04-11T17:53:03.018Z</time></trkpt><trkpt lat="44.0151193" lon="3.6114313"><ele>668.0</ele><time>2026-04-11T17:53:05.018Z</time></trkpt><trkpt lat="44.0150134" lon="3.6113406"><ele>667.0</ele><time>2026-04-11T17:53:07.017Z</time></trkpt><trkpt lat="44.0149009" lon="3.6112919"><ele>666.0</ele><time>2026-04-11T17:53:09.018Z</time></trkpt><trkpt lat="44.0148406" lon="3.6112654"><ele>665.0</ele><time>2026-04-11T17:53:10.018Z</time></trkpt><trkpt lat="44.0147784" lon="3.6112411"><ele>664.0</ele><time>2026-04-11T17:53:11.018Z</time></trkpt><trkpt lat="44.0146611" lon="3.6112052"><ele>663.0</ele><time>2026-04-11T17:53:13.018Z</time></trkpt><trkpt lat="44.0145385" lon="3.611154"><ele>663.0</ele><time>2026-04-11T17:53:15.017Z</time></trkpt><trkpt lat="44.0144418" lon="3.6111122"><ele>663.0</ele><time>2026-04-11T17:53:17.018Z</time></trkpt><trkpt lat="44.0143733" lon="3.6110253"><ele>663.0</ele><time>2026-04-11T17:53:19.017Z</time></trkpt><trkpt lat="44.0143417" lon="3.6108853"><ele>663.0</ele><time>2026-04-11T17:53:21.018Z</time></trkpt><trkpt lat="44.0143419" lon="3.6107893"><ele>663.0</ele><time>2026-04-11T17:53:22.018Z</time></trkpt><trkpt lat="44.0143468" lon="3.6106939"><ele>663.0</ele><time>2026-04-11T17:53:23.017Z</time></trkpt><trkpt lat="44.0143382" lon="3.6105936"><ele>663.0</ele><time>2026-04-11T17:53:24.017Z</time></trkpt><trkpt lat="44.0143329" lon="3.6104871"><ele>663.0</ele><time>2026-04-11T17:53:25.017Z</time></trkpt><trkpt lat="44.0143245" lon="3.6103771"><ele>663.0</ele><time>2026-04-11T17:53:26.017Z</time></trkpt><trkpt lat="44.0143093" lon="3.6102714"><ele>663.0</ele><time>2026-04-11T17:53:27.017Z</time></trkpt><trkpt lat="44.0142855" lon="3.6101747"><ele>663.0</ele><time>2026-04-11T17:53:28.017Z</time></trkpt><trkpt lat="44.0142596" lon="3.6100762"><ele>663.0</ele><time>2026-04-11T17:53:29.017Z</time></trkpt><trkpt lat="44.0142313" lon="3.6099698"><ele>663.1666666666666</ele><time>2026-04-11T17:53:30.017Z</time></trkpt><trkpt lat="44.0141954" lon="3.6098777"><ele>663.3333333333334</ele><time>2026-04-11T17:53:31.017Z</time></trkpt><trkpt lat="44.0141574" lon="3.6097904"><ele>663.5</ele><time>2026-04-11T17:53:32.018Z</time></trkpt><trkpt lat="44.0141212" lon="3.6096924"><ele>663.6666666666667</ele><time>2026-04-11T17:53:33.018Z</time></trkpt><trkpt lat="44.0141032" lon="3.6096009"><ele>663.8333333333334</ele><time>2026-04-11T17:53:34.018Z</time></trkpt><trkpt lat="44.0140773" lon="3.6094996"><ele>664.0</ele><time>2026-04-11T17:53:35.017Z</time></trkpt><trkpt lat="44.014055" lon="3.6093903"><ele>659.0</ele><time>2026-04-11T17:53:36.018Z</time></trkpt><trkpt lat="44.0140431" lon="3.6092824"><ele>654.0</ele><time>2026-04-11T17:53:37.018Z</time></trkpt><trkpt lat="44.0140384" lon="3.6091833"><ele>649.0</ele><time>2026-04-11T17:53:38.017Z</time></trkpt><trkpt lat="44.0140304" lon="3.6090751"><ele>644.0</ele><time>2026-04-11T17:53:39.017Z</time></trkpt><trkpt lat="44.0140153" lon="3.6089704"><ele>639.0</ele><time>2026-04-11T17:53:40.017Z</time></trkpt><trkpt lat="44.0139913" lon="3.6088833"><ele>634.0</ele><time>2026-04-11T17:53:41.017Z</time></trkpt><trkpt lat="44.0139697" lon="3.6087988"><ele>629.0</ele><time>2026-04-11T17:53:42.017Z</time></trkpt><trkpt lat="44.0139381" lon="3.6087087"><ele>631.1666666666666</ele><time>2026-04-11T17:53:43.018Z</time></trkpt><trkpt lat="44.0139074" lon="3.6086127"><ele>633.3333333333333</ele><time>2026-04-11T17:53:44.017Z</time></trkpt><trkpt lat="44.0138896" lon="3.6085137"><ele>635.5</ele><time>2026-04-11T17:53:45.017Z</time></trkpt><trkpt lat="44.0138712" lon="3.6084288"><ele>637.6666666666666</ele><time>2026-04-11T17:53:46.017Z</time></trkpt><trkpt lat="44.0138345" lon="3.6083057"><ele>639.8333333333334</ele><time>2026-04-11T17:53:48.017Z</time></trkpt><trkpt lat="44.0137671" lon="3.6082318"><ele>642.0</ele><time>2026-04-11T17:53:50.017Z</time></trkpt><trkpt lat="44.0136424" lon="3.6081888"><ele>641.9999999999999</ele><time>2026-04-11T17:53:52.018Z</time></trkpt><trkpt lat="44.0135774" lon="3.6081722"><ele>642.0</ele><time>2026-04-11T17:53:53.018Z</time></trkpt><trkpt lat="44.0135054" lon="3.6081465"><ele>642.0</ele><time>2026-04-11T17:53:54.017Z</time></trkpt><trkpt lat="44.0134367" lon="3.6081264"><ele>642.0</ele><time>2026-04-11T17:53:55.017Z</time></trkpt><trkpt lat="44.0133651" lon="3.6080897"><ele>642.0</ele><time>2026-04-11T17:53:56.017Z</time></trkpt><trkpt lat="44.0132961" lon="3.6080456"><ele>641.9999999999999</ele><time>2026-04-11T17:53:57.017Z</time></trkpt><trkpt lat="44.0132397" lon="3.6079886"><ele>642.0</ele><time>2026-04-11T17:53:58.017Z</time></trkpt><trkpt lat="44.0131798" lon="3.6079274"><ele>640.4285714285713</ele><time>2026-04-11T17:53:59.018Z</time></trkpt><trkpt lat="44.0131314" lon="3.6078472"><ele>638.8571428571429</ele><time>2026-04-11T17:54:00.017Z</time></trkpt><trkpt lat="44.0130859" lon="3.6077606"><ele>637.2857142857142</ele><time>2026-04-11T17:54:01.018Z</time></trkpt><trkpt lat="44.0130488" lon="3.6076695"><ele>635.7142857142857</ele><time>2026-04-11T17:54:02.017Z</time></trkpt><trkpt lat="44.0130103" lon="3.6075911"><ele>634.1428571428571</ele><time>2026-04-11T17:54:03.017Z</time></trkpt><trkpt lat="44.0129706" lon="3.6075196"><ele>632.5714285714286</ele><time>2026-04-11T17:54:04.018Z</time></trkpt><trkpt lat="44.0129252" lon="3.6074547"><ele>631.0</ele><time>2026-04-11T17:54:05.017Z</time></trkpt><trkpt lat="44.0128686" lon="3.6074073"><ele>631.0</ele><time>2026-04-11T17:54:06.018Z</time></trkpt><trkpt lat="44.0128071" lon="3.6073619"><ele>631.0</ele><time>2026-04-11T17:54:07.018Z</time></trkpt><trkpt lat="44.0127473" lon="3.6073192"><ele>631.0</ele><time>2026-04-11T17:54:08.018Z</time></trkpt><trkpt lat="44.0126869" lon="3.6072779"><ele>631.0</ele><time>2026-04-11T17:54:09.018Z</time></trkpt><trkpt lat="44.0126299" lon="3.6072245"><ele>631.0</ele><time>2026-04-11T17:54:10.018Z</time></trkpt><trkpt lat="44.0125723" lon="3.6071727"><ele>631.0</ele><time>2026-04-11T17:54:11.017Z</time></trkpt><trkpt lat="44.0125222" lon="3.6071027"><ele>631.0</ele><time>2026-04-11T17:54:12.017Z</time></trkpt><trkpt lat="44.0124787" lon="3.6070338"><ele>627.6666666666667</ele><time>2026-04-11T17:54:13.018Z</time></trkpt><trkpt lat="44.012433" lon="3.6069476"><ele>624.3333333333334</ele><time>2026-04-11T17:54:14.017Z</time></trkpt><trkpt lat="44.0123927" lon="3.6068486"><ele>621.0</ele><time>2026-04-11T17:54:15.017Z</time></trkpt><trkpt lat="44.0123518" lon="3.6067445"><ele>617.6666666666666</ele><time>2026-04-11T17:54:16.018Z</time></trkpt><trkpt lat="44.0123151" lon="3.6066437"><ele>614.3333333333333</ele><time>2026-04-11T17:54:17.017Z</time></trkpt><trkpt lat="44.0122812" lon="3.6065394"><ele>611.0</ele><time>2026-04-11T17:54:18.018Z</time></trkpt><trkpt lat="44.0122512" lon="3.6064319"><ele>611.0</ele><time>2026-04-11T17:54:19.018Z</time></trkpt><trkpt lat="44.0122357" lon="3.6063253"><ele>611.0</ele><time>2026-04-11T17:54:20.018Z</time></trkpt><trkpt lat="44.012215" lon="3.6062154"><ele>611.0</ele><time>2026-04-11T17:54:21.017Z</time></trkpt><trkpt lat="44.0122091" lon="3.6061111"><ele>611.0</ele><time>2026-04-11T17:54:22.017Z</time></trkpt><trkpt lat="44.0122086" lon="3.6060175"><ele>611.0</ele><time>2026-04-11T17:54:23.017Z</time></trkpt><trkpt lat="44.012191" lon="3.6058667"><ele>611.0</ele><time>2026-04-11T17:54:25.018Z</time></trkpt><trkpt lat="44.0121208" lon="3.6057355"><ele>612.7142857142858</ele><time>2026-04-11T17:54:27.017Z</time></trkpt><trkpt lat="44.0120626" lon="3.6056937"><ele>614.4285714285714</ele><time>2026-04-11T17:54:28.017Z</time></trkpt><trkpt lat="44.0119965" lon="3.6056606"><ele>616.1428571428571</ele><time>2026-04-11T17:54:29.017Z</time></trkpt><trkpt lat="44.0119292" lon="3.6056168"><ele>617.8571428571429</ele><time>2026-04-11T17:54:30.017Z</time></trkpt><trkpt lat="44.0118628" lon="3.6055608"><ele>619.5714285714286</ele><time>2026-04-11T17:54:31.017Z</time></trkpt><trkpt lat="44.011808" lon="3.6054975"><ele>621.2857142857143</ele><time>2026-04-11T17:54:32.018Z</time></trkpt><trkpt lat="44.0117521" lon="3.6054213"><ele>623.0</ele><time>2026-04-11T17:54:33.017Z</time></trkpt><trkpt lat="44.0117052" lon="3.6053441"><ele>624.2857142857143</ele><time>2026-04-11T17:54:34.017Z</time></trkpt><trkpt lat="44.0116722" lon="3.6052575"><ele>625.5714285714286</ele><time>2026-04-11T17:54:35.017Z</time></trkpt><trkpt lat="44.0116376" lon="3.6051632"><ele>626.8571428571429</ele><time>2026-04-11T17:54:36.017Z</time></trkpt><trkpt lat="44.0116196" lon="3.6050759"><ele>628.1428571428571</ele><time>2026-04-11T17:54:37.018Z</time></trkpt><trkpt lat="44.0115944" lon="3.6049813"><ele>629.4285714285714</ele><time>2026-04-11T17:54:38.017Z</time></trkpt><trkpt lat="44.0115788" lon="3.6048872"><ele>630.7142857142858</ele><time>2026-04-11T17:54:39.017Z</time></trkpt><trkpt lat="44.0115748" lon="3.6047892"><ele>632.0</ele><time>2026-04-11T17:54:40.017Z</time></trkpt><trkpt lat="44.0115899" lon="3.6046894"><ele>627.5</ele><time>2026-04-11T17:54:41.018Z</time></trkpt><trkpt lat="44.0116125" lon="3.6045359"><ele>623.0</ele><time>2026-04-11T17:54:43.017Z</time></trkpt><trkpt lat="44.0116093" lon="3.6044127"><ele>618.5</ele><time>2026-04-11T17:54:45.017Z</time></trkpt><trkpt lat="44.0115657" lon="3.6043396"><ele>614.0</ele><time>2026-04-11T17:54:47.017Z</time></trkpt><trkpt lat="44.0114773" lon="3.6043008"><ele>609.5</ele><time>2026-04-11T17:54:49.018Z</time></trkpt><trkpt lat="44.0113945" lon="3.6042715"><ele>605.0</ele><time>2026-04-11T17:54:51.017Z</time></trkpt><trkpt lat="44.011308" lon="3.6042218"><ele>605.0</ele><time>2026-04-11T17:54:53.017Z</time></trkpt><trkpt lat="44.0112122" lon="3.604128"><ele>605.0</ele><time>2026-04-11T17:54:55.017Z</time></trkpt><trkpt lat="44.0111355" lon="3.6040071"><ele>605.0</ele><time>2026-04-11T17:54:57.017Z</time></trkpt><trkpt lat="44.0110944" lon="3.6039402"><ele>605.0</ele><time>2026-04-11T17:54:58.017Z</time></trkpt><trkpt lat="44.0110188" lon="3.6038126"><ele>605.0</ele><time>2026-04-11T17:55:00.018Z</time></trkpt><trkpt lat="44.0109628" lon="3.6036949"><ele>608.0</ele><time>2026-04-11T17:55:02.017Z</time></trkpt><trkpt lat="44.0109089" lon="3.6035512"><ele>611.0</ele><time>2026-04-11T17:55:04.018Z</time></trkpt><trkpt lat="44.0108923" lon="3.6034632"><ele>614.0</ele><time>2026-04-11T17:55:05.017Z</time></trkpt><trkpt lat="44.0108951" lon="3.6032964"><ele>617.0</ele><time>2026-04-11T17:55:07.017Z</time></trkpt><trkpt lat="44.0108808" lon="3.6031297"><ele>620.0</ele><time>2026-04-11T17:55:09.017Z</time></trkpt><trkpt lat="44.0108206" lon="3.6029707"><ele>620.0</ele><time>2026-04-11T17:55:11.018Z</time></trkpt><trkpt lat="44.0107306" lon="3.6028545"><ele>620.0</ele><time>2026-04-11T17:55:13.018Z</time></trkpt><trkpt lat="44.0106253" lon="3.6027919"><ele>620.0</ele><time>2026-04-11T17:55:15.018Z</time></trkpt><trkpt lat="44.0105256" lon="3.6028219"><ele>620.0</ele><time>2026-04-11T17:55:17.017Z</time></trkpt><trkpt lat="44.0104412" lon="3.6029282"><ele>620.0</ele><time>2026-04-11T17:55:19.017Z</time></trkpt><trkpt lat="44.010402" lon="3.6029988"><ele>620.0</ele><time>2026-04-11T17:55:20.017Z</time></trkpt><trkpt lat="44.0103636" lon="3.6030887"><ele>620.0</ele><time>2026-04-11T17:55:21.018Z</time></trkpt><trkpt lat="44.0103123" lon="3.6031667"><ele>620.0</ele><time>2026-04-11T17:55:22.017Z</time></trkpt><trkpt lat="44.0102547" lon="3.6032381"><ele>620.0</ele><time>2026-04-11T17:55:23.018Z</time></trkpt><trkpt lat="44.0101935" lon="3.6033142"><ele>620.0</ele><time>2026-04-11T17:55:24.018Z</time></trkpt><trkpt lat="44.0101329" lon="3.6033906"><ele>620.0</ele><time>2026-04-11T17:55:25.018Z</time></trkpt><trkpt lat="44.010079" lon="3.6034699"><ele>620.0</ele><time>2026-04-11T17:55:26.017Z</time></trkpt><trkpt lat="44.0100262" lon="3.6035538"><ele>620.0</ele><time>2026-04-11T17:55:27.017Z</time></trkpt><trkpt lat="44.0099658" lon="3.6036172"><ele>620.0</ele><time>2026-04-11T17:55:28.017Z</time></trkpt><trkpt lat="44.009906" lon="3.6036711"><ele>620.0</ele><time>2026-04-11T17:55:29.017Z</time></trkpt><trkpt lat="44.0098285" lon="3.6037335"><ele>620.0</ele><time>2026-04-11T17:55:30.017Z</time></trkpt><trkpt lat="44.0097465" lon="3.603783"><ele>619.5</ele><time>2026-04-11T17:55:31.017Z</time></trkpt><trkpt lat="44.0096771" lon="3.6038484"><ele>619.0</ele><time>2026-04-11T17:55:32.017Z</time></trkpt><trkpt lat="44.0096193" lon="3.6039148"><ele>618.5</ele><time>2026-04-11T17:55:33.017Z</time></trkpt><trkpt lat="44.0095651" lon="3.6039843"><ele>618.0</ele><time>2026-04-11T17:55:34.017Z</time></trkpt><trkpt lat="44.0095213" lon="3.6040687"><ele>617.5</ele><time>2026-04-11T17:55:35.018Z</time></trkpt><trkpt lat="44.0094758" lon="3.6041713"><ele>617.0</ele><time>2026-04-11T17:55:36.017Z</time></trkpt><trkpt lat="44.0094327" lon="3.6042799"><ele>617.0</ele><time>2026-04-11T17:55:37.018Z</time></trkpt><trkpt lat="44.0093877" lon="3.6043859"><ele>617.0</ele><time>2026-04-11T17:55:38.017Z</time></trkpt><trkpt lat="44.0093511" lon="3.6044972"><ele>617.0</ele><time>2026-04-11T17:55:39.018Z</time></trkpt><trkpt lat="44.0093152" lon="3.6046019"><ele>617.0</ele><time>2026-04-11T17:55:40.017Z</time></trkpt><trkpt lat="44.0092851" lon="3.6047081"><ele>617.0</ele><time>2026-04-11T17:55:41.017Z</time></trkpt><trkpt lat="44.0092485" lon="3.6048082"><ele>617.0</ele><time>2026-04-11T17:55:42.017Z</time></trkpt><trkpt lat="44.0092041" lon="3.60489"><ele>616.1666666666666</ele><time>2026-04-11T17:55:43.017Z</time></trkpt><trkpt lat="44.0091475" lon="3.6049529"><ele>615.3333333333333</ele><time>2026-04-11T17:55:44.017Z</time></trkpt><trkpt lat="44.0090832" lon="3.6050191"><ele>614.5</ele><time>2026-04-11T17:55:45.018Z</time></trkpt><trkpt lat="44.0090178" lon="3.6050894"><ele>613.6666666666666</ele><time>2026-04-11T17:55:46.017Z</time></trkpt><trkpt lat="44.0089635" lon="3.6051757"><ele>612.8333333333334</ele><time>2026-04-11T17:55:47.018Z</time></trkpt><trkpt lat="44.0089285" lon="3.6052722"><ele>612.0</ele><time>2026-04-11T17:55:48.017Z</time></trkpt><trkpt lat="44.0089023" lon="3.6053864"><ele>612.0</ele><time>2026-04-11T17:55:49.018Z</time></trkpt><trkpt lat="44.0088691" lon="3.6055013"><ele>612.0</ele><time>2026-04-11T17:55:50.017Z</time></trkpt><trkpt lat="44.0088368" lon="3.6056122"><ele>612.0</ele><time>2026-04-11T17:55:51.017Z</time></trkpt><trkpt lat="44.0088045" lon="3.6057144"><ele>612.0</ele><time>2026-04-11T17:55:52.018Z</time></trkpt><trkpt lat="44.0087883" lon="3.6058144"><ele>612.0</ele><time>2026-04-11T17:55:53.017Z</time></trkpt><trkpt lat="44.0087633" lon="3.6059148"><ele>612.0</ele><time>2026-04-11T17:55:54.018Z</time></trkpt><trkpt lat="44.0087319" lon="3.6060226"><ele>612.0</ele><time>2026-04-11T17:55:55.018Z</time></trkpt><trkpt lat="44.0087008" lon="3.6061188"><ele>612.0</ele><time>2026-04-11T17:55:56.018Z</time></trkpt><trkpt lat="44.008661" lon="3.6062066"><ele>612.0</ele><time>2026-04-11T17:55:57.017Z</time></trkpt><trkpt lat="44.0086094" lon="3.6062861"><ele>612.0</ele><time>2026-04-11T17:55:58.017Z</time></trkpt><trkpt lat="44.0085506" lon="3.6063641"><ele>612.0</ele><time>2026-04-11T17:55:59.018Z</time></trkpt><trkpt lat="44.0084895" lon="3.6064252"><ele>612.0</ele><time>2026-04-11T17:56:00.017Z</time></trkpt><trkpt lat="44.0084448" lon="3.6064876"><ele>612.0</ele><time>2026-04-11T17:56:01.018Z</time></trkpt><trkpt lat="44.0083685" lon="3.6065961"><ele>609.0</ele><time>2026-04-11T17:56:03.017Z</time></trkpt><trkpt lat="44.0083285" lon="3.6067094"><ele>606.0</ele><time>2026-04-11T17:56:05.018Z</time></trkpt><trkpt lat="44.0083612" lon="3.6068115"><ele>603.0</ele><time>2026-04-11T17:56:07.017Z</time></trkpt><trkpt lat="44.0084434" lon="3.6068287"><ele>600.0</ele><time>2026-04-11T17:56:09.017Z</time></trkpt><trkpt lat="44.0085009" lon="3.6067197"><ele>597.0</ele><time>2026-04-11T17:56:11.017Z</time></trkpt><trkpt lat="44.0085725" lon="3.6065645"><ele>597.0</ele><time>2026-04-11T17:56:13.017Z</time></trkpt><trkpt lat="44.0086129" lon="3.6064783"><ele>597.0</ele><time>2026-04-11T17:56:14.017Z</time></trkpt><trkpt lat="44.0086571" lon="3.6063991"><ele>597.0</ele><time>2026-04-11T17:56:15.017Z</time></trkpt><trkpt lat="44.0087089" lon="3.6063163"><ele>597.0</ele><time>2026-04-11T17:56:16.018Z</time></trkpt><trkpt lat="44.0087603" lon="3.6062261"><ele>597.0</ele><time>2026-04-11T17:56:17.018Z</time></trkpt><trkpt lat="44.0088116" lon="3.6061408"><ele>597.0</ele><time>2026-04-11T17:56:18.017Z</time></trkpt><trkpt lat="44.0088555" lon="3.6060537"><ele>599.5</ele><time>2026-04-11T17:56:19.017Z</time></trkpt><trkpt lat="44.0088997" lon="3.6059591"><ele>602.0</ele><time>2026-04-11T17:56:20.018Z</time></trkpt><trkpt lat="44.008947" lon="3.6058724"><ele>604.5</ele><time>2026-04-11T17:56:21.017Z</time></trkpt><trkpt lat="44.0089905" lon="3.6057937"><ele>607.0</ele><time>2026-04-11T17:56:22.017Z</time></trkpt><trkpt lat="44.0090371" lon="3.6056468"><ele>609.5</ele><time>2026-04-11T17:56:24.018Z</time></trkpt><trkpt lat="44.009057" lon="3.6055359"><ele>612.0</ele><time>2026-04-11T17:56:26.017Z</time></trkpt><trkpt lat="44.0091342" lon="3.6055461"><ele>612.0</ele><time>2026-04-11T17:56:29.017Z</time></trkpt><trkpt lat="44.0091402" lon="3.6056398"><ele>612.0</ele><time>2026-04-11T17:56:31.018Z</time></trkpt><trkpt lat="44.0091207" lon="3.605731"><ele>612.0</ele><time>2026-04-11T17:56:33.017Z</time></trkpt><trkpt lat="44.0090742" lon="3.605836"><ele>612.0</ele><time>2026-04-11T17:56:35.018Z</time></trkpt><trkpt lat="44.0090286" lon="3.6059707"><ele>612.0</ele><time>2026-04-11T17:56:37.018Z</time></trkpt><trkpt lat="44.0089877" lon="3.6061334"><ele>609.8571428571429</ele><time>2026-04-11T17:56:39.017Z</time></trkpt><trkpt lat="44.0089668" lon="3.6062164"><ele>607.7142857142858</ele><time>2026-04-11T17:56:40.017Z</time></trkpt><trkpt lat="44.008942" lon="3.6063051"><ele>605.5714285714287</ele><time>2026-04-11T17:56:41.018Z</time></trkpt><trkpt lat="44.0089205" lon="3.6063948"><ele>603.4285714285714</ele><time>2026-04-11T17:56:42.018Z</time></trkpt><trkpt lat="44.0088964" lon="3.6064912"><ele>601.2857142857143</ele><time>2026-04-11T17:56:43.017Z</time></trkpt><trkpt lat="44.0088721" lon="3.6065954"><ele>599.1428571428572</ele><time>2026-04-11T17:56:44.017Z</time></trkpt><trkpt lat="44.0088576" lon="3.6067055"><ele>597.0</ele><time>2026-04-11T17:56:45.018Z</time></trkpt><trkpt lat="44.0088428" lon="3.6068148"><ele>597.0</ele><time>2026-04-11T17:56:46.017Z</time></trkpt><trkpt lat="44.008833" lon="3.6069293"><ele>597.0</ele><time>2026-04-11T17:56:47.018Z</time></trkpt><trkpt lat="44.0088301" lon="3.6070488"><ele>597.0</ele><time>2026-04-11T17:56:48.017Z</time></trkpt><trkpt lat="44.0088269" lon="3.6071561"><ele>597.0</ele><time>2026-04-11T17:56:49.017Z</time></trkpt><trkpt lat="44.0088154" lon="3.6072623"><ele>597.0</ele><time>2026-04-11T17:56:50.017Z</time></trkpt><trkpt lat="44.0088008" lon="3.6073723"><ele>597.0</ele><time>2026-04-11T17:56:51.018Z</time></trkpt><trkpt lat="44.0087809" lon="3.6074726"><ele>594.5714285714287</ele><time>2026-04-11T17:56:52.018Z</time></trkpt><trkpt lat="44.008769" lon="3.6075879"><ele>592.1428571428571</ele><time>2026-04-11T17:56:53.017Z</time></trkpt><trkpt lat="44.0087593" lon="3.6076939"><ele>589.7142857142858</ele><time>2026-04-11T17:56:54.018Z</time></trkpt><trkpt lat="44.0087581" lon="3.6078059"><ele>587.2857142857143</ele><time>2026-04-11T17:56:55.017Z</time></trkpt><trkpt lat="44.0087557" lon="3.6079044"><ele>584.8571428571429</ele><time>2026-04-11T17:56:56.017Z</time></trkpt><trkpt lat="44.0087443" lon="3.607996"><ele>582.4285714285714</ele><time>2026-04-11T17:56:57.017Z</time></trkpt><trkpt lat="44.0087278" lon="3.6080845"><ele>580.0</ele><time>2026-04-11T17:56:58.018Z</time></trkpt><trkpt lat="44.0087088" lon="3.6081727"><ele>577.6666666666667</ele><time>2026-04-11T17:56:59.017Z</time></trkpt><trkpt lat="44.0086756" lon="3.6082596"><ele>575.3333333333334</ele><time>2026-04-11T17:57:00.018Z</time></trkpt><trkpt lat="44.0086394" lon="3.6083526"><ele>573.0</ele><time>2026-04-11T17:57:01.017Z</time></trkpt><trkpt lat="44.0086039" lon="3.6084407"><ele>570.6666666666666</ele><time>2026-04-11T17:57:02.018Z</time></trkpt><trkpt lat="44.0085664" lon="3.6085463"><ele>568.3333333333333</ele><time>2026-04-11T17:57:03.018Z</time></trkpt><trkpt lat="44.0085366" lon="3.6086512"><ele>566.0</ele><time>2026-04-11T17:57:04.017Z</time></trkpt><trkpt lat="44.0085048" lon="3.6087385"><ele>564.1666666666666</ele><time>2026-04-11T17:57:05.017Z</time></trkpt><trkpt lat="44.0084501" lon="3.6088762"><ele>562.3333333333333</ele><time>2026-04-11T17:57:07.018Z</time></trkpt><trkpt lat="44.0084256" lon="3.6089727"><ele>560.5</ele><time>2026-04-11T17:57:09.017Z</time></trkpt><trkpt lat="44.0083968" lon="3.6090879"><ele>558.6666666666666</ele><time>2026-04-11T17:57:12.017Z</time></trkpt><trkpt lat="44.0083884" lon="3.6091863"><ele>556.8333333333334</ele><time>2026-04-11T17:57:15.017Z</time></trkpt><trkpt lat="44.0084355" lon="3.6092578"><ele>555.0</ele><time>2026-04-11T17:57:50.017Z</time></trkpt><trkpt lat="44.0085056" lon="3.6092724"><ele>555.0</ele><time>2026-04-11T17:57:54.017Z</time></trkpt><trkpt lat="44.0085767" lon="3.6093291"><ele>555.0</ele><time>2026-04-11T17:57:57.018Z</time></trkpt><trkpt lat="44.0086468" lon="3.6094059"><ele>555.0</ele><time>2026-04-11T17:57:59.017Z</time></trkpt><trkpt lat="44.0087121" lon="3.6094739"><ele>555.0</ele><time>2026-04-11T17:58:01.017Z</time></trkpt><trkpt lat="44.0087746" lon="3.609556"><ele>555.0</ele><time>2026-04-11T17:58:03.018Z</time></trkpt><trkpt lat="44.0088176" lon="3.6096404"><ele>555.0</ele><time>2026-04-11T17:58:05.017Z</time></trkpt><trkpt lat="44.008853" lon="3.6097302"><ele>555.8333333333334</ele><time>2026-04-11T17:58:07.017Z</time></trkpt><trkpt lat="44.0088959" lon="3.6098431"><ele>556.6666666666666</ele><time>2026-04-11T17:58:09.017Z</time></trkpt><trkpt lat="44.0089209" lon="3.6099307"><ele>557.5</ele><time>2026-04-11T17:58:11.018Z</time></trkpt><trkpt lat="44.008926" lon="3.6100238"><ele>558.3333333333333</ele><time>2026-04-11T17:58:13.018Z</time></trkpt><trkpt lat="44.0088914" lon="3.6101644"><ele>559.1666666666666</ele><time>2026-04-11T17:58:15.018Z</time></trkpt><trkpt lat="44.0088407" lon="3.6102859"><ele>560.0</ele><time>2026-04-11T17:58:17.017Z</time></trkpt><trkpt lat="44.0087865" lon="3.610389"><ele>561.0</ele><time>2026-04-11T17:58:19.017Z</time></trkpt><trkpt lat="44.0087292" lon="3.6104911"><ele>562.0</ele><time>2026-04-11T17:58:21.017Z</time></trkpt><trkpt lat="44.0086635" lon="3.6105852"><ele>563.0</ele><time>2026-04-11T17:58:24.018Z</time></trkpt><trkpt lat="44.0085991" lon="3.6106287"><ele>564.0</ele><time>2026-04-11T17:58:26.017Z</time></trkpt><trkpt lat="44.0085424" lon="3.6106721"><ele>565.0</ele><time>2026-04-11T17:58:28.018Z</time></trkpt><trkpt lat="44.0084764" lon="3.6106913"><ele>566.0</ele><time>2026-04-11T17:58:30.018Z</time></trkpt><trkpt lat="44.0084095" lon="3.6107289"><ele>565.3333333333333</ele><time>2026-04-11T17:58:32.018Z</time></trkpt><trkpt lat="44.0083216" lon="3.6107699"><ele>564.6666666666666</ele><time>2026-04-11T17:58:35.017Z</time></trkpt><trkpt lat="44.0082315" lon="3.6108249"><ele>564.0</ele><time>2026-04-11T17:58:38.017Z</time></trkpt><trkpt lat="44.0081802" lon="3.6109244"><ele>563.3333333333334</ele><time>2026-04-11T17:58:41.017Z</time></trkpt><trkpt lat="44.0081575" lon="3.6110188"><ele>562.6666666666667</ele><time>2026-04-11T17:59:25.017Z</time></trkpt><trkpt lat="44.0081524" lon="3.6111308"><ele>562.0</ele><time>2026-04-11T17:59:49.017Z</time></trkpt><trkpt lat="44.0081709" lon="3.6112177"><ele>562.0</ele><time>2026-04-11T17:59:51.018Z</time></trkpt><trkpt lat="44.0081941" lon="3.6113351"><ele>562.0</ele><time>2026-04-11T17:59:54.017Z</time></trkpt><trkpt lat="44.0082003" lon="3.6114254"><ele>562.0</ele><time>2026-04-11T17:59:56.018Z</time></trkpt><trkpt lat="44.0081976" lon="3.611535"><ele>562.0</ele><time>2026-04-11T17:59:58.017Z</time></trkpt><trkpt lat="44.008164" lon="3.6116809"><ele>562.0</ele><time>2026-04-11T18:00:00.017Z</time></trkpt><trkpt lat="44.0080929" lon="3.6118041"><ele>562.0000000000001</ele><time>2026-04-11T18:00:02.018Z</time></trkpt><trkpt lat="44.0080432" lon="3.6118908"><ele>562.0</ele><time>2026-04-11T18:00:03.017Z</time></trkpt><trkpt lat="44.0080057" lon="3.6119694"><ele>562.0</ele><time>2026-04-11T18:00:04.017Z</time></trkpt><trkpt lat="44.0079546" lon="3.6120292"><ele>562.0</ele><time>2026-04-11T18:00:05.018Z</time></trkpt><trkpt lat="44.0079005" lon="3.6120797"><ele>562.0</ele><time>2026-04-11T18:00:06.017Z</time></trkpt><trkpt lat="44.0078458" lon="3.6121526"><ele>562.0000000000001</ele><time>2026-04-11T18:00:07.017Z</time></trkpt><trkpt lat="44.0077894" lon="3.6122155"><ele>562.0</ele><time>2026-04-11T18:00:08.017Z</time></trkpt><trkpt lat="44.0077433" lon="3.612288"><ele>563.4</ele><time>2026-04-11T18:00:09.017Z</time></trkpt><trkpt lat="44.0077072" lon="3.6123646"><ele>564.8000000000001</ele><time>2026-04-11T18:00:10.017Z</time></trkpt><trkpt lat="44.0076802" lon="3.6125504"><ele>566.2</ele><time>2026-04-11T18:00:12.018Z</time></trkpt><trkpt lat="44.0076573" lon="3.6126867"><ele>567.6</ele><time>2026-04-11T18:00:14.017Z</time></trkpt><trkpt lat="44.0076513" lon="3.6128309"><ele>569.0</ele><time>2026-04-11T18:00:16.018Z</time></trkpt><trkpt lat="44.0076871" lon="3.6129837"><ele>571.3333333333333</ele><time>2026-04-11T18:00:18.018Z</time></trkpt><trkpt lat="44.00772" lon="3.6130669"><ele>573.6666666666666</ele><time>2026-04-11T18:00:19.017Z</time></trkpt><trkpt lat="44.0077607" lon="3.6131642"><ele>576.0</ele><time>2026-04-11T18:00:20.018Z</time></trkpt><trkpt lat="44.0078012" lon="3.6132599"><ele>578.3333333333334</ele><time>2026-04-11T18:00:21.017Z</time></trkpt><trkpt lat="44.0078453" lon="3.6133535"><ele>580.6666666666667</ele><time>2026-04-11T18:00:22.017Z</time></trkpt><trkpt lat="44.0078955" lon="3.6134516"><ele>583.0</ele><time>2026-04-11T18:00:23.018Z</time></trkpt><trkpt lat="44.0079427" lon="3.6135565"><ele>585.1666666666667</ele><time>2026-04-11T18:00:24.018Z</time></trkpt><trkpt lat="44.0079933" lon="3.6136612"><ele>587.3333333333334</ele><time>2026-04-11T18:00:25.016Z</time></trkpt><trkpt lat="44.0080342" lon="3.6137613"><ele>589.5</ele><time>2026-04-11T18:00:26.017Z</time></trkpt><trkpt lat="44.0080663" lon="3.6138447"><ele>591.6666666666666</ele><time>2026-04-11T18:00:27.017Z</time></trkpt><trkpt lat="44.0080983" lon="3.6139288"><ele>593.8333333333333</ele><time>2026-04-11T18:00:28.017Z</time></trkpt><trkpt lat="44.0081168" lon="3.6140132"><ele>596.0</ele><time>2026-04-11T18:00:29.016Z</time></trkpt><trkpt lat="44.0081652" lon="3.614174"><ele>596.0</ele><time>2026-04-11T18:00:31.016Z</time></trkpt><trkpt lat="44.0081766" lon="3.6142701"><ele>596.0</ele><time>2026-04-11T18:00:32.016Z</time></trkpt><trkpt lat="44.008186" lon="3.6143707"><ele>596.0</ele><time>2026-04-11T18:00:33.016Z</time></trkpt><trkpt lat="44.0081971" lon="3.614464"><ele>596.0</ele><time>2026-04-11T18:00:34.016Z</time></trkpt><trkpt lat="44.0082243" lon="3.6146268"><ele>596.0</ele><time>2026-04-11T18:00:36.016Z</time></trkpt><trkpt lat="44.00823" lon="3.6147247"><ele>596.0</ele><time>2026-04-11T18:00:37.016Z</time></trkpt><trkpt lat="44.0082395" lon="3.6148304"><ele>597.6666666666666</ele><time>2026-04-11T18:00:38.017Z</time></trkpt><trkpt lat="44.0082487" lon="3.6149499"><ele>599.3333333333333</ele><time>2026-04-11T18:00:39.016Z</time></trkpt><trkpt lat="44.0082598" lon="3.6150702"><ele>601.0</ele><time>2026-04-11T18:00:40.016Z</time></trkpt><trkpt lat="44.0082725" lon="3.6151585"><ele>602.6666666666666</ele><time>2026-04-11T18:00:41.017Z</time></trkpt><trkpt lat="44.0082776" lon="3.6152524"><ele>604.3333333333334</ele><time>2026-04-11T18:00:42.016Z</time></trkpt><trkpt lat="44.0082907" lon="3.6153502"><ele>606.0</ele><time>2026-04-11T18:00:43.016Z</time></trkpt><trkpt lat="44.0083083" lon="3.6155088"><ele>603.0</ele><time>2026-04-11T18:00:45.016Z</time></trkpt><trkpt lat="44.0083356" lon="3.615598"><ele>600.0</ele><time>2026-04-11T18:00:46.016Z</time></trkpt><trkpt lat="44.0084077" lon="3.6157101"><ele>597.0</ele><time>2026-04-11T18:00:48.016Z</time></trkpt><trkpt lat="44.0084562" lon="3.6157893"><ele>594.0</ele><time>2026-04-11T18:00:50.016Z</time></trkpt><trkpt lat="44.0085045" lon="3.6158639"><ele>591.0</ele><time>2026-04-11T18:00:52.017Z</time></trkpt><trkpt lat="44.0085521" lon="3.6159258"><ele>588.0</ele><time>2026-04-11T18:00:53.017Z</time></trkpt><trkpt lat="44.0086042" lon="3.6159921"><ele>588.0</ele><time>2026-04-11T18:00:54.016Z</time></trkpt><trkpt lat="44.0086727" lon="3.61607"><ele>588.0</ele><time>2026-04-11T18:00:55.016Z</time></trkpt><trkpt lat="44.008737" lon="3.6161329"><ele>588.0</ele><time>2026-04-11T18:00:56.016Z</time></trkpt><trkpt lat="44.0088503" lon="3.6162306"><ele>588.0</ele><time>2026-04-11T18:00:58.016Z</time></trkpt><trkpt lat="44.0089054" lon="3.6162748"><ele>588.0</ele><time>2026-04-11T18:00:59.016Z</time></trkpt><trkpt lat="44.0090064" lon="3.6162997"><ele>588.8571428571429</ele><time>2026-04-11T18:01:01.017Z</time></trkpt><trkpt lat="44.0090749" lon="3.6163067"><ele>589.7142857142858</ele><time>2026-04-11T18:01:02.016Z</time></trkpt><trkpt lat="44.0091508" lon="3.6163041"><ele>590.5714285714286</ele><time>2026-04-11T18:01:03.017Z</time></trkpt><trkpt lat="44.009219" lon="3.6163104"><ele>591.4285714285714</ele><time>2026-04-11T18:01:04.016Z</time></trkpt><trkpt lat="44.0092887" lon="3.6163308"><ele>592.2857142857143</ele><time>2026-04-11T18:01:05.017Z</time></trkpt><trkpt lat="44.0093633" lon="3.6163459"><ele>593.1428571428571</ele><time>2026-04-11T18:01:06.017Z</time></trkpt><trkpt lat="44.0094394" lon="3.6163651"><ele>594.0</ele><time>2026-04-11T18:01:07.016Z</time></trkpt><trkpt lat="44.0095144" lon="3.6163595"><ele>594.1428571428571</ele><time>2026-04-11T18:01:08.016Z</time></trkpt><trkpt lat="44.0095893" lon="3.6163616"><ele>594.2857142857143</ele><time>2026-04-11T18:01:09.016Z</time></trkpt><trkpt lat="44.009662" lon="3.6163734"><ele>594.4285714285714</ele><time>2026-04-11T18:01:10.016Z</time></trkpt><trkpt lat="44.0097277" lon="3.6163828"><ele>594.5714285714286</ele><time>2026-04-11T18:01:11.016Z</time></trkpt><trkpt lat="44.0097976" lon="3.6163875"><ele>594.7142857142858</ele><time>2026-04-11T18:01:12.017Z</time></trkpt><trkpt lat="44.0098615" lon="3.6163729"><ele>594.8571428571429</ele><time>2026-04-11T18:01:13.017Z</time></trkpt><trkpt lat="44.0099254" lon="3.6163594"><ele>595.0</ele><time>2026-04-11T18:01:14.016Z</time></trkpt><trkpt lat="44.010041" lon="3.6163491"><ele>594.3333333333334</ele><time>2026-04-11T18:01:16.017Z</time></trkpt><trkpt lat="44.0101176" lon="3.6163641"><ele>593.6666666666667</ele><time>2026-04-11T18:01:18.016Z</time></trkpt><trkpt lat="44.010204" lon="3.6164411"><ele>593.0</ele><time>2026-04-11T18:01:21.016Z</time></trkpt><trkpt lat="44.010287" lon="3.6165623"><ele>592.3333333333334</ele><time>2026-04-11T18:01:23.017Z</time></trkpt><trkpt lat="44.0103289" lon="3.616632"><ele>591.6666666666666</ele><time>2026-04-11T18:01:24.017Z</time></trkpt><trkpt lat="44.0103659" lon="3.6167084"><ele>591.0</ele><time>2026-04-11T18:01:25.017Z</time></trkpt><trkpt lat="44.0104006" lon="3.6167924"><ele>591.0</ele><time>2026-04-11T18:01:26.017Z</time></trkpt><trkpt lat="44.010474" lon="3.6169409"><ele>591.0</ele><time>2026-04-11T18:01:28.016Z</time></trkpt><trkpt lat="44.010505" lon="3.6170239"><ele>591.0</ele><time>2026-04-11T18:01:29.017Z</time></trkpt><trkpt lat="44.0105302" lon="3.6171241"><ele>591.0</ele><time>2026-04-11T18:01:30.017Z</time></trkpt><trkpt lat="44.0105478" lon="3.6172207"><ele>591.0</ele><time>2026-04-11T18:01:31.016Z</time></trkpt><trkpt lat="44.0105598" lon="3.617313"><ele>591.0</ele><time>2026-04-11T18:01:32.017Z</time></trkpt><trkpt lat="44.0105766" lon="3.6174087"><ele>594.3333333333334</ele><time>2026-04-11T18:01:33.016Z</time></trkpt><trkpt lat="44.010592" lon="3.6175074"><ele>597.6666666666666</ele><time>2026-04-11T18:01:34.016Z</time></trkpt><trkpt lat="44.0106188" lon="3.6175977"><ele>601.0</ele><time>2026-04-11T18:01:35.016Z</time></trkpt><trkpt lat="44.0106401" lon="3.6176808"><ele>604.3333333333333</ele><time>2026-04-11T18:01:36.016Z</time></trkpt><trkpt lat="44.0106778" lon="3.6178167"><ele>607.6666666666666</ele><time>2026-04-11T18:01:38.017Z</time></trkpt><trkpt lat="44.0107072" lon="3.6179109"><ele>611.0</ele><time>2026-04-11T18:01:39.016Z</time></trkpt><trkpt lat="44.0107178" lon="3.6180005"><ele>611.8333333333333</ele><time>2026-04-11T18:01:40.016Z</time></trkpt><trkpt lat="44.0107293" lon="3.6181048"><ele>612.6666666666666</ele><time>2026-04-11T18:01:41.017Z</time></trkpt><trkpt lat="44.0107442" lon="3.6181911"><ele>613.5</ele><time>2026-04-11T18:01:42.016Z</time></trkpt><trkpt lat="44.0107538" lon="3.618281"><ele>614.3333333333334</ele><time>2026-04-11T18:01:43.016Z</time></trkpt><trkpt lat="44.0107711" lon="3.6184638"><ele>615.1666666666667</ele><time>2026-04-11T18:01:45.016Z</time></trkpt><trkpt lat="44.0107705" lon="3.6185616"><ele>616.0</ele><time>2026-04-11T18:01:46.016Z</time></trkpt><trkpt lat="44.010778" lon="3.6186694"><ele>616.0</ele><time>2026-04-11T18:01:47.016Z</time></trkpt><trkpt lat="44.0107871" lon="3.6187806"><ele>616.0</ele><time>2026-04-11T18:01:48.017Z</time></trkpt><trkpt lat="44.0107952" lon="3.6188841"><ele>616.0</ele><time>2026-04-11T18:01:49.016Z</time></trkpt><trkpt lat="44.0108125" lon="3.6189798"><ele>616.0</ele><time>2026-04-11T18:01:50.016Z</time></trkpt><trkpt lat="44.0108243" lon="3.6190817"><ele>616.0</ele><time>2026-04-11T18:01:51.016Z</time></trkpt><trkpt lat="44.0108384" lon="3.6191812"><ele>616.0</ele><time>2026-04-11T18:01:52.017Z</time></trkpt><trkpt lat="44.0108522" lon="3.6192796"><ele>616.0</ele><time>2026-04-11T18:01:53.017Z</time></trkpt><trkpt lat="44.0108662" lon="3.6193665"><ele>609.0</ele><time>2026-04-11T18:01:54.017Z</time></trkpt><trkpt lat="44.0108825" lon="3.6194579"><ele>602.0</ele><time>2026-04-11T18:01:55.016Z</time></trkpt><trkpt lat="44.0109246" lon="3.6196305"><ele>595.0</ele><time>2026-04-11T18:01:57.017Z</time></trkpt><trkpt lat="44.010949" lon="3.6197219"><ele>588.0</ele><time>2026-04-11T18:01:58.016Z</time></trkpt><trkpt lat="44.010975" lon="3.619907"><ele>581.0</ele><time>2026-04-11T18:02:00.017Z</time></trkpt><trkpt lat="44.0109938" lon="3.6199986"><ele>581.0</ele><time>2026-04-11T18:02:01.016Z</time></trkpt><trkpt lat="44.0110161" lon="3.6200836"><ele>581.0</ele><time>2026-04-11T18:02:02.017Z</time></trkpt><trkpt lat="44.0110435" lon="3.620249"><ele>581.0</ele><time>2026-04-11T18:02:04.017Z</time></trkpt><trkpt lat="44.0110702" lon="3.6203356"><ele>581.0</ele><time>2026-04-11T18:02:05.016Z</time></trkpt><trkpt lat="44.0111105" lon="3.6205041"><ele>581.0</ele><time>2026-04-11T18:02:07.016Z</time></trkpt><trkpt lat="44.0111298" lon="3.620593"><ele>581.0</ele><time>2026-04-11T18:02:08.016Z</time></trkpt><trkpt lat="44.0111448" lon="3.6206792"><ele>580.2</ele><time>2026-04-11T18:02:09.016Z</time></trkpt><trkpt lat="44.011163" lon="3.6207651"><ele>579.4000000000001</ele><time>2026-04-11T18:02:10.017Z</time></trkpt><trkpt lat="44.0111878" lon="3.6209401"><ele>578.6</ele><time>2026-04-11T18:02:12.016Z</time></trkpt><trkpt lat="44.0111883" lon="3.6210354"><ele>577.8000000000001</ele><time>2026-04-11T18:02:13.017Z</time></trkpt><trkpt lat="44.0111954" lon="3.6211788"><ele>577.0</ele><time>2026-04-11T18:02:15.017Z</time></trkpt><trkpt lat="44.0111839" lon="3.6213188"><ele>575.0</ele><time>2026-04-11T18:02:17.016Z</time></trkpt><trkpt lat="44.0111494" lon="3.621445"><ele>573.0</ele><time>2026-04-11T18:02:19.016Z</time></trkpt><trkpt lat="44.0110899" lon="3.6215531"><ele>571.0</ele><time>2026-04-11T18:02:21.016Z</time></trkpt><trkpt lat="44.0110338" lon="3.6216417"><ele>569.0</ele><time>2026-04-11T18:02:23.016Z</time></trkpt><trkpt lat="44.0109537" lon="3.6217177"><ele>567.0</ele><time>2026-04-11T18:02:25.017Z</time></trkpt><trkpt lat="44.0108645" lon="3.6218173"><ele>567.5</ele><time>2026-04-11T18:02:27.017Z</time></trkpt><trkpt lat="44.0108123" lon="3.6219344"><ele>568.0</ele><time>2026-04-11T18:02:29.016Z</time></trkpt><trkpt lat="44.010786" lon="3.6220506"><ele>568.5</ele><time>2026-04-11T18:02:31.016Z</time></trkpt><trkpt lat="44.0107594" lon="3.6221602"><ele>569.0</ele><time>2026-04-11T18:02:33.016Z</time></trkpt><trkpt lat="44.0107432" lon="3.6222494"><ele>569.5</ele><time>2026-04-11T18:02:35.017Z</time></trkpt><trkpt lat="44.0107108" lon="3.6223799"><ele>570.0</ele><time>2026-04-11T18:02:37.016Z</time></trkpt><trkpt lat="44.0106877" lon="3.6224674"><ele>570.0</ele><time>2026-04-11T18:02:38.016Z</time></trkpt><trkpt lat="44.0106683" lon="3.6225639"><ele>570.0</ele><time>2026-04-11T18:02:39.017Z</time></trkpt><trkpt lat="44.0106466" lon="3.6226487"><ele>570.0</ele><time>2026-04-11T18:02:40.017Z</time></trkpt><trkpt lat="44.0106189" lon="3.6228099"><ele>570.0</ele><time>2026-04-11T18:02:42.016Z</time></trkpt><trkpt lat="44.0105865" lon="3.6229512"><ele>570.0</ele><time>2026-04-11T18:02:44.017Z</time></trkpt><trkpt lat="44.0105401" lon="3.6230536"><ele>568.2</ele><time>2026-04-11T18:02:46.016Z</time></trkpt><trkpt lat="44.0104687" lon="3.6230818"><ele>566.4</ele><time>2026-04-11T18:02:48.017Z</time></trkpt><trkpt lat="44.0103708" lon="3.6230978"><ele>564.6</ele><time>2026-04-11T18:02:50.017Z</time></trkpt><trkpt lat="44.0102711" lon="3.6231144"><ele>562.8</ele><time>2026-04-11T18:02:52.017Z</time></trkpt><trkpt lat="44.0101684" lon="3.623102"><ele>561.0</ele><time>2026-04-11T18:02:54.017Z</time></trkpt><trkpt lat="44.0100948" lon="3.623066"><ele>561.0</ele><time>2026-04-11T18:02:56.017Z</time></trkpt><trkpt lat="44.0100655" lon="3.6229585"><ele>561.0</ele><time>2026-04-11T18:02:59.016Z</time></trkpt><trkpt lat="44.0101015" lon="3.6228854"><ele>561.0</ele><time>2026-04-11T18:03:01.017Z</time></trkpt><trkpt lat="44.0101567" lon="3.6228126"><ele>561.0</ele><time>2026-04-11T18:03:03.016Z</time></trkpt><trkpt lat="44.0102228" lon="3.6227472"><ele>561.0</ele><time>2026-04-11T18:03:05.017Z</time></trkpt><trkpt lat="44.0102574" lon="3.622671"><ele>561.0</ele><time>2026-04-11T18:03:07.017Z</time></trkpt><trkpt lat="44.0102152" lon="3.6225764"><ele>561.0</ele><time>2026-04-11T18:03:11.016Z</time></trkpt><trkpt lat="44.0101539" lon="3.6226005"><ele>562.5</ele><time>2026-04-11T18:03:13.017Z</time></trkpt><trkpt lat="44.0100709" lon="3.6225805"><ele>564.0</ele><time>2026-04-11T18:03:16.017Z</time></trkpt><trkpt lat="44.009978" lon="3.6225196"><ele>565.5</ele><time>2026-04-11T18:03:19.016Z</time></trkpt><trkpt lat="44.0099047" lon="3.6224972"><ele>567.0</ele><time>2026-04-11T18:03:21.016Z</time></trkpt><trkpt lat="44.0098503" lon="3.622415"><ele>568.5</ele><time>2026-04-11T18:03:23.016Z</time></trkpt><trkpt lat="44.0097898" lon="3.6223248"><ele>570.0</ele><time>2026-04-11T18:03:25.016Z</time></trkpt><trkpt lat="44.0097269" lon="3.6222265"><ele>567.0</ele><time>2026-04-11T18:03:27.017Z</time></trkpt><trkpt lat="44.0096622" lon="3.6221164"><ele>564.0</ele><time>2026-04-11T18:03:29.016Z</time></trkpt><trkpt lat="44.0096076" lon="3.6220008"><ele>561.0</ele><time>2026-04-11T18:03:31.016Z</time></trkpt><trkpt lat="44.0095457" lon="3.6218873"><ele>558.0</ele><time>2026-04-11T18:03:33.017Z</time></trkpt><trkpt lat="44.0094802" lon="3.6217852"><ele>555.0</ele><time>2026-04-11T18:03:35.016Z</time></trkpt><trkpt lat="44.009415" lon="3.6216714"><ele>555.0</ele><time>2026-04-11T18:03:37.017Z</time></trkpt><trkpt lat="44.0093334" lon="3.6215716"><ele>555.0</ele><time>2026-04-11T18:03:39.017Z</time></trkpt><trkpt lat="44.0092606" lon="3.6214683"><ele>555.0</ele><time>2026-04-11T18:03:41.016Z</time></trkpt><trkpt lat="44.0091768" lon="3.6213791"><ele>555.0</ele><time>2026-04-11T18:03:43.016Z</time></trkpt><trkpt lat="44.0090976" lon="3.6212842"><ele>555.0</ele><time>2026-04-11T18:03:45.016Z</time></trkpt><trkpt lat="44.0090206" lon="3.6211906"><ele>552.0</ele><time>2026-04-11T18:03:47.017Z</time></trkpt><trkpt lat="44.0089457" lon="3.6211069"><ele>549.0</ele><time>2026-04-11T18:03:49.016Z</time></trkpt><trkpt lat="44.0088791" lon="3.6210119"><ele>546.0</ele><time>2026-04-11T18:03:51.016Z</time></trkpt><trkpt lat="44.0087959" lon="3.6209254"><ele>543.0</ele><time>2026-04-11T18:03:53.016Z</time></trkpt><trkpt lat="44.0087084" lon="3.6208252"><ele>540.0</ele><time>2026-04-11T18:03:55.016Z</time></trkpt><trkpt lat="44.0086369" lon="3.6207217"><ele>540.0</ele><time>2026-04-11T18:03:57.017Z</time></trkpt><trkpt lat="44.0085659" lon="3.6206289"><ele>540.0</ele><time>2026-04-11T18:03:59.017Z</time></trkpt><trkpt lat="44.008498" lon="3.6205298"><ele>540.0</ele><time>2026-04-11T18:04:01.016Z</time></trkpt><trkpt lat="44.0084372" lon="3.6204212"><ele>540.0</ele><time>2026-04-11T18:04:03.017Z</time></trkpt><trkpt lat="44.0083714" lon="3.6203026"><ele>540.0</ele><time>2026-04-11T18:04:05.016Z</time></trkpt><trkpt lat="44.0082966" lon="3.620189"><ele>538.6</ele><time>2026-04-11T18:04:07.017Z</time></trkpt><trkpt lat="44.008228" lon="3.6200665"><ele>537.2</ele><time>2026-04-11T18:04:09.016Z</time></trkpt><trkpt lat="44.008169" lon="3.6199636"><ele>535.8</ele><time>2026-04-11T18:04:11.016Z</time></trkpt><trkpt lat="44.0081141" lon="3.6198656"><ele>534.4</ele><time>2026-04-11T18:04:13.017Z</time></trkpt><trkpt lat="44.0080469" lon="3.6197777"><ele>533.0</ele><time>2026-04-11T18:04:15.017Z</time></trkpt><trkpt lat="44.007967" lon="3.6196992"><ele>533.0</ele><time>2026-04-11T18:04:17.016Z</time></trkpt><trkpt lat="44.0078987" lon="3.6195907"><ele>533.0</ele><time>2026-04-11T18:04:19.017Z</time></trkpt><trkpt lat="44.0078406" lon="3.6194482"><ele>533.0</ele><time>2026-04-11T18:04:21.016Z</time></trkpt><trkpt lat="44.0077974" lon="3.6193233"><ele>533.0</ele><time>2026-04-11T18:04:23.017Z</time></trkpt><trkpt lat="44.0077622" lon="3.6192501"><ele>533.0</ele><time>2026-04-11T18:04:25.016Z</time></trkpt><trkpt lat="44.0077009" lon="3.6192112"><ele>533.0</ele><time>2026-04-11T18:04:28.016Z</time></trkpt><trkpt lat="44.0076687" lon="3.6192937"><ele>533.0</ele><time>2026-04-11T18:04:31.016Z</time></trkpt><trkpt lat="44.0077101" lon="3.6193821"><ele>533.0</ele><time>2026-04-11T18:04:33.016Z</time></trkpt><trkpt lat="44.0077747" lon="3.6194933"><ele>533.0</ele><time>2026-04-11T18:04:35.017Z</time></trkpt><trkpt lat="44.0078211" lon="3.6195921"><ele>533.0</ele><time>2026-04-11T18:04:37.017Z</time></trkpt><trkpt lat="44.0078693" lon="3.6196983"><ele>533.0</ele><time>2026-04-11T18:04:39.017Z</time></trkpt><trkpt lat="44.0079189" lon="3.6198017"><ele>533.0</ele><time>2026-04-11T18:04:41.016Z</time></trkpt><trkpt lat="44.0079672" lon="3.6199048"><ele>533.0</ele><time>2026-04-11T18:04:43.016Z</time></trkpt><trkpt lat="44.0080135" lon="3.6200144"><ele>533.0</ele><time>2026-04-11T18:04:45.016Z</time></trkpt><trkpt lat="44.0080524" lon="3.6201431"><ele>533.0</ele><time>2026-04-11T18:04:47.016Z</time></trkpt><trkpt lat="44.0080972" lon="3.6202638"><ele>533.0</ele><time>2026-04-11T18:04:49.017Z</time></trkpt><trkpt lat="44.008128" lon="3.6203938"><ele>528.6</ele><time>2026-04-11T18:04:51.016Z</time></trkpt><trkpt lat="44.0081616" lon="3.6205123"><ele>524.1999999999999</ele><time>2026-04-11T18:04:53.016Z</time></trkpt><trkpt lat="44.0081988" lon="3.6206358"><ele>519.8</ele><time>2026-04-11T18:04:55.016Z</time></trkpt><trkpt lat="44.008233" lon="3.620768"><ele>515.4</ele><time>2026-04-11T18:04:57.017Z</time></trkpt><trkpt lat="44.0082738" lon="3.620897"><ele>511.0</ele><time>2026-04-11T18:04:59.016Z</time></trkpt><trkpt lat="44.0083114" lon="3.6210254"><ele>511.00000000000006</ele><time>2026-04-11T18:05:01.016Z</time></trkpt><trkpt lat="44.0083585" lon="3.6211321"><ele>511.0</ele><time>2026-04-11T18:05:03.017Z</time></trkpt><trkpt lat="44.0084108" lon="3.6212137"><ele>511.0</ele><time>2026-04-11T18:05:05.016Z</time></trkpt><trkpt lat="44.0084727" lon="3.6212751"><ele>511.0</ele><time>2026-04-11T18:05:08.016Z</time></trkpt><trkpt lat="44.0084148" lon="3.6212056"><ele>511.00000000000006</ele><time>2026-04-11T18:05:27.017Z</time></trkpt><trkpt lat="44.0083538" lon="3.6211217"><ele>511.0</ele><time>2026-04-11T18:05:30.016Z</time></trkpt><trkpt lat="44.0083055" lon="3.6210182"><ele>511.00000000000006</ele><time>2026-04-11T18:05:32.016Z</time></trkpt><trkpt lat="44.0082784" lon="3.6209217"><ele>511.0</ele><time>2026-04-11T18:05:34.016Z</time></trkpt><trkpt lat="44.0082516" lon="3.6208026"><ele>511.0</ele><time>2026-04-11T18:05:36.017Z</time></trkpt><trkpt lat="44.0082176" lon="3.6206746"><ele>511.0</ele><time>2026-04-11T18:05:38.016Z</time></trkpt><trkpt lat="44.0081986" lon="3.6205627"><ele>511.00000000000006</ele><time>2026-04-11T18:05:40.017Z</time></trkpt><trkpt lat="44.0081727" lon="3.6204313"><ele>511.0</ele><time>2026-04-11T18:05:42.016Z</time></trkpt><trkpt lat="44.0081385" lon="3.6202886"><ele>515.4</ele><time>2026-04-11T18:05:44.017Z</time></trkpt><trkpt lat="44.0080967" lon="3.6201523"><ele>519.8</ele><time>2026-04-11T18:05:46.017Z</time></trkpt><trkpt lat="44.0080595" lon="3.6200384"><ele>524.1999999999999</ele><time>2026-04-11T18:05:48.017Z</time></trkpt><trkpt lat="44.0080195" lon="3.619911"><ele>528.6</ele><time>2026-04-11T18:05:50.017Z</time></trkpt><trkpt lat="44.0079661" lon="3.6197979"><ele>533.0</ele><time>2026-04-11T18:05:52.016Z</time></trkpt><trkpt lat="44.0079036" lon="3.6196742"><ele>533.0</ele><time>2026-04-11T18:05:54.016Z</time></trkpt><trkpt lat="44.0078519" lon="3.6195415"><ele>533.0</ele><time>2026-04-11T18:05:56.016Z</time></trkpt><trkpt lat="44.0078102" lon="3.6194246"><ele>533.0</ele><time>2026-04-11T18:05:58.016Z</time></trkpt><trkpt lat="44.0077783" lon="3.6192943"><ele>533.0</ele><time>2026-04-11T18:06:01.016Z</time></trkpt><trkpt lat="44.0077969" lon="3.6191967"><ele>533.0</ele><time>2026-04-11T18:06:04.016Z</time></trkpt><trkpt lat="44.007856" lon="3.6192643"><ele>533.0</ele><time>2026-04-11T18:06:12.016Z</time></trkpt><trkpt lat="44.0078929" lon="3.6193419"><ele>533.0</ele><time>2026-04-11T18:06:14.016Z</time></trkpt><trkpt lat="44.007918" lon="3.6194571"><ele>533.0</ele><time>2026-04-11T18:06:16.016Z</time></trkpt><trkpt lat="44.007967" lon="3.6195628"><ele>533.0</ele><time>2026-04-11T18:06:18.016Z</time></trkpt><trkpt lat="44.0080124" lon="3.61965"><ele>533.0</ele><time>2026-04-11T18:06:20.016Z</time></trkpt><trkpt lat="44.0080704" lon="3.6197477"><ele>533.0</ele><time>2026-04-11T18:06:22.017Z</time></trkpt><trkpt lat="44.0081305" lon="3.6198091"><ele>533.0</ele><time>2026-04-11T18:06:24.017Z</time></trkpt><trkpt lat="44.0082178" lon="3.6199037"><ele>533.0</ele><time>2026-04-11T18:06:26.016Z</time></trkpt><trkpt lat="44.0082741" lon="3.6200151"><ele>533.0</ele><time>2026-04-11T18:06:28.016Z</time></trkpt><trkpt lat="44.008336" lon="3.620118"><ele>533.0</ele><time>2026-04-11T18:06:30.016Z</time></trkpt><trkpt lat="44.0083916" lon="3.6202255"><ele>533.0</ele><time>2026-04-11T18:06:32.016Z</time></trkpt><trkpt lat="44.0084648" lon="3.6203459"><ele>534.4</ele><time>2026-04-11T18:06:34.016Z</time></trkpt><trkpt lat="44.0085256" lon="3.6204653"><ele>535.8</ele><time>2026-04-11T18:06:36.017Z</time></trkpt><trkpt lat="44.0085901" lon="3.6205809"><ele>537.2</ele><time>2026-04-11T18:06:38.017Z</time></trkpt><trkpt lat="44.0086669" lon="3.6206912"><ele>538.6</ele><time>2026-04-11T18:06:40.016Z</time></trkpt><trkpt lat="44.0087386" lon="3.6208155"><ele>540.0</ele><time>2026-04-11T18:06:42.016Z</time></trkpt><trkpt lat="44.0088153" lon="3.6209351"><ele>540.0</ele><time>2026-04-11T18:06:44.017Z</time></trkpt><trkpt lat="44.0088964" lon="3.6210303"><ele>540.0</ele><time>2026-04-11T18:06:46.016Z</time></trkpt><trkpt lat="44.0089776" lon="3.6211044"><ele>540.0</ele><time>2026-04-11T18:06:48.016Z</time></trkpt><trkpt lat="44.0090582" lon="3.6212019"><ele>540.0</ele><time>2026-04-11T18:06:50.016Z</time></trkpt><trkpt lat="44.009133" lon="3.6212973"><ele>540.0</ele><time>2026-04-11T18:06:52.016Z</time></trkpt><trkpt lat="44.0092075" lon="3.6214128"><ele>543.75</ele><time>2026-04-11T18:06:54.017Z</time></trkpt><trkpt lat="44.0092784" lon="3.6215284"><ele>547.5</ele><time>2026-04-11T18:06:56.016Z</time></trkpt><trkpt lat="44.0093608" lon="3.6216195"><ele>551.25</ele><time>2026-04-11T18:06:58.016Z</time></trkpt><trkpt lat="44.0094432" lon="3.6217534"><ele>555.0</ele><time>2026-04-11T18:07:00.016Z</time></trkpt><trkpt lat="44.0095288" lon="3.6218691"><ele>552.25</ele><time>2026-04-11T18:07:02.017Z</time></trkpt><trkpt lat="44.0096101" lon="3.6220001"><ele>549.5</ele><time>2026-04-11T18:07:04.016Z</time></trkpt><trkpt lat="44.0096794" lon="3.6221333"><ele>546.75</ele><time>2026-04-11T18:07:06.016Z</time></trkpt><trkpt lat="44.0097476" lon="3.6222619"><ele>544.0</ele><time>2026-04-11T18:07:08.016Z</time></trkpt><trkpt lat="44.0098128" lon="3.6223723"><ele>544.0</ele><time>2026-04-11T18:07:10.016Z</time></trkpt><trkpt lat="44.0098692" lon="3.6224576"><ele>544.0</ele><time>2026-04-11T18:07:12.017Z</time></trkpt><trkpt lat="44.0099479" lon="3.6225104"><ele>544.0</ele><time>2026-04-11T18:07:14.017Z</time></trkpt><trkpt lat="44.0100245" lon="3.6225896"><ele>544.0</ele><time>2026-04-11T18:07:16.016Z</time></trkpt><trkpt lat="44.0101035" lon="3.6226263"><ele>544.0</ele><time>2026-04-11T18:07:18.017Z</time></trkpt><trkpt lat="44.0101759" lon="3.6226078"><ele>544.0</ele><time>2026-04-11T18:07:21.016Z</time></trkpt><trkpt lat="44.010195" lon="3.6226939"><ele>546.8333333333334</ele><time>2026-04-11T18:07:26.016Z</time></trkpt><trkpt lat="44.0101271" lon="3.6227709"><ele>549.6666666666667</ele><time>2026-04-11T18:07:29.015Z</time></trkpt><trkpt lat="44.0100705" lon="3.6228591"><ele>552.5</ele><time>2026-04-11T18:07:31.016Z</time></trkpt><trkpt lat="44.0100373" lon="3.6229687"><ele>555.3333333333334</ele><time>2026-04-11T18:07:33.015Z</time></trkpt><trkpt lat="44.0100216" lon="3.6230554"><ele>558.1666666666666</ele><time>2026-04-11T18:07:35.016Z</time></trkpt><trkpt lat="44.0100746" lon="3.6231427"><ele>561.0</ele><time>2026-04-11T18:07:38.015Z</time></trkpt><trkpt lat="44.0101465" lon="3.6231754"><ele>561.0</ele><time>2026-04-11T18:07:40.015Z</time></trkpt><trkpt lat="44.0102208" lon="3.6231881"><ele>561.0</ele><time>2026-04-11T18:07:42.016Z</time></trkpt><trkpt lat="44.0103067" lon="3.62319"><ele>561.0</ele><time>2026-04-11T18:07:44.015Z</time></trkpt><trkpt lat="44.0103826" lon="3.6231701"><ele>561.0</ele><time>2026-04-11T18:07:46.015Z</time></trkpt><trkpt lat="44.0104873" lon="3.6231259"><ele>561.0</ele><time>2026-04-11T18:07:48.015Z</time></trkpt><trkpt lat="44.0105685" lon="3.6230382"><ele>561.0</ele><time>2026-04-11T18:07:50.015Z</time></trkpt><trkpt lat="44.0106172" lon="3.6229205"><ele>561.0</ele><time>2026-04-11T18:07:52.015Z</time></trkpt><trkpt lat="44.0106591" lon="3.6228067"><ele>561.0</ele><time>2026-04-11T18:07:54.016Z</time></trkpt><trkpt lat="44.0106936" lon="3.6226995"><ele>561.0</ele><time>2026-04-11T18:07:56.015Z</time></trkpt><trkpt lat="44.0107221" lon="3.6225932"><ele>561.0</ele><time>2026-04-11T18:07:58.015Z</time></trkpt><trkpt lat="44.0107486" lon="3.6224841"><ele>561.0</ele><time>2026-04-11T18:08:00.015Z</time></trkpt><trkpt lat="44.0107637" lon="3.622339"><ele>560.6</ele><time>2026-04-11T18:08:02.015Z</time></trkpt><trkpt lat="44.0107961" lon="3.6222151"><ele>560.2</ele><time>2026-04-11T18:08:04.015Z</time></trkpt><trkpt lat="44.010825" lon="3.6220743"><ele>559.8</ele><time>2026-04-11T18:08:06.016Z</time></trkpt><trkpt lat="44.010848" lon="3.621957"><ele>559.4</ele><time>2026-04-11T18:08:08.015Z</time></trkpt><trkpt lat="44.0108908" lon="3.6218363"><ele>559.0</ele><time>2026-04-11T18:08:10.015Z</time></trkpt><trkpt lat="44.0109817" lon="3.6217317"><ele>560.6</ele><time>2026-04-11T18:08:12.015Z</time></trkpt><trkpt lat="44.0110667" lon="3.6216448"><ele>562.2</ele><time>2026-04-11T18:08:14.015Z</time></trkpt><trkpt lat="44.0111198" lon="3.6215338"><ele>563.8000000000001</ele><time>2026-04-11T18:08:16.015Z</time></trkpt><trkpt lat="44.0111745" lon="3.6214276"><ele>565.4</ele><time>2026-04-11T18:08:18.015Z</time></trkpt><trkpt lat="44.0112032" lon="3.6212892"><ele>567.0</ele><time>2026-04-11T18:08:20.016Z</time></trkpt><trkpt lat="44.0112319" lon="3.6211653"><ele>569.0</ele><time>2026-04-11T18:08:22.016Z</time></trkpt><trkpt lat="44.0112264" lon="3.6210297"><ele>571.0</ele><time>2026-04-11T18:08:24.016Z</time></trkpt><trkpt lat="44.0112025" lon="3.6208852"><ele>573.0</ele><time>2026-04-11T18:08:26.015Z</time></trkpt><trkpt lat="44.0111807" lon="3.6207435"><ele>575.0</ele><time>2026-04-11T18:08:28.016Z</time></trkpt><trkpt lat="44.0111453" lon="3.6205901"><ele>577.0</ele><time>2026-04-11T18:08:30.015Z</time></trkpt><trkpt lat="44.0111069" lon="3.620441"><ele>577.5714285714286</ele><time>2026-04-11T18:08:32.016Z</time></trkpt><trkpt lat="44.0110787" lon="3.6202943"><ele>578.1428571428571</ele><time>2026-04-11T18:08:34.016Z</time></trkpt><trkpt lat="44.01106" lon="3.6202094"><ele>578.7142857142858</ele><time>2026-04-11T18:08:35.015Z</time></trkpt><trkpt lat="44.0110378" lon="3.6201257"><ele>579.2857142857142</ele><time>2026-04-11T18:08:36.016Z</time></trkpt><trkpt lat="44.0110153" lon="3.6200403"><ele>579.8571428571429</ele><time>2026-04-11T18:08:37.015Z</time></trkpt><trkpt lat="44.0110024" lon="3.6199541"><ele>580.4285714285714</ele><time>2026-04-11T18:08:38.016Z</time></trkpt><trkpt lat="44.0109778" lon="3.6198621"><ele>581.0</ele><time>2026-04-11T18:08:39.015Z</time></trkpt><trkpt lat="44.0109389" lon="3.6197106"><ele>581.0</ele><time>2026-04-11T18:08:41.015Z</time></trkpt><trkpt lat="44.0108965" lon="3.6195723"><ele>581.0</ele><time>2026-04-11T18:08:43.015Z</time></trkpt><trkpt lat="44.0108696" lon="3.6194198"><ele>581.0</ele><time>2026-04-11T18:08:45.016Z</time></trkpt><trkpt lat="44.0108538" lon="3.6192537"><ele>581.0</ele><time>2026-04-11T18:08:47.015Z</time></trkpt><trkpt lat="44.0108461" lon="3.6191613"><ele>581.0</ele><time>2026-04-11T18:08:48.016Z</time></trkpt><trkpt lat="44.0108317" lon="3.619075"><ele>586.0</ele><time>2026-04-11T18:08:49.015Z</time></trkpt><trkpt lat="44.0108177" lon="3.6189817"><ele>591.0</ele><time>2026-04-11T18:08:50.015Z</time></trkpt><trkpt lat="44.010804" lon="3.6188889"><ele>596.0</ele><time>2026-04-11T18:08:51.016Z</time></trkpt><trkpt lat="44.0107984" lon="3.6187941"><ele>601.0</ele><time>2026-04-11T18:08:52.015Z</time></trkpt><trkpt lat="44.0107936" lon="3.6187036"><ele>606.0</ele><time>2026-04-11T18:08:53.015Z</time></trkpt><trkpt lat="44.0107838" lon="3.6186069"><ele>611.0</ele><time>2026-04-11T18:08:54.016Z</time></trkpt><trkpt lat="44.0107764" lon="3.6185094"><ele>616.0</ele><time>2026-04-11T18:08:55.015Z</time></trkpt><trkpt lat="44.0107699" lon="3.6184154"><ele>616.5714285714286</ele><time>2026-04-11T18:08:56.016Z</time></trkpt><trkpt lat="44.0107619" lon="3.6183261"><ele>617.1428571428571</ele><time>2026-04-11T18:08:57.015Z</time></trkpt><trkpt lat="44.0107565" lon="3.618236"><ele>617.7142857142858</ele><time>2026-04-11T18:08:58.015Z</time></trkpt><trkpt lat="44.0107445" lon="3.6181394"><ele>618.2857142857142</ele><time>2026-04-11T18:08:59.015Z</time></trkpt><trkpt lat="44.0107295" lon="3.6180458"><ele>618.8571428571429</ele><time>2026-04-11T18:09:00.015Z</time></trkpt><trkpt lat="44.0107172" lon="3.6179589"><ele>619.4285714285714</ele><time>2026-04-11T18:09:01.016Z</time></trkpt><trkpt lat="44.0106993" lon="3.6178685"><ele>620.0</ele><time>2026-04-11T18:09:02.015Z</time></trkpt><trkpt lat="44.0106752" lon="3.6177685"><ele>618.5</ele><time>2026-04-11T18:09:03.016Z</time></trkpt><trkpt lat="44.0106511" lon="3.6176773"><ele>617.0</ele><time>2026-04-11T18:09:04.015Z</time></trkpt><trkpt lat="44.0106305" lon="3.6175807"><ele>615.5</ele><time>2026-04-11T18:09:05.016Z</time></trkpt><trkpt lat="44.0106113" lon="3.6174867"><ele>614.0</ele><time>2026-04-11T18:09:06.015Z</time></trkpt><trkpt lat="44.0105961" lon="3.6174008"><ele>612.5</ele><time>2026-04-11T18:09:07.015Z</time></trkpt><trkpt lat="44.0105746" lon="3.6172329"><ele>611.0</ele><time>2026-04-11T18:09:09.016Z</time></trkpt><trkpt lat="44.0105601" lon="3.6171429"><ele>611.0000000000001</ele><time>2026-04-11T18:09:10.015Z</time></trkpt><trkpt lat="44.0105408" lon="3.6170569"><ele>611.0</ele><time>2026-04-11T18:09:11.015Z</time></trkpt><trkpt lat="44.0105146" lon="3.6169695"><ele>611.0</ele><time>2026-04-11T18:09:12.015Z</time></trkpt><trkpt lat="44.0104785" lon="3.6168821"><ele>611.0</ele><time>2026-04-11T18:09:13.015Z</time></trkpt><trkpt lat="44.0104396" lon="3.6167822"><ele>611.0</ele><time>2026-04-11T18:09:14.015Z</time></trkpt><trkpt lat="44.0103966" lon="3.6166834"><ele>611.0000000000001</ele><time>2026-04-11T18:09:15.015Z</time></trkpt><trkpt lat="44.0103616" lon="3.6166056"><ele>611.0</ele><time>2026-04-11T18:09:16.015Z</time></trkpt><trkpt lat="44.0103025" lon="3.6164797"><ele>608.3333333333333</ele><time>2026-04-11T18:09:18.015Z</time></trkpt><trkpt lat="44.0102282" lon="3.6163656"><ele>605.6666666666666</ele><time>2026-04-11T18:09:20.015Z</time></trkpt><trkpt lat="44.0101469" lon="3.6162927"><ele>603.0</ele><time>2026-04-11T18:09:22.015Z</time></trkpt><trkpt lat="44.0100613" lon="3.6162389"><ele>600.3333333333334</ele><time>2026-04-11T18:09:24.015Z</time></trkpt><trkpt lat="44.009997" lon="3.6162434"><ele>597.6666666666667</ele><time>2026-04-11T18:09:25.016Z</time></trkpt><trkpt lat="44.0099217" lon="3.6162531"><ele>595.0</ele><time>2026-04-11T18:09:26.015Z</time></trkpt><trkpt lat="44.0098447" lon="3.6162699"><ele>595.0</ele><time>2026-04-11T18:09:27.016Z</time></trkpt><trkpt lat="44.0097757" lon="3.6162798"><ele>595.0</ele><time>2026-04-11T18:09:28.016Z</time></trkpt><trkpt lat="44.0097109" lon="3.6162912"><ele>595.0</ele><time>2026-04-11T18:09:29.015Z</time></trkpt><trkpt lat="44.0095962" lon="3.6162844"><ele>595.0</ele><time>2026-04-11T18:09:31.016Z</time></trkpt><trkpt lat="44.0094684" lon="3.6162931"><ele>595.0</ele><time>2026-04-11T18:09:33.015Z</time></trkpt><trkpt lat="44.0093973" lon="3.6162869"><ele>595.0</ele><time>2026-04-11T18:09:34.015Z</time></trkpt><trkpt lat="44.00933" lon="3.616279"><ele>595.0</ele><time>2026-04-11T18:09:35.015Z</time></trkpt><trkpt lat="44.009265" lon="3.6162747"><ele>595.0</ele><time>2026-04-11T18:09:36.016Z</time></trkpt><trkpt lat="44.0091417" lon="3.6162708"><ele>595.0</ele><time>2026-04-11T18:09:38.015Z</time></trkpt><trkpt lat="44.0090281" lon="3.6162786"><ele>595.0</ele><time>2026-04-11T18:09:40.015Z</time></trkpt><trkpt lat="44.0089133" lon="3.6162323"><ele>595.0</ele><time>2026-04-11T18:09:42.015Z</time></trkpt><trkpt lat="44.0088046" lon="3.6161351"><ele>594.0</ele><time>2026-04-11T18:09:44.015Z</time></trkpt><trkpt lat="44.0087382" lon="3.6160876"><ele>593.0</ele><time>2026-04-11T18:09:45.016Z</time></trkpt><trkpt lat="44.0086848" lon="3.616031"><ele>592.0</ele><time>2026-04-11T18:09:46.015Z</time></trkpt><trkpt lat="44.0086345" lon="3.6159683"><ele>591.0</ele><time>2026-04-11T18:09:47.016Z</time></trkpt><trkpt lat="44.0085799" lon="3.615891"><ele>590.0</ele><time>2026-04-11T18:09:48.015Z</time></trkpt><trkpt lat="44.0085385" lon="3.6158227"><ele>589.0</ele><time>2026-04-11T18:09:49.015Z</time></trkpt><trkpt lat="44.0084958" lon="3.6157045"><ele>588.0</ele><time>2026-04-11T18:09:51.016Z</time></trkpt><trkpt lat="44.008469" lon="3.6156198"><ele>588.0</ele><time>2026-04-11T18:09:52.016Z</time></trkpt><trkpt lat="44.0084323" lon="3.6155391"><ele>588.0</ele><time>2026-04-11T18:09:53.016Z</time></trkpt><trkpt lat="44.0084027" lon="3.6154477"><ele>588.0</ele><time>2026-04-11T18:09:54.015Z</time></trkpt><trkpt lat="44.0083857" lon="3.6153412"><ele>588.0</ele><time>2026-04-11T18:09:55.015Z</time></trkpt><trkpt lat="44.0083758" lon="3.6152489"><ele>588.0</ele><time>2026-04-11T18:09:56.016Z</time></trkpt><trkpt lat="44.0083664" lon="3.6151538"><ele>588.0</ele><time>2026-04-11T18:09:57.016Z</time></trkpt><trkpt lat="44.0083608" lon="3.6150627"><ele>588.0</ele><time>2026-04-11T18:09:58.015Z</time></trkpt><trkpt lat="44.0083542" lon="3.6148874"><ele>587.1666666666666</ele><time>2026-04-11T18:10:00.015Z</time></trkpt><trkpt lat="44.008355" lon="3.6147921"><ele>586.3333333333334</ele><time>2026-04-11T18:10:01.015Z</time></trkpt><trkpt lat="44.0083434" lon="3.6146924"><ele>585.5</ele><time>2026-04-11T18:10:02.016Z</time></trkpt><trkpt lat="44.0083314" lon="3.614595"><ele>584.6666666666667</ele><time>2026-04-11T18:10:03.015Z</time></trkpt><trkpt lat="44.0083171" lon="3.6144942"><ele>583.8333333333334</ele><time>2026-04-11T18:10:04.015Z</time></trkpt><trkpt lat="44.0082872" lon="3.6143885"><ele>583.0</ele><time>2026-04-11T18:10:05.015Z</time></trkpt><trkpt lat="44.0082679" lon="3.6142725"><ele>585.6</ele><time>2026-04-11T18:10:06.015Z</time></trkpt><trkpt lat="44.0082397" lon="3.6141653"><ele>588.1999999999999</ele><time>2026-04-11T18:10:07.015Z</time></trkpt><trkpt lat="44.0082121" lon="3.6140667"><ele>590.8</ele><time>2026-04-11T18:10:08.015Z</time></trkpt><trkpt lat="44.0081797" lon="3.6139789"><ele>593.4</ele><time>2026-04-11T18:10:09.016Z</time></trkpt><trkpt lat="44.0081244" lon="3.6138447"><ele>596.0</ele><time>2026-04-11T18:10:11.015Z</time></trkpt><trkpt lat="44.0080501" lon="3.6136918"><ele>593.8333333333333</ele><time>2026-04-11T18:10:13.015Z</time></trkpt><trkpt lat="44.0080072" lon="3.6135927"><ele>591.6666666666666</ele><time>2026-04-11T18:10:14.016Z</time></trkpt><trkpt lat="44.0079596" lon="3.613499"><ele>589.5</ele><time>2026-04-11T18:10:15.016Z</time></trkpt><trkpt lat="44.0079109" lon="3.6134071"><ele>587.3333333333334</ele><time>2026-04-11T18:10:16.016Z</time></trkpt><trkpt lat="44.007864" lon="3.61333"><ele>585.1666666666667</ele><time>2026-04-11T18:10:17.016Z</time></trkpt><trkpt lat="44.0078221" lon="3.6132578"><ele>583.0</ele><time>2026-04-11T18:10:18.015Z</time></trkpt><trkpt lat="44.0077542" lon="3.6131256"><ele>583.0</ele><time>2026-04-11T18:10:20.016Z</time></trkpt><trkpt lat="44.0076957" lon="3.6129896"><ele>583.0</ele><time>2026-04-11T18:10:22.016Z</time></trkpt><trkpt lat="44.0076875" lon="3.6128288"><ele>583.0</ele><time>2026-04-11T18:10:24.015Z</time></trkpt><trkpt lat="44.0076987" lon="3.6127376"><ele>583.0</ele><time>2026-04-11T18:10:25.015Z</time></trkpt><trkpt lat="44.0077376" lon="3.6126539"><ele>583.0</ele><time>2026-04-11T18:10:26.015Z</time></trkpt><trkpt lat="44.0078099" lon="3.6125028"><ele>581.0000000000001</ele><time>2026-04-11T18:10:28.016Z</time></trkpt><trkpt lat="44.0078503" lon="3.6124353"><ele>579.0</ele><time>2026-04-11T18:10:29.015Z</time></trkpt><trkpt lat="44.0078974" lon="3.6123673"><ele>577.0</ele><time>2026-04-11T18:10:30.015Z</time></trkpt><trkpt lat="44.0079413" lon="3.6122977"><ele>575.0</ele><time>2026-04-11T18:10:31.015Z</time></trkpt><trkpt lat="44.007983" lon="3.6122274"><ele>573.0</ele><time>2026-04-11T18:10:32.015Z</time></trkpt><trkpt lat="44.0080299" lon="3.6121578"><ele>571.0000000000001</ele><time>2026-04-11T18:10:33.015Z</time></trkpt><trkpt lat="44.0080776" lon="3.6120926"><ele>569.0</ele><time>2026-04-11T18:10:34.016Z</time></trkpt><trkpt lat="44.0081208" lon="3.6120233"><ele>567.25</ele><time>2026-04-11T18:10:35.015Z</time></trkpt><trkpt lat="44.00819" lon="3.6118938"><ele>565.5</ele><time>2026-04-11T18:10:37.015Z</time></trkpt><trkpt lat="44.0082424" lon="3.6117487"><ele>563.75</ele><time>2026-04-11T18:10:39.016Z</time></trkpt><trkpt lat="44.0082603" lon="3.6115866"><ele>562.0</ele><time>2026-04-11T18:10:41.016Z</time></trkpt><trkpt lat="44.0082225" lon="3.6114141"><ele>562.0</ele><time>2026-04-11T18:10:43.016Z</time></trkpt><trkpt lat="44.0082052" lon="3.6113287"><ele>562.0</ele><time>2026-04-11T18:10:44.016Z</time></trkpt><trkpt lat="44.0081889" lon="3.6112228"><ele>562.0</ele><time>2026-04-11T18:10:45.015Z</time></trkpt><trkpt lat="44.0081906" lon="3.6111123"><ele>562.0</ele><time>2026-04-11T18:10:46.015Z</time></trkpt><trkpt lat="44.008217" lon="3.6109657"><ele>562.0</ele><time>2026-04-11T18:10:48.015Z</time></trkpt><trkpt lat="44.0082742" lon="3.6108775"><ele>562.0</ele><time>2026-04-11T18:10:50.016Z</time></trkpt><trkpt lat="44.008364" lon="3.6108411"><ele>562.8000000000001</ele><time>2026-04-11T18:10:52.015Z</time></trkpt><trkpt lat="44.0084534" lon="3.6108177"><ele>563.6</ele><time>2026-04-11T18:10:54.015Z</time></trkpt><trkpt lat="44.0085502" lon="3.6107693"><ele>564.4000000000001</ele><time>2026-04-11T18:10:56.015Z</time></trkpt><trkpt lat="44.0086074" lon="3.6107189"><ele>565.2</ele><time>2026-04-11T18:10:57.015Z</time></trkpt><trkpt lat="44.0086601" lon="3.6106475"><ele>566.0</ele><time>2026-04-11T18:10:58.015Z</time></trkpt><trkpt lat="44.0087508" lon="3.610533"><ele>566.0</ele><time>2026-04-11T18:11:00.016Z</time></trkpt><trkpt lat="44.0088308" lon="3.6104281"><ele>566.0</ele><time>2026-04-11T18:11:02.015Z</time></trkpt><trkpt lat="44.0088939" lon="3.6102977"><ele>566.0</ele><time>2026-04-11T18:11:04.015Z</time></trkpt><trkpt lat="44.0089363" lon="3.6101593"><ele>566.0</ele><time>2026-04-11T18:11:06.015Z</time></trkpt><trkpt lat="44.0089284" lon="3.6099896"><ele>564.8</ele><time>2026-04-11T18:11:08.015Z</time></trkpt><trkpt lat="44.0088994" lon="3.6098696"><ele>563.6</ele><time>2026-04-11T18:11:10.015Z</time></trkpt><trkpt lat="44.0088634" lon="3.6097635"><ele>562.4</ele><time>2026-04-11T18:11:12.015Z</time></trkpt><trkpt lat="44.0088255" lon="3.6096341"><ele>561.2</ele><time>2026-04-11T18:11:14.015Z</time></trkpt><trkpt lat="44.0087784" lon="3.609497"><ele>560.0</ele><time>2026-04-11T18:11:16.015Z</time></trkpt><trkpt lat="44.00869" lon="3.609388"><ele>559.0</ele><time>2026-04-11T18:11:18.016Z</time></trkpt><trkpt lat="44.0086014" lon="3.6093027"><ele>558.0</ele><time>2026-04-11T18:11:20.015Z</time></trkpt><trkpt lat="44.0085284" lon="3.6092575"><ele>557.0</ele><time>2026-04-11T18:11:22.015Z</time></trkpt><trkpt lat="44.0084556" lon="3.6092524"><ele>556.0</ele><time>2026-04-11T18:11:25.016Z</time></trkpt><trkpt lat="44.0083558" lon="3.6093126"><ele>555.0</ele><time>2026-04-11T18:11:47.015Z</time></trkpt><trkpt lat="44.0082726" lon="3.6094625"><ele>550.25</ele><time>2026-04-11T18:11:49.015Z</time></trkpt><trkpt lat="44.0082171" lon="3.6095722"><ele>545.5</ele><time>2026-04-11T18:11:50.016Z</time></trkpt><trkpt lat="44.0081505" lon="3.6097127"><ele>540.75</ele><time>2026-04-11T18:11:51.015Z</time></trkpt><trkpt lat="44.0080724" lon="3.6098668"><ele>536.0</ele><time>2026-04-11T18:11:52.015Z</time></trkpt><trkpt lat="44.0079867" lon="3.6100368"><ele>536.0</ele><time>2026-04-11T18:11:53.016Z</time></trkpt><trkpt lat="44.0078987" lon="3.6101919"><ele>536.0</ele><time>2026-04-11T18:11:54.016Z</time></trkpt><trkpt lat="44.0078241" lon="3.6103257"><ele>536.0</ele><time>2026-04-11T18:11:55.015Z</time></trkpt><trkpt lat="44.0077482" lon="3.6104638"><ele>536.0</ele><time>2026-04-11T18:11:56.016Z</time></trkpt><trkpt lat="44.007662" lon="3.6105796"><ele>534.5</ele><time>2026-04-11T18:11:57.015Z</time></trkpt><trkpt lat="44.0075614" lon="3.6106705"><ele>533.0</ele><time>2026-04-11T18:11:58.016Z</time></trkpt><trkpt lat="44.0074529" lon="3.6107446"><ele>531.5</ele><time>2026-04-11T18:11:59.016Z</time></trkpt><trkpt lat="44.0073445" lon="3.6108184"><ele>530.0</ele><time>2026-04-11T18:12:00.015Z</time></trkpt><trkpt lat="44.0072429" lon="3.6109025"><ele>530.0</ele><time>2026-04-11T18:12:01.015Z</time></trkpt><trkpt lat="44.007165" lon="3.6110079"><ele>530.0</ele><time>2026-04-11T18:12:02.015Z</time></trkpt><trkpt lat="44.0071092" lon="3.6111432"><ele>530.0</ele><time>2026-04-11T18:12:03.015Z</time></trkpt><trkpt lat="44.0070674" lon="3.6112647"><ele>530.0</ele><time>2026-04-11T18:12:04.015Z</time></trkpt><trkpt lat="44.0070156" lon="3.6113511"><ele>530.0</ele><time>2026-04-11T18:12:05.015Z</time></trkpt><trkpt lat="44.006903" lon="3.6113856"><ele>530.0</ele><time>2026-04-11T18:12:07.015Z</time></trkpt><trkpt lat="44.0068321" lon="3.6113198"><ele>530.0</ele><time>2026-04-11T18:12:08.015Z</time></trkpt><trkpt lat="44.0068025" lon="3.6112256"><ele>530.0</ele><time>2026-04-11T18:12:09.015Z</time></trkpt><trkpt lat="44.0067993" lon="3.6111179"><ele>530.0</ele><time>2026-04-11T18:12:10.016Z</time></trkpt><trkpt lat="44.0068303" lon="3.6110184"><ele>530.0</ele><time>2026-04-11T18:12:11.015Z</time></trkpt><trkpt lat="44.0068901" lon="3.6109428"><ele>530.0</ele><time>2026-04-11T18:12:12.016Z</time></trkpt><trkpt lat="44.0069433" lon="3.6108659"><ele>530.0</ele><time>2026-04-11T18:12:13.015Z</time></trkpt><trkpt lat="44.0070014" lon="3.6108003"><ele>530.0</ele><time>2026-04-11T18:12:14.015Z</time></trkpt><trkpt lat="44.0070652" lon="3.6107381"><ele>530.0</ele><time>2026-04-11T18:12:15.015Z</time></trkpt><trkpt lat="44.0071349" lon="3.6106776"><ele>530.0</ele><time>2026-04-11T18:12:16.015Z</time></trkpt><trkpt lat="44.0072038" lon="3.6106126"><ele>530.0</ele><time>2026-04-11T18:12:17.015Z</time></trkpt><trkpt lat="44.0072806" lon="3.6105364"><ele>530.0</ele><time>2026-04-11T18:12:18.015Z</time></trkpt><trkpt lat="44.0073683" lon="3.6104519"><ele>530.0</ele><time>2026-04-11T18:12:19.015Z</time></trkpt><trkpt lat="44.0074571" lon="3.6103515"><ele>530.0</ele><time>2026-04-11T18:12:20.015Z</time></trkpt><trkpt lat="44.0075351" lon="3.6102439"><ele>530.0</ele><time>2026-04-11T18:12:21.016Z</time></trkpt><trkpt lat="44.0075998" lon="3.6101204"><ele>530.0</ele><time>2026-04-11T18:12:22.015Z</time></trkpt><trkpt lat="44.0076626" lon="3.6099959"><ele>530.0</ele><time>2026-04-11T18:12:23.015Z</time></trkpt><trkpt lat="44.0077085" lon="3.6098736"><ele>531.2</ele><time>2026-04-11T18:12:24.015Z</time></trkpt><trkpt lat="44.0077288" lon="3.6097446"><ele>532.4</ele><time>2026-04-11T18:12:25.016Z</time></trkpt><trkpt lat="44.0077196" lon="3.6096083"><ele>533.6</ele><time>2026-04-11T18:12:26.016Z</time></trkpt><trkpt lat="44.0076711" lon="3.6094966"><ele>534.8</ele><time>2026-04-11T18:12:27.015Z</time></trkpt><trkpt lat="44.0075998" lon="3.6094278"><ele>536.0</ele><time>2026-04-11T18:12:28.015Z</time></trkpt><trkpt lat="44.0075111" lon="3.6093821"><ele>533.25</ele><time>2026-04-11T18:12:29.015Z</time></trkpt><trkpt lat="44.0073936" lon="3.6093667"><ele>530.5</ele><time>2026-04-11T18:12:30.015Z</time></trkpt><trkpt lat="44.0072584" lon="3.6093744"><ele>527.75</ele><time>2026-04-11T18:12:31.016Z</time></trkpt><trkpt lat="44.0071289" lon="3.6093631"><ele>525.0</ele><time>2026-04-11T18:12:32.015Z</time></trkpt><trkpt lat="44.0070074" lon="3.6093156"><ele>525.0</ele><time>2026-04-11T18:12:33.015Z</time></trkpt><trkpt lat="44.0069106" lon="3.6092525"><ele>525.0</ele><time>2026-04-11T18:12:34.015Z</time></trkpt><trkpt lat="44.006818" lon="3.609151"><ele>525.0</ele><time>2026-04-11T18:12:35.016Z</time></trkpt><trkpt lat="44.0067368" lon="3.6089821"><ele>525.0</ele><time>2026-04-11T18:12:36.015Z</time></trkpt><trkpt lat="44.0066496" lon="3.6087986"><ele>520.0</ele><time>2026-04-11T18:12:37.015Z</time></trkpt><trkpt lat="44.0065366" lon="3.6086226"><ele>515.0</ele><time>2026-04-11T18:12:38.016Z</time></trkpt><trkpt lat="44.0064006" lon="3.6084854"><ele>510.0</ele><time>2026-04-11T18:12:39.015Z</time></trkpt><trkpt lat="44.0062642" lon="3.6083715"><ele>510.0</ele><time>2026-04-11T18:12:40.015Z</time></trkpt><trkpt lat="44.0061371" lon="3.6082644"><ele>510.0</ele><time>2026-04-11T18:12:41.015Z</time></trkpt><trkpt lat="44.0060249" lon="3.6081345"><ele>510.0</ele><time>2026-04-11T18:12:42.016Z</time></trkpt><trkpt lat="44.0059361" lon="3.6079857"><ele>510.0</ele><time>2026-04-11T18:12:43.016Z</time></trkpt><trkpt lat="44.0058548" lon="3.6078433"><ele>502.5</ele><time>2026-04-11T18:12:44.015Z</time></trkpt><trkpt lat="44.0057892" lon="3.6076986"><ele>495.0</ele><time>2026-04-11T18:12:45.015Z</time></trkpt><trkpt lat="44.0057358" lon="3.6075432"><ele>487.5</ele><time>2026-04-11T18:12:46.016Z</time></trkpt><trkpt lat="44.0056903" lon="3.6073944"><ele>480.0</ele><time>2026-04-11T18:12:47.015Z</time></trkpt><trkpt lat="44.0056713" lon="3.6072407"><ele>480.0</ele><time>2026-04-11T18:12:48.015Z</time></trkpt><trkpt lat="44.0056659" lon="3.6070826"><ele>480.0</ele><time>2026-04-11T18:12:49.015Z</time></trkpt><trkpt lat="44.0056574" lon="3.6069357"><ele>480.0</ele><time>2026-04-11T18:12:50.015Z</time></trkpt><trkpt lat="44.0056549" lon="3.6067904"><ele>480.0</ele><time>2026-04-11T18:12:51.015Z</time></trkpt><trkpt lat="44.0056416" lon="3.6066496"><ele>480.0</ele><time>2026-04-11T18:12:52.016Z</time></trkpt><trkpt lat="44.0055963" lon="3.6065151"><ele>482.5</ele><time>2026-04-11T18:12:53.016Z</time></trkpt><trkpt lat="44.0055401" lon="3.606379"><ele>485.0</ele><time>2026-04-11T18:12:54.015Z</time></trkpt><trkpt lat="44.0054592" lon="3.6062518"><ele>487.5</ele><time>2026-04-11T18:12:55.016Z</time></trkpt><trkpt lat="44.0053618" lon="3.6061036"><ele>490.0</ele><time>2026-04-11T18:12:56.015Z</time></trkpt><trkpt lat="44.0052386" lon="3.6059248"><ele>487.0</ele><time>2026-04-11T18:12:57.015Z</time></trkpt><trkpt lat="44.0051157" lon="3.6057435"><ele>484.0</ele><time>2026-04-11T18:12:58.015Z</time></trkpt><trkpt lat="44.0049838" lon="3.6055817"><ele>481.0</ele><time>2026-04-11T18:12:59.016Z</time></trkpt><trkpt lat="44.0048369" lon="3.6054239"><ele>489.33333333333337</ele><time>2026-04-11T18:13:00.015Z</time></trkpt><trkpt lat="44.0046788" lon="3.6052824"><ele>497.66666666666663</ele><time>2026-04-11T18:13:01.015Z</time></trkpt><trkpt lat="44.0045234" lon="3.6051622"><ele>506.0</ele><time>2026-04-11T18:13:02.016Z</time></trkpt><trkpt lat="44.0043677" lon="3.6050563"><ele>506.0</ele><time>2026-04-11T18:13:03.016Z</time></trkpt><trkpt lat="44.0042152" lon="3.6049462"><ele>506.0</ele><time>2026-04-11T18:13:04.015Z</time></trkpt><trkpt lat="44.0040768" lon="3.6048414"><ele>506.0</ele><time>2026-04-11T18:13:05.015Z</time></trkpt><trkpt lat="44.0039573" lon="3.6047435"><ele>500.25</ele><time>2026-04-11T18:13:06.015Z</time></trkpt><trkpt lat="44.0038391" lon="3.6046616"><ele>494.5</ele><time>2026-04-11T18:13:07.015Z</time></trkpt><trkpt lat="44.003723" lon="3.6046095"><ele>488.75</ele><time>2026-04-11T18:13:08.015Z</time></trkpt><trkpt lat="44.0035932" lon="3.6046285"><ele>483.0</ele><time>2026-04-11T18:13:09.015Z</time></trkpt><trkpt lat="44.0034676" lon="3.604636"><ele>483.0</ele><time>2026-04-11T18:13:10.015Z</time></trkpt><trkpt lat="44.0033346" lon="3.6046301"><ele>483.0</ele><time>2026-04-11T18:13:11.016Z</time></trkpt><trkpt lat="44.0031815" lon="3.6046004"><ele>483.0</ele><time>2026-04-11T18:13:12.015Z</time></trkpt><trkpt lat="44.0030136" lon="3.6045577"><ele>481.25</ele><time>2026-04-11T18:13:13.015Z</time></trkpt><trkpt lat="44.0028476" lon="3.6045225"><ele>479.5</ele><time>2026-04-11T18:13:14.015Z</time></trkpt><trkpt lat="44.0027126" lon="3.6044708"><ele>477.75</ele><time>2026-04-11T18:13:15.015Z</time></trkpt><trkpt lat="44.0025907" lon="3.604393"><ele>476.0</ele><time>2026-04-11T18:13:16.016Z</time></trkpt><trkpt lat="44.0024831" lon="3.6043082"><ele>476.0</ele><time>2026-04-11T18:13:17.016Z</time></trkpt><trkpt lat="44.0023924" lon="3.6041881"><ele>476.0</ele><time>2026-04-11T18:13:18.015Z</time></trkpt><trkpt lat="44.0023251" lon="3.6040298"><ele>476.0</ele><time>2026-04-11T18:13:19.016Z</time></trkpt><trkpt lat="44.0022534" lon="3.603857"><ele>476.0</ele><time>2026-04-11T18:13:20.015Z</time></trkpt><trkpt lat="44.0021853" lon="3.6036959"><ele>479.25</ele><time>2026-04-11T18:13:21.016Z</time></trkpt><trkpt lat="44.0021107" lon="3.6035529"><ele>482.5</ele><time>2026-04-11T18:13:22.015Z</time></trkpt><trkpt lat="44.0020121" lon="3.6034485"><ele>485.75</ele><time>2026-04-11T18:13:23.015Z</time></trkpt><trkpt lat="44.0019005" lon="3.603374"><ele>489.0</ele><time>2026-04-11T18:13:24.015Z</time></trkpt><trkpt lat="44.0017717" lon="3.603342"><ele>485.5</ele><time>2026-04-11T18:13:25.015Z</time></trkpt><trkpt lat="44.0016266" lon="3.6033288"><ele>482.0</ele><time>2026-04-11T18:13:26.016Z</time></trkpt><trkpt lat="44.001502" lon="3.6032948"><ele>478.5</ele><time>2026-04-11T18:13:27.016Z</time></trkpt><trkpt lat="44.0013959" lon="3.6032161"><ele>475.0</ele><time>2026-04-11T18:13:28.015Z</time></trkpt><trkpt lat="44.0012881" lon="3.6031197"><ele>475.0</ele><time>2026-04-11T18:13:29.015Z</time></trkpt><trkpt lat="44.0011724" lon="3.6030055"><ele>475.0</ele><time>2026-04-11T18:13:30.015Z</time></trkpt><trkpt lat="44.0010595" lon="3.6028846"><ele>475.0</ele><time>2026-04-11T18:13:31.015Z</time></trkpt><trkpt lat="44.0009529" lon="3.6027587"><ele>475.0</ele><time>2026-04-11T18:13:32.016Z</time></trkpt><trkpt lat="44.0008655" lon="3.6026147"><ele>468.25</ele><time>2026-04-11T18:13:33.016Z</time></trkpt><trkpt lat="44.0007959" lon="3.6024662"><ele>461.5</ele><time>2026-04-11T18:13:34.016Z</time></trkpt><trkpt lat="44.000745" lon="3.6023059"><ele>454.75</ele><time>2026-04-11T18:13:35.015Z</time></trkpt><trkpt lat="44.0007252" lon="3.6021354"><ele>448.0</ele><time>2026-04-11T18:13:36.015Z</time></trkpt><trkpt lat="44.0007263" lon="3.601957"><ele>446.0</ele><time>2026-04-11T18:13:37.015Z</time></trkpt><trkpt lat="44.0007252" lon="3.6017449"><ele>444.0</ele><time>2026-04-11T18:13:38.015Z</time></trkpt><trkpt lat="44.0007199" lon="3.6014986"><ele>442.0</ele><time>2026-04-11T18:13:39.016Z</time></trkpt><trkpt lat="44.0007074" lon="3.6012379"><ele>443.6666666666667</ele><time>2026-04-11T18:13:40.016Z</time></trkpt><trkpt lat="44.0006889" lon="3.6009692"><ele>445.33333333333337</ele><time>2026-04-11T18:13:41.015Z</time></trkpt><trkpt lat="44.00067" lon="3.6007218"><ele>447.0</ele><time>2026-04-11T18:13:42.015Z</time></trkpt><trkpt lat="44.0006559" lon="3.6005042"><ele>447.0</ele><time>2026-04-11T18:13:43.016Z</time></trkpt><trkpt lat="44.0006424" lon="3.6003389"><ele>447.00000000000006</ele><time>2026-04-11T18:13:44.015Z</time></trkpt><trkpt lat="44.0006189" lon="3.6001989"><ele>447.00000000000006</ele><time>2026-04-11T18:13:45.016Z</time></trkpt><trkpt lat="44.0005732" lon="3.6000832"><ele>447.0</ele><time>2026-04-11T18:13:46.016Z</time></trkpt><trkpt lat="44.0004996" lon="3.5999964"><ele>447.0</ele><time>2026-04-11T18:13:47.015Z</time></trkpt><trkpt lat="44.0003829" lon="3.5999515"><ele>453.66666666666663</ele><time>2026-04-11T18:13:48.015Z</time></trkpt><trkpt lat="44.0002363" lon="3.5999219"><ele>460.3333333333333</ele><time>2026-04-11T18:13:49.016Z</time></trkpt><trkpt lat="44.0000873" lon="3.5998833"><ele>467.0</ele><time>2026-04-11T18:13:50.015Z</time></trkpt><trkpt lat="43.9999352" lon="3.5998562"><ele>467.0</ele><time>2026-04-11T18:13:51.016Z</time></trkpt><trkpt lat="43.9997611" lon="3.5998355"><ele>467.0</ele><time>2026-04-11T18:13:52.015Z</time></trkpt><trkpt lat="43.9995849" lon="3.5998133"><ele>467.0</ele><time>2026-04-11T18:13:53.015Z</time></trkpt><trkpt lat="43.9994161" lon="3.5998176"><ele>467.0</ele><time>2026-04-11T18:13:54.015Z</time></trkpt><trkpt lat="43.9992601" lon="3.5998309"><ele>467.0</ele><time>2026-04-11T18:13:55.016Z</time></trkpt><trkpt lat="43.9991028" lon="3.5998765"><ele>467.0</ele><time>2026-04-11T18:13:56.016Z</time></trkpt><trkpt lat="43.9989569" lon="3.599918"><ele>465.5</ele><time>2026-04-11T18:13:57.015Z</time></trkpt><trkpt lat="43.998825" lon="3.5999418"><ele>464.0</ele><time>2026-04-11T18:13:58.015Z</time></trkpt><trkpt lat="43.9986875" lon="3.5999573"><ele>462.5</ele><time>2026-04-11T18:13:59.016Z</time></trkpt><trkpt lat="43.9985486" lon="3.5999509"><ele>461.0</ele><time>2026-04-11T18:14:00.016Z</time></trkpt><trkpt lat="43.9984014" lon="3.5999225"><ele>459.0</ele><time>2026-04-11T18:14:01.015Z</time></trkpt><trkpt lat="43.9982537" lon="3.59989"><ele>457.0</ele><time>2026-04-11T18:14:02.015Z</time></trkpt><trkpt lat="43.9981068" lon="3.5998367"><ele>455.0</ele><time>2026-04-11T18:14:03.016Z</time></trkpt><trkpt lat="43.9979626" lon="3.5997733"><ele>455.0</ele><time>2026-04-11T18:14:04.015Z</time></trkpt><trkpt lat="43.997837" lon="3.5996986"><ele>455.0</ele><time>2026-04-11T18:14:05.015Z</time></trkpt><trkpt lat="43.9977199" lon="3.5995974"><ele>455.0</ele><time>2026-04-11T18:14:06.016Z</time></trkpt><trkpt lat="43.997616" lon="3.599487"><ele>455.0</ele><time>2026-04-11T18:14:07.016Z</time></trkpt><trkpt lat="43.9975285" lon="3.5993652"><ele>454.25</ele><time>2026-04-11T18:14:08.015Z</time></trkpt><trkpt lat="43.9974567" lon="3.5992272"><ele>453.5</ele><time>2026-04-11T18:14:09.016Z</time></trkpt><trkpt lat="43.9974129" lon="3.5990805"><ele>452.75</ele><time>2026-04-11T18:14:10.015Z</time></trkpt><trkpt lat="43.9973782" lon="3.5989351"><ele>452.0</ele><time>2026-04-11T18:14:11.015Z</time></trkpt><trkpt lat="43.997372" lon="3.5987925"><ele>451.5</ele><time>2026-04-11T18:14:12.015Z</time></trkpt><trkpt lat="43.9974022" lon="3.5986463"><ele>451.0</ele><time>2026-04-11T18:14:13.016Z</time></trkpt><trkpt lat="43.9974455" lon="3.5984785"><ele>450.5</ele><time>2026-04-11T18:14:14.015Z</time></trkpt><trkpt lat="43.9974894" lon="3.5982688"><ele>450.0</ele><time>2026-04-11T18:14:15.016Z</time></trkpt><trkpt lat="43.9975326" lon="3.5980493"><ele>461.33333333333337</ele><time>2026-04-11T18:14:16.016Z</time></trkpt><trkpt lat="43.9975775" lon="3.5978338"><ele>472.6666666666667</ele><time>2026-04-11T18:14:17.015Z</time></trkpt><trkpt lat="43.9976144" lon="3.5976236"><ele>484.0</ele><time>2026-04-11T18:14:18.015Z</time></trkpt><trkpt lat="43.9976401" lon="3.5974128"><ele>484.0</ele><time>2026-04-11T18:14:19.015Z</time></trkpt><trkpt lat="43.9976643" lon="3.597217"><ele>484.0</ele><time>2026-04-11T18:14:20.016Z</time></trkpt><trkpt lat="43.9976721" lon="3.5970471"><ele>484.0</ele><time>2026-04-11T18:14:21.015Z</time></trkpt><trkpt lat="43.9976533" lon="3.5969087"><ele>484.0</ele><time>2026-04-11T18:14:22.015Z</time></trkpt><trkpt lat="43.9976131" lon="3.596798"><ele>484.0</ele><time>2026-04-11T18:14:23.016Z</time></trkpt><trkpt lat="43.9975415" lon="3.5967101"><ele>484.0</ele><time>2026-04-11T18:14:24.015Z</time></trkpt><trkpt lat="43.9974476" lon="3.5966521"><ele>484.0</ele><time>2026-04-11T18:14:25.015Z</time></trkpt><trkpt lat="43.9973173" lon="3.5965865"><ele>484.0</ele><time>2026-04-11T18:14:26.015Z</time></trkpt><trkpt lat="43.9972114" lon="3.5965077"><ele>477.25</ele><time>2026-04-11T18:14:27.016Z</time></trkpt><trkpt lat="43.9971258" lon="3.5964153"><ele>470.5</ele><time>2026-04-11T18:14:28.016Z</time></trkpt><trkpt lat="43.9970561" lon="3.5962835"><ele>463.75</ele><time>2026-04-11T18:14:29.014Z</time></trkpt><trkpt lat="43.9970096" lon="3.5961323"><ele>457.0</ele><time>2026-04-11T18:14:30.014Z</time></trkpt><trkpt lat="43.9969724" lon="3.5959572"><ele>457.0</ele><time>2026-04-11T18:14:31.014Z</time></trkpt><trkpt lat="43.9969619" lon="3.595746"><ele>457.0</ele><time>2026-04-11T18:14:32.014Z</time></trkpt><trkpt lat="43.9969626" lon="3.5955218"><ele>457.0</ele><time>2026-04-11T18:14:33.015Z</time></trkpt><trkpt lat="43.9969721" lon="3.5952899"><ele>457.0</ele><time>2026-04-11T18:14:34.014Z</time></trkpt><trkpt lat="43.9969902" lon="3.5950535"><ele>457.0</ele><time>2026-04-11T18:14:35.015Z</time></trkpt><trkpt lat="43.9970058" lon="3.5948303"><ele>457.0</ele><time>2026-04-11T18:14:36.015Z</time></trkpt><trkpt lat="43.9970258" lon="3.5946156"><ele>455.0</ele><time>2026-04-11T18:14:37.015Z</time></trkpt><trkpt lat="43.9970489" lon="3.5944097"><ele>453.0</ele><time>2026-04-11T18:14:38.015Z</time></trkpt><trkpt lat="43.9970715" lon="3.5942091"><ele>451.0</ele><time>2026-04-11T18:14:39.014Z</time></trkpt><trkpt lat="43.9970967" lon="3.5940175"><ele>449.0</ele><time>2026-04-11T18:14:40.014Z</time></trkpt><trkpt lat="43.9971138" lon="3.593833"><ele>449.0</ele><time>2026-04-11T18:14:41.015Z</time></trkpt><trkpt lat="43.9971142" lon="3.5936808"><ele>449.0</ele><time>2026-04-11T18:14:42.015Z</time></trkpt><trkpt lat="43.9970859" lon="3.5935511"><ele>449.0</ele><time>2026-04-11T18:14:43.014Z</time></trkpt><trkpt lat="43.9970208" lon="3.593444"><ele>449.0</ele><time>2026-04-11T18:14:44.014Z</time></trkpt><trkpt lat="43.9969223" lon="3.5933669"><ele>449.0</ele><time>2026-04-11T18:14:45.014Z</time></trkpt><trkpt lat="43.996802" lon="3.5933132"><ele>439.66666666666663</ele><time>2026-04-11T18:14:46.015Z</time></trkpt><trkpt lat="43.9966572" lon="3.59326"><ele>430.33333333333337</ele><time>2026-04-11T18:14:47.014Z</time></trkpt><trkpt lat="43.9964965" lon="3.5932053"><ele>421.0</ele><time>2026-04-11T18:14:48.015Z</time></trkpt><trkpt lat="43.9963021" lon="3.5931558"><ele>421.0</ele><time>2026-04-11T18:14:49.015Z</time></trkpt><trkpt lat="43.9961117" lon="3.593102"><ele>421.0</ele><time>2026-04-11T18:14:50.015Z</time></trkpt><trkpt lat="43.9959264" lon="3.5930548"><ele>421.0</ele><time>2026-04-11T18:14:51.014Z</time></trkpt><trkpt lat="43.9957592" lon="3.5930133"><ele>417.25</ele><time>2026-04-11T18:14:52.015Z</time></trkpt><trkpt lat="43.9955999" lon="3.5929685"><ele>413.5</ele><time>2026-04-11T18:14:53.014Z</time></trkpt><trkpt lat="43.9954588" lon="3.5929295"><ele>409.75</ele><time>2026-04-11T18:14:54.014Z</time></trkpt><trkpt lat="43.9953206" lon="3.5929113"><ele>406.0</ele><time>2026-04-11T18:14:55.015Z</time></trkpt><trkpt lat="43.9952035" lon="3.5928804"><ele>406.00000000000006</ele><time>2026-04-11T18:14:56.014Z</time></trkpt><trkpt lat="43.9950967" lon="3.592845"><ele>406.0</ele><time>2026-04-11T18:14:57.014Z</time></trkpt><trkpt lat="43.9950122" lon="3.5927854"><ele>406.0</ele><time>2026-04-11T18:14:58.015Z</time></trkpt><trkpt lat="43.9949559" lon="3.5927134"><ele>406.0</ele><time>2026-04-11T18:14:59.014Z</time></trkpt><trkpt lat="43.9949041" lon="3.5926278"><ele>406.00000000000006</ele><time>2026-04-11T18:15:00.014Z</time></trkpt><trkpt lat="43.9948687" lon="3.5925257"><ele>406.0</ele><time>2026-04-11T18:15:01.015Z</time></trkpt><trkpt lat="43.9948353" lon="3.5924104"><ele>405.20000000000005</ele><time>2026-04-11T18:15:02.015Z</time></trkpt><trkpt lat="43.9948036" lon="3.5922991"><ele>404.40000000000003</ele><time>2026-04-11T18:15:03.014Z</time></trkpt><trkpt lat="43.9947463" lon="3.5921874"><ele>403.6</ele><time>2026-04-11T18:15:04.014Z</time></trkpt><trkpt lat="43.994655" lon="3.5921031"><ele>402.8</ele><time>2026-04-11T18:15:05.014Z</time></trkpt><trkpt lat="43.9945565" lon="3.5920223"><ele>402.0</ele><time>2026-04-11T18:15:06.014Z</time></trkpt><trkpt lat="43.9944266" lon="3.5919833"><ele>402.0</ele><time>2026-04-11T18:15:07.014Z</time></trkpt><trkpt lat="43.9942495" lon="3.5919799"><ele>402.0</ele><time>2026-04-11T18:15:08.014Z</time></trkpt><trkpt lat="43.9940266" lon="3.5919653"><ele>402.0</ele><time>2026-04-11T18:15:09.014Z</time></trkpt><trkpt lat="43.9937846" lon="3.5919484"><ele>399.33333333333337</ele><time>2026-04-11T18:15:10.014Z</time></trkpt><trkpt lat="43.9935683" lon="3.5919346"><ele>396.6666666666667</ele><time>2026-04-11T18:15:11.014Z</time></trkpt><trkpt lat="43.993348" lon="3.5919293"><ele>394.0</ele><time>2026-04-11T18:15:12.014Z</time></trkpt><trkpt lat="43.9931216" lon="3.5919285"><ele>394.0</ele><time>2026-04-11T18:15:13.014Z</time></trkpt><trkpt lat="43.9929038" lon="3.5919241"><ele>394.0</ele><time>2026-04-11T18:15:14.015Z</time></trkpt><trkpt lat="43.9926869" lon="3.591906"><ele>394.0</ele><time>2026-04-11T18:15:15.014Z</time></trkpt><trkpt lat="43.9924721" lon="3.5918552"><ele>394.33333333333337</ele><time>2026-04-11T18:15:16.014Z</time></trkpt><trkpt lat="43.9922581" lon="3.5917782"><ele>394.66666666666663</ele><time>2026-04-11T18:15:17.014Z</time></trkpt><trkpt lat="43.9920548" lon="3.5917018"><ele>395.0</ele><time>2026-04-11T18:15:18.014Z</time></trkpt><trkpt lat="43.9918497" lon="3.5916304"><ele>395.66666666666663</ele><time>2026-04-11T18:15:19.014Z</time></trkpt><trkpt lat="43.9916361" lon="3.5915966"><ele>396.33333333333337</ele><time>2026-04-11T18:15:20.014Z</time></trkpt><trkpt lat="43.9914092" lon="3.5915594"><ele>397.0</ele><time>2026-04-11T18:15:21.014Z</time></trkpt><trkpt lat="43.9911823" lon="3.5915332"><ele>397.0</ele><time>2026-04-11T18:15:22.014Z</time></trkpt><trkpt lat="43.9909436" lon="3.591511"><ele>397.0</ele><time>2026-04-11T18:15:23.014Z</time></trkpt><trkpt lat="43.9907005" lon="3.5915038"><ele>395.0</ele><time>2026-04-11T18:15:24.014Z</time></trkpt><trkpt lat="43.9904749" lon="3.5915066"><ele>393.0</ele><time>2026-04-11T18:15:25.014Z</time></trkpt><trkpt lat="43.9902656" lon="3.5914795"><ele>391.0</ele><time>2026-04-11T18:15:26.014Z</time></trkpt><trkpt lat="43.9900606" lon="3.5914479"><ele>388.6666666666667</ele><time>2026-04-11T18:15:27.015Z</time></trkpt><trkpt lat="43.9898861" lon="3.5914023"><ele>386.33333333333337</ele><time>2026-04-11T18:15:28.014Z</time></trkpt><trkpt lat="43.9897073" lon="3.5913301"><ele>384.0</ele><time>2026-04-11T18:15:29.014Z</time></trkpt><trkpt lat="43.9895355" lon="3.5912189"><ele>380.6666666666667</ele><time>2026-04-11T18:15:30.014Z</time></trkpt><trkpt lat="43.9893617" lon="3.5910759"><ele>377.33333333333337</ele><time>2026-04-11T18:15:31.014Z</time></trkpt><trkpt lat="43.9891928" lon="3.5909234"><ele>374.0</ele><time>2026-04-11T18:15:32.014Z</time></trkpt><trkpt lat="43.9890211" lon="3.5907897"><ele>374.0</ele><time>2026-04-11T18:15:33.015Z</time></trkpt><trkpt lat="43.9888318" lon="3.5906929"><ele>374.0</ele><time>2026-04-11T18:15:34.015Z</time></trkpt><trkpt lat="43.9886461" lon="3.5905931"><ele>374.0</ele><time>2026-04-11T18:15:35.015Z</time></trkpt><trkpt lat="43.988485" lon="3.5904888"><ele>375.6666666666667</ele><time>2026-04-11T18:15:36.014Z</time></trkpt><trkpt lat="43.9883398" lon="3.5903638"><ele>377.3333333333333</ele><time>2026-04-11T18:15:37.014Z</time></trkpt><trkpt lat="43.9881973" lon="3.5902587"><ele>379.0</ele><time>2026-04-11T18:15:38.014Z</time></trkpt><trkpt lat="43.9880504" lon="3.5901776"><ele>372.66666666666663</ele><time>2026-04-11T18:15:39.014Z</time></trkpt><trkpt lat="43.9878888" lon="3.5901373"><ele>366.3333333333333</ele><time>2026-04-11T18:15:40.015Z</time></trkpt><trkpt lat="43.9877239" lon="3.5901081"><ele>360.0</ele><time>2026-04-11T18:15:41.015Z</time></trkpt><trkpt lat="43.9875714" lon="3.5900302"><ele>363.3333333333333</ele><time>2026-04-11T18:15:42.014Z</time></trkpt><trkpt lat="43.9874434" lon="3.5899045"><ele>366.66666666666663</ele><time>2026-04-11T18:15:43.015Z</time></trkpt><trkpt lat="43.9873213" lon="3.5897457"><ele>370.0</ele><time>2026-04-11T18:15:44.014Z</time></trkpt><trkpt lat="43.9871849" lon="3.5896125"><ele>359.66666666666663</ele><time>2026-04-11T18:15:45.014Z</time></trkpt><trkpt lat="43.9870294" lon="3.589499"><ele>349.3333333333333</ele><time>2026-04-11T18:15:46.014Z</time></trkpt><trkpt lat="43.986868" lon="3.5894379"><ele>339.0</ele><time>2026-04-11T18:15:47.014Z</time></trkpt><trkpt lat="43.9867171" lon="3.5893723"><ele>343.25</ele><time>2026-04-11T18:15:48.014Z</time></trkpt><trkpt lat="43.9865809" lon="3.5892747"><ele>347.5</ele><time>2026-04-11T18:15:49.014Z</time></trkpt><trkpt lat="43.9864841" lon="3.5891728"><ele>351.75</ele><time>2026-04-11T18:15:50.014Z</time></trkpt><trkpt lat="43.9863882" lon="3.589"><ele>356.0</ele><time>2026-04-11T18:15:51.014Z</time></trkpt><trkpt lat="43.9863174" lon="3.5888245"><ele>349.6666666666667</ele><time>2026-04-11T18:15:52.015Z</time></trkpt><trkpt lat="43.9862668" lon="3.5886078"><ele>343.3333333333333</ele><time>2026-04-11T18:15:53.014Z</time></trkpt><trkpt lat="43.9862312" lon="3.5883941"><ele>337.0</ele><time>2026-04-11T18:15:54.015Z</time></trkpt><trkpt lat="43.9862223" lon="3.5881793"><ele>337.0</ele><time>2026-04-11T18:15:55.014Z</time></trkpt><trkpt lat="43.9861965" lon="3.5879975"><ele>337.0</ele><time>2026-04-11T18:15:56.014Z</time></trkpt><trkpt lat="43.9861122" lon="3.5878473"><ele>337.0</ele><time>2026-04-11T18:15:57.014Z</time></trkpt><trkpt lat="43.9859999" lon="3.5877511"><ele>337.0</ele><time>2026-04-11T18:15:58.014Z</time></trkpt><trkpt lat="43.985882" lon="3.5876524"><ele>340.0</ele><time>2026-04-11T18:15:59.014Z</time></trkpt><trkpt lat="43.9857534" lon="3.5875701"><ele>343.0</ele><time>2026-04-11T18:16:00.014Z</time></trkpt><trkpt lat="43.9855979" lon="3.5874918"><ele>346.0</ele><time>2026-04-11T18:16:01.014Z</time></trkpt><trkpt lat="43.98543" lon="3.5874294"><ele>346.0</ele><time>2026-04-11T18:16:02.014Z</time></trkpt><trkpt lat="43.9852557" lon="3.5873611"><ele>346.0</ele><time>2026-04-11T18:16:03.015Z</time></trkpt><trkpt lat="43.9850602" lon="3.5873246"><ele>346.0</ele><time>2026-04-11T18:16:04.014Z</time></trkpt><trkpt lat="43.9848494" lon="3.5873285"><ele>349.66666666666663</ele><time>2026-04-11T18:16:05.014Z</time></trkpt><trkpt lat="43.9846413" lon="3.5873699"><ele>353.3333333333333</ele><time>2026-04-11T18:16:06.015Z</time></trkpt><trkpt lat="43.9844503" lon="3.5874381"><ele>357.0</ele><time>2026-04-11T18:16:07.014Z</time></trkpt><trkpt lat="43.9842735" lon="3.5875355"><ele>360.6666666666667</ele><time>2026-04-11T18:16:08.014Z</time></trkpt><trkpt lat="43.9841203" lon="3.5876701"><ele>364.33333333333337</ele><time>2026-04-11T18:16:09.015Z</time></trkpt><trkpt lat="43.9840017" lon="3.5878354"><ele>368.0</ele><time>2026-04-11T18:16:10.014Z</time></trkpt><trkpt lat="43.9839159" lon="3.5880146"><ele>368.0</ele><time>2026-04-11T18:16:11.014Z</time></trkpt><trkpt lat="43.9838273" lon="3.5881908"><ele>368.0</ele><time>2026-04-11T18:16:12.015Z</time></trkpt><trkpt lat="43.9837532" lon="3.588314"><ele>368.0</ele><time>2026-04-11T18:16:13.015Z</time></trkpt><trkpt lat="43.9836902" lon="3.5884053"><ele>368.0</ele><time>2026-04-11T18:16:14.015Z</time></trkpt><trkpt lat="43.9836379" lon="3.5884628"><ele>368.0</ele><time>2026-04-11T18:16:15.014Z</time></trkpt><trkpt lat="43.9835807" lon="3.5885042"><ele>368.0</ele><time>2026-04-11T18:16:16.014Z</time></trkpt><trkpt lat="43.9835224" lon="3.5886277"><ele>368.0</ele><time>2026-04-11T18:16:18.014Z</time></trkpt><trkpt lat="43.9834756" lon="3.5887709"><ele>368.0</ele><time>2026-04-11T18:16:20.015Z</time></trkpt><trkpt lat="43.983432" lon="3.5888408"><ele>368.0</ele><time>2026-04-11T18:16:21.014Z</time></trkpt><trkpt lat="43.9833787" lon="3.5888967"><ele>368.0</ele><time>2026-04-11T18:16:22.014Z</time></trkpt><trkpt lat="43.983323" lon="3.5889709"><ele>368.0</ele><time>2026-04-11T18:16:24.015Z</time></trkpt><trkpt lat="43.9832469" lon="3.5890204"><ele>365.0</ele><time>2026-04-11T18:17:08.015Z</time></trkpt><trkpt lat="43.9831719" lon="3.5890479"><ele>362.0</ele><time>2026-04-11T18:17:10.014Z</time></trkpt><trkpt lat="43.9830902" lon="3.5890546"><ele>359.0</ele><time>2026-04-11T18:17:12.015Z</time></trkpt><trkpt lat="43.9830047" lon="3.5890681"><ele>356.0</ele><time>2026-04-11T18:17:14.014Z</time></trkpt><trkpt lat="43.9829407" lon="3.589101"><ele>353.0</ele><time>2026-04-11T18:17:16.014Z</time></trkpt><trkpt lat="43.9830074" lon="3.5890715"><ele>350.0</ele><time>2026-04-11T18:19:24.015Z</time></trkpt><trkpt lat="43.9830742" lon="3.589078"><ele>350.0</ele><time>2026-04-11T18:19:29.015Z</time></trkpt></trkseg></trk></gpx>